<?xml version="1.0" encoding="UTF-8" standalone="no" ?>
<gpx xmlns="http://www.topografix.com/GPX/1/1" creator="MapSource 6.11.6" version="1.1" xmlns:xsi="http://www.w3.org/2001/XMLSchema-instance" xsi:schemaLocation="http://www.topografix.com/GPX/1/1 http://www.topografix.com/GPX/1/1/gpx.xsd">

  <metadata>
    <link href="http://www.garmin.com">
      <text>Garmin International</text>
    </link>
    <time>2009-05-21T16:14:42Z</time>
    <bounds maxlat="50.666486" maxlon="6.408994" minlat="50.639020" minlon="6.310889"/>
  </metadata>

  <trk>
    <name>Schmidt-Kalltalsperre-Simonskall-Schmidt RW</name>
    <extensions>
      <gpxx:TrackExtension xmlns:gpxx="http://www.garmin.com/xmlschemas/GpxExtensions/v3" xmlns:xsi="http://www.w3.org/2001/XMLSchema-instance" xsi:schemaLocation="http://www.garmin.com/xmlschemas/GpxExtensions/v3 http://www.garmin.com/xmlschemas/GpxExtensions/v3/GpxExtensionsv3.xsd">
        <gpxx:DisplayColor>White</gpxx:DisplayColor>
      </gpxx:TrackExtension>
    </extensions>
    <trkseg>
      <trkpt lat="50.664528" lon="6.408773">
        <ele>210.670000</ele>
        <time>2009-05-21T07:38:23Z</time>
      </trkpt>
      <trkpt lat="50.664407" lon="6.408733">
        <ele>217.880000</ele>
        <time>2009-05-21T07:38:26Z</time>
      </trkpt>
      <trkpt lat="50.664388" lon="6.408730">
        <ele>225.090000</ele>
        <time>2009-05-21T07:38:27Z</time>
      </trkpt>
      <trkpt lat="50.664356" lon="6.408723">
        <ele>231.810000</ele>
        <time>2009-05-21T07:38:28Z</time>
      </trkpt>
      <trkpt lat="50.664355" lon="6.408713">
        <ele>238.060000</ele>
        <time>2009-05-21T07:38:29Z</time>
      </trkpt>
      <trkpt lat="50.664334" lon="6.408705">
        <ele>244.310000</ele>
        <time>2009-05-21T07:38:30Z</time>
      </trkpt>
      <trkpt lat="50.664309" lon="6.408710">
        <ele>250.560000</ele>
        <time>2009-05-21T07:38:31Z</time>
      </trkpt>
      <trkpt lat="50.664295" lon="6.408713">
        <ele>256.330000</ele>
        <time>2009-05-21T07:38:32Z</time>
      </trkpt>
      <trkpt lat="50.664279" lon="6.408704">
        <ele>261.620000</ele>
        <time>2009-05-21T07:38:33Z</time>
      </trkpt>
      <trkpt lat="50.664274" lon="6.408704">
        <ele>266.900000</ele>
        <time>2009-05-21T07:38:34Z</time>
      </trkpt>
      <trkpt lat="50.664270" lon="6.408702">
        <ele>271.710000</ele>
        <time>2009-05-21T07:38:35Z</time>
      </trkpt>
      <trkpt lat="50.664267" lon="6.408709">
        <ele>276.520000</ele>
        <time>2009-05-21T07:38:36Z</time>
      </trkpt>
      <trkpt lat="50.664271" lon="6.408705">
        <ele>281.320000</ele>
        <time>2009-05-21T07:38:37Z</time>
      </trkpt>
      <trkpt lat="50.664268" lon="6.408707">
        <ele>285.650000</ele>
        <time>2009-05-21T07:38:38Z</time>
      </trkpt>
      <trkpt lat="50.664273" lon="6.408707">
        <ele>289.970000</ele>
        <time>2009-05-21T07:38:39Z</time>
      </trkpt>
      <trkpt lat="50.664279" lon="6.408707">
        <ele>294.300000</ele>
        <time>2009-05-21T07:38:40Z</time>
      </trkpt>
      <trkpt lat="50.664292" lon="6.408698">
        <ele>298.150000</ele>
        <time>2009-05-21T07:38:41Z</time>
      </trkpt>
      <trkpt lat="50.664297" lon="6.408697">
        <ele>301.990000</ele>
        <time>2009-05-21T07:38:42Z</time>
      </trkpt>
      <trkpt lat="50.664294" lon="6.408701">
        <ele>305.840000</ele>
        <time>2009-05-21T07:38:43Z</time>
      </trkpt>
      <trkpt lat="50.664295" lon="6.408698">
        <ele>309.200000</ele>
        <time>2009-05-21T07:38:44Z</time>
      </trkpt>
      <trkpt lat="50.664289" lon="6.408705">
        <ele>313.050000</ele>
        <time>2009-05-21T07:38:45Z</time>
      </trkpt>
      <trkpt lat="50.664286" lon="6.408709">
        <ele>316.410000</ele>
        <time>2009-05-21T07:38:46Z</time>
      </trkpt>
      <trkpt lat="50.664284" lon="6.408705">
        <ele>319.780000</ele>
        <time>2009-05-21T07:38:47Z</time>
      </trkpt>
      <trkpt lat="50.664280" lon="6.408700">
        <ele>323.140000</ele>
        <time>2009-05-21T07:38:48Z</time>
      </trkpt>
      <trkpt lat="50.664279" lon="6.408691">
        <ele>326.500000</ele>
        <time>2009-05-21T07:38:49Z</time>
      </trkpt>
      <trkpt lat="50.664278" lon="6.408687">
        <ele>329.390000</ele>
        <time>2009-05-21T07:38:50Z</time>
      </trkpt>
      <trkpt lat="50.664266" lon="6.408707">
        <ele>335.160000</ele>
        <time>2009-05-21T07:38:52Z</time>
      </trkpt>
      <trkpt lat="50.664261" lon="6.408726">
        <ele>340.920000</ele>
        <time>2009-05-21T07:38:54Z</time>
      </trkpt>
      <trkpt lat="50.664238" lon="6.408742">
        <ele>345.730000</ele>
        <time>2009-05-21T07:38:56Z</time>
      </trkpt>
      <trkpt lat="50.664217" lon="6.408762">
        <ele>351.020000</ele>
        <time>2009-05-21T07:38:58Z</time>
      </trkpt>
      <trkpt lat="50.664231" lon="6.408774">
        <ele>355.340000</ele>
        <time>2009-05-21T07:39:00Z</time>
      </trkpt>
      <trkpt lat="50.664221" lon="6.408825">
        <ele>359.670000</ele>
        <time>2009-05-21T07:39:02Z</time>
      </trkpt>
      <trkpt lat="50.664230" lon="6.408849">
        <ele>363.040000</ele>
        <time>2009-05-21T07:39:04Z</time>
      </trkpt>
      <trkpt lat="50.664212" lon="6.408910">
        <ele>368.320000</ele>
        <time>2009-05-21T07:39:07Z</time>
      </trkpt>
      <trkpt lat="50.664215" lon="6.408929">
        <ele>371.690000</ele>
        <time>2009-05-21T07:39:09Z</time>
      </trkpt>
      <trkpt lat="50.664222" lon="6.408935">
        <ele>375.050000</ele>
        <time>2009-05-21T07:39:11Z</time>
      </trkpt>
      <trkpt lat="50.664232" lon="6.408943">
        <ele>378.420000</ele>
        <time>2009-05-21T07:39:13Z</time>
      </trkpt>
      <trkpt lat="50.664229" lon="6.408948">
        <ele>381.780000</ele>
        <time>2009-05-21T07:39:15Z</time>
      </trkpt>
      <trkpt lat="50.664247" lon="6.408946">
        <ele>386.110000</ele>
        <time>2009-05-21T07:39:18Z</time>
      </trkpt>
      <trkpt lat="50.664252" lon="6.408944">
        <ele>389.950000</ele>
        <time>2009-05-21T07:39:21Z</time>
      </trkpt>
      <trkpt lat="50.664254" lon="6.408947">
        <ele>393.320000</ele>
        <time>2009-05-21T07:39:24Z</time>
      </trkpt>
      <trkpt lat="50.664253" lon="6.408952">
        <ele>396.680000</ele>
        <time>2009-05-21T07:39:27Z</time>
      </trkpt>
      <trkpt lat="50.664263" lon="6.408971">
        <ele>399.570000</ele>
        <time>2009-05-21T07:39:30Z</time>
      </trkpt>
      <trkpt lat="50.664279" lon="6.408957">
        <ele>403.410000</ele>
        <time>2009-05-21T07:39:34Z</time>
      </trkpt>
      <trkpt lat="50.664278" lon="6.408959">
        <ele>406.290000</ele>
        <time>2009-05-21T07:39:38Z</time>
      </trkpt>
      <trkpt lat="50.664273" lon="6.408967">
        <ele>410.140000</ele>
        <time>2009-05-21T07:39:43Z</time>
      </trkpt>
      <trkpt lat="50.664274" lon="6.408968">
        <ele>413.500000</ele>
        <time>2009-05-21T07:39:49Z</time>
      </trkpt>
      <trkpt lat="50.664281" lon="6.408966">
        <ele>416.390000</ele>
        <time>2009-05-21T07:39:55Z</time>
      </trkpt>
      <trkpt lat="50.664250" lon="6.408976">
        <ele>419.750000</ele>
        <time>2009-05-21T07:40:01Z</time>
      </trkpt>
      <trkpt lat="50.664227" lon="6.408994">
        <ele>420.230000</ele>
        <time>2009-05-21T07:40:03Z</time>
      </trkpt>
      <trkpt lat="50.664094" lon="6.408898">
        <ele>424.080000</ele>
        <time>2009-05-21T07:40:13Z</time>
      </trkpt>
      <trkpt lat="50.664082" lon="6.408887">
        <ele>424.080000</ele>
        <time>2009-05-21T07:40:14Z</time>
      </trkpt>
      <trkpt lat="50.663955" lon="6.408736">
        <ele>426.960000</ele>
        <time>2009-05-21T07:40:26Z</time>
      </trkpt>
      <trkpt lat="50.663810" lon="6.408459">
        <ele>426.960000</ele>
        <time>2009-05-21T07:40:41Z</time>
      </trkpt>
      <trkpt lat="50.663699" lon="6.408269">
        <ele>427.920000</ele>
        <time>2009-05-21T07:40:53Z</time>
      </trkpt>
      <trkpt lat="50.663622" lon="6.408176">
        <ele>427.440000</ele>
        <time>2009-05-21T07:41:00Z</time>
      </trkpt>
      <trkpt lat="50.663570" lon="6.408101">
        <ele>427.920000</ele>
        <time>2009-05-21T07:41:05Z</time>
      </trkpt>
      <trkpt lat="50.663398" lon="6.407851">
        <ele>428.400000</ele>
        <time>2009-05-21T07:41:20Z</time>
      </trkpt>
      <trkpt lat="50.663330" lon="6.407606">
        <ele>428.890000</ele>
        <time>2009-05-21T07:41:34Z</time>
      </trkpt>
      <trkpt lat="50.663274" lon="6.407450">
        <ele>429.370000</ele>
        <time>2009-05-21T07:41:41Z</time>
      </trkpt>
      <trkpt lat="50.663272" lon="6.407218">
        <ele>429.370000</ele>
        <time>2009-05-21T07:41:52Z</time>
      </trkpt>
      <trkpt lat="50.663124" lon="6.407009">
        <ele>429.850000</ele>
        <time>2009-05-21T07:42:06Z</time>
      </trkpt>
      <trkpt lat="50.663011" lon="6.406892">
        <ele>430.810000</ele>
        <time>2009-05-21T07:42:16Z</time>
      </trkpt>
      <trkpt lat="50.662885" lon="6.406748">
        <ele>432.250000</ele>
        <time>2009-05-21T07:42:29Z</time>
      </trkpt>
      <trkpt lat="50.662764" lon="6.406608">
        <ele>434.650000</ele>
        <time>2009-05-21T07:42:40Z</time>
      </trkpt>
      <trkpt lat="50.662727" lon="6.406581">
        <ele>435.610000</ele>
        <time>2009-05-21T07:42:44Z</time>
      </trkpt>
      <trkpt lat="50.662568" lon="6.406451">
        <ele>438.020000</ele>
        <time>2009-05-21T07:42:58Z</time>
      </trkpt>
      <trkpt lat="50.662531" lon="6.406436">
        <ele>438.020000</ele>
        <time>2009-05-21T07:43:01Z</time>
      </trkpt>
      <trkpt lat="50.662492" lon="6.406499">
        <ele>438.020000</ele>
        <time>2009-05-21T07:43:05Z</time>
      </trkpt>
      <trkpt lat="50.662477" lon="6.406538">
        <ele>438.500000</ele>
        <time>2009-05-21T07:43:07Z</time>
      </trkpt>
      <trkpt lat="50.662425" lon="6.406613">
        <ele>438.500000</ele>
        <time>2009-05-21T07:43:12Z</time>
      </trkpt>
      <trkpt lat="50.662355" lon="6.406739">
        <ele>438.980000</ele>
        <time>2009-05-21T07:43:21Z</time>
      </trkpt>
      <trkpt lat="50.662224" lon="6.406998">
        <ele>439.940000</ele>
        <time>2009-05-21T07:43:33Z</time>
      </trkpt>
      <trkpt lat="50.662172" lon="6.407074">
        <ele>440.900000</ele>
        <time>2009-05-21T07:43:39Z</time>
      </trkpt>
      <trkpt lat="50.662079" lon="6.407230">
        <ele>442.340000</ele>
        <time>2009-05-21T07:43:51Z</time>
      </trkpt>
      <trkpt lat="50.662056" lon="6.407309">
        <ele>442.820000</ele>
        <time>2009-05-21T07:43:56Z</time>
      </trkpt>
      <trkpt lat="50.661966" lon="6.407455">
        <ele>443.310000</ele>
        <time>2009-05-21T07:44:06Z</time>
      </trkpt>
      <trkpt lat="50.661797" lon="6.407477">
        <ele>444.750000</ele>
        <time>2009-05-21T07:44:18Z</time>
      </trkpt>
      <trkpt lat="50.661645" lon="6.407249">
        <ele>445.710000</ele>
        <time>2009-05-21T07:44:33Z</time>
      </trkpt>
      <trkpt lat="50.661517" lon="6.407101">
        <ele>446.190000</ele>
        <time>2009-05-21T07:44:46Z</time>
      </trkpt>
      <trkpt lat="50.661338" lon="6.406854">
        <ele>447.630000</ele>
        <time>2009-05-21T07:45:01Z</time>
      </trkpt>
      <trkpt lat="50.661269" lon="6.406747">
        <ele>448.110000</ele>
        <time>2009-05-21T07:45:09Z</time>
      </trkpt>
      <trkpt lat="50.661244" lon="6.406715">
        <ele>448.590000</ele>
        <time>2009-05-21T07:45:12Z</time>
      </trkpt>
      <trkpt lat="50.661133" lon="6.406435">
        <ele>450.030000</ele>
        <time>2009-05-21T07:45:28Z</time>
      </trkpt>
      <trkpt lat="50.661063" lon="6.406112">
        <ele>450.520000</ele>
        <time>2009-05-21T07:45:43Z</time>
      </trkpt>
      <trkpt lat="50.661007" lon="6.405945">
        <ele>451.000000</ele>
        <time>2009-05-21T07:45:51Z</time>
      </trkpt>
      <trkpt lat="50.660905" lon="6.405606">
        <ele>451.960000</ele>
        <time>2009-05-21T07:46:08Z</time>
      </trkpt>
      <trkpt lat="50.660837" lon="6.405395">
        <ele>452.440000</ele>
        <time>2009-05-21T07:46:18Z</time>
      </trkpt>
      <trkpt lat="50.660776" lon="6.405075">
        <ele>453.400000</ele>
        <time>2009-05-21T07:46:35Z</time>
      </trkpt>
      <trkpt lat="50.660803" lon="6.404728">
        <ele>454.840000</ele>
        <time>2009-05-21T07:46:51Z</time>
      </trkpt>
      <trkpt lat="50.660869" lon="6.404398">
        <ele>455.320000</ele>
        <time>2009-05-21T07:47:05Z</time>
      </trkpt>
      <trkpt lat="50.660997" lon="6.404133">
        <ele>455.320000</ele>
        <time>2009-05-21T07:47:18Z</time>
      </trkpt>
      <trkpt lat="50.661044" lon="6.404075">
        <ele>455.320000</ele>
        <time>2009-05-21T07:47:22Z</time>
      </trkpt>
      <trkpt lat="50.661102" lon="6.403819">
        <ele>454.840000</ele>
        <time>2009-05-21T07:47:35Z</time>
      </trkpt>
      <trkpt lat="50.661175" lon="6.403570">
        <ele>454.840000</ele>
        <time>2009-05-21T07:47:47Z</time>
      </trkpt>
      <trkpt lat="50.661218" lon="6.403486">
        <ele>454.840000</ele>
        <time>2009-05-21T07:47:53Z</time>
      </trkpt>
      <trkpt lat="50.661303" lon="6.403206">
        <ele>454.840000</ele>
        <time>2009-05-21T07:48:07Z</time>
      </trkpt>
      <trkpt lat="50.661275" lon="6.403254">
        <ele>454.840000</ele>
        <time>2009-05-21T07:48:34Z</time>
      </trkpt>
      <trkpt lat="50.661230" lon="6.403276">
        <ele>455.320000</ele>
        <time>2009-05-21T07:48:38Z</time>
      </trkpt>
      <trkpt lat="50.661046" lon="6.403155">
        <ele>456.760000</ele>
        <time>2009-05-21T07:48:53Z</time>
      </trkpt>
      <trkpt lat="50.660946" lon="6.403095">
        <ele>457.720000</ele>
        <time>2009-05-21T07:49:00Z</time>
      </trkpt>
      <trkpt lat="50.660913" lon="6.403035">
        <ele>458.210000</ele>
        <time>2009-05-21T07:49:04Z</time>
      </trkpt>
      <trkpt lat="50.660727" lon="6.402868">
        <ele>460.130000</ele>
        <time>2009-05-21T07:49:19Z</time>
      </trkpt>
      <trkpt lat="50.660607" lon="6.402671">
        <ele>460.610000</ele>
        <time>2009-05-21T07:49:32Z</time>
      </trkpt>
      <trkpt lat="50.660439" lon="6.402452">
        <ele>462.050000</ele>
        <time>2009-05-21T07:49:47Z</time>
      </trkpt>
      <trkpt lat="50.660347" lon="6.402304">
        <ele>462.530000</ele>
        <time>2009-05-21T07:49:57Z</time>
      </trkpt>
      <trkpt lat="50.660190" lon="6.402103">
        <ele>463.970000</ele>
        <time>2009-05-21T07:50:11Z</time>
      </trkpt>
      <trkpt lat="50.660044" lon="6.401927">
        <ele>465.420000</ele>
        <time>2009-05-21T07:50:24Z</time>
      </trkpt>
      <trkpt lat="50.659914" lon="6.401682">
        <ele>466.380000</ele>
        <time>2009-05-21T07:50:38Z</time>
      </trkpt>
      <trkpt lat="50.659839" lon="6.401566">
        <ele>468.300000</ele>
        <time>2009-05-21T07:50:47Z</time>
      </trkpt>
      <trkpt lat="50.659704" lon="6.401341">
        <ele>468.780000</ele>
        <time>2009-05-21T07:51:01Z</time>
      </trkpt>
      <trkpt lat="50.659534" lon="6.401155">
        <ele>470.220000</ele>
        <time>2009-05-21T07:51:16Z</time>
      </trkpt>
      <trkpt lat="50.659387" lon="6.400962">
        <ele>471.180000</ele>
        <time>2009-05-21T07:51:30Z</time>
      </trkpt>
      <trkpt lat="50.659345" lon="6.400918">
        <ele>471.180000</ele>
        <time>2009-05-21T07:51:34Z</time>
      </trkpt>
      <trkpt lat="50.659149" lon="6.400722">
        <ele>472.140000</ele>
        <time>2009-05-21T07:51:50Z</time>
      </trkpt>
      <trkpt lat="50.658974" lon="6.400595">
        <ele>473.590000</ele>
        <time>2009-05-21T07:52:04Z</time>
      </trkpt>
      <trkpt lat="50.658833" lon="6.400468">
        <ele>474.070000</ele>
        <time>2009-05-21T07:52:15Z</time>
      </trkpt>
      <trkpt lat="50.658781" lon="6.400457">
        <ele>474.550000</ele>
        <time>2009-05-21T07:52:19Z</time>
      </trkpt>
      <trkpt lat="50.658591" lon="6.400326">
        <ele>475.510000</ele>
        <time>2009-05-21T07:52:33Z</time>
      </trkpt>
      <trkpt lat="50.658446" lon="6.400420">
        <ele>475.990000</ele>
        <time>2009-05-21T07:52:47Z</time>
      </trkpt>
      <trkpt lat="50.658366" lon="6.400611">
        <ele>475.510000</ele>
        <time>2009-05-21T07:52:58Z</time>
      </trkpt>
      <trkpt lat="50.658257" lon="6.400789">
        <ele>475.030000</ele>
        <time>2009-05-21T07:53:10Z</time>
      </trkpt>
      <trkpt lat="50.658193" lon="6.400956">
        <ele>475.030000</ele>
        <time>2009-05-21T07:53:19Z</time>
      </trkpt>
      <trkpt lat="50.658142" lon="6.401018">
        <ele>474.550000</ele>
        <time>2009-05-21T07:53:23Z</time>
      </trkpt>
      <trkpt lat="50.657976" lon="6.400869">
        <ele>475.030000</ele>
        <time>2009-05-21T07:53:37Z</time>
      </trkpt>
      <trkpt lat="50.657928" lon="6.400809">
        <ele>475.030000</ele>
        <time>2009-05-21T07:53:41Z</time>
      </trkpt>
      <trkpt lat="50.657890" lon="6.400728">
        <ele>475.510000</ele>
        <time>2009-05-21T07:53:47Z</time>
      </trkpt>
      <trkpt lat="50.657767" lon="6.400606">
        <ele>475.990000</ele>
        <time>2009-05-21T07:53:57Z</time>
      </trkpt>
      <trkpt lat="50.657654" lon="6.400466">
        <ele>475.990000</ele>
        <time>2009-05-21T07:54:07Z</time>
      </trkpt>
      <trkpt lat="50.657604" lon="6.400365">
        <ele>476.470000</ele>
        <time>2009-05-21T07:54:13Z</time>
      </trkpt>
      <trkpt lat="50.657547" lon="6.400313">
        <ele>476.950000</ele>
        <time>2009-05-21T07:54:18Z</time>
      </trkpt>
      <trkpt lat="50.657462" lon="6.400174">
        <ele>476.950000</ele>
        <time>2009-05-21T07:54:27Z</time>
      </trkpt>
      <trkpt lat="50.657341" lon="6.399937">
        <ele>477.910000</ele>
        <time>2009-05-21T07:54:41Z</time>
      </trkpt>
      <trkpt lat="50.657215" lon="6.399691">
        <ele>477.430000</ele>
        <time>2009-05-21T07:54:54Z</time>
      </trkpt>
      <trkpt lat="50.657054" lon="6.399402">
        <ele>476.950000</ele>
        <time>2009-05-21T07:55:11Z</time>
      </trkpt>
      <trkpt lat="50.656922" lon="6.399206">
        <ele>476.950000</ele>
        <time>2009-05-21T07:55:24Z</time>
      </trkpt>
      <trkpt lat="50.656805" lon="6.398983">
        <ele>477.430000</ele>
        <time>2009-05-21T07:55:37Z</time>
      </trkpt>
      <trkpt lat="50.656624" lon="6.398816">
        <ele>476.950000</ele>
        <time>2009-05-21T07:55:51Z</time>
      </trkpt>
      <trkpt lat="50.656612" lon="6.398811">
        <ele>476.950000</ele>
        <time>2009-05-21T07:55:52Z</time>
      </trkpt>
      <trkpt lat="50.656529" lon="6.398703">
        <ele>476.470000</ele>
        <time>2009-05-21T07:55:58Z</time>
      </trkpt>
      <trkpt lat="50.656364" lon="6.398504">
        <ele>476.470000</ele>
        <time>2009-05-21T07:56:11Z</time>
      </trkpt>
      <trkpt lat="50.656205" lon="6.398355">
        <ele>476.470000</ele>
        <time>2009-05-21T07:56:25Z</time>
      </trkpt>
      <trkpt lat="50.656044" lon="6.398170">
        <ele>476.470000</ele>
        <time>2009-05-21T07:56:40Z</time>
      </trkpt>
      <trkpt lat="50.656118" lon="6.397846">
        <ele>476.950000</ele>
        <time>2009-05-21T07:56:56Z</time>
      </trkpt>
      <trkpt lat="50.656228" lon="6.397617">
        <ele>477.910000</ele>
        <time>2009-05-21T07:57:09Z</time>
      </trkpt>
      <trkpt lat="50.656283" lon="6.397510">
        <ele>477.910000</ele>
        <time>2009-05-21T07:57:15Z</time>
      </trkpt>
      <trkpt lat="50.656348" lon="6.397441">
        <ele>478.390000</ele>
        <time>2009-05-21T07:57:20Z</time>
      </trkpt>
      <trkpt lat="50.656382" lon="6.397390">
        <ele>478.870000</ele>
        <time>2009-05-21T07:57:23Z</time>
      </trkpt>
      <trkpt lat="50.656438" lon="6.397331">
        <ele>478.870000</ele>
        <time>2009-05-21T07:57:28Z</time>
      </trkpt>
      <trkpt lat="50.656516" lon="6.397241">
        <ele>479.350000</ele>
        <time>2009-05-21T07:57:35Z</time>
      </trkpt>
      <trkpt lat="50.656679" lon="6.396988">
        <ele>480.800000</ele>
        <time>2009-05-21T07:57:51Z</time>
      </trkpt>
      <trkpt lat="50.656794" lon="6.396791">
        <ele>481.280000</ele>
        <time>2009-05-21T07:58:03Z</time>
      </trkpt>
      <trkpt lat="50.656956" lon="6.396575">
        <ele>482.720000</ele>
        <time>2009-05-21T07:58:16Z</time>
      </trkpt>
      <trkpt lat="50.656993" lon="6.396524">
        <ele>482.720000</ele>
        <time>2009-05-21T07:58:20Z</time>
      </trkpt>
      <trkpt lat="50.657042" lon="6.396358">
        <ele>483.200000</ele>
        <time>2009-05-21T07:58:28Z</time>
      </trkpt>
      <trkpt lat="50.657228" lon="6.396203">
        <ele>484.160000</ele>
        <time>2009-05-21T07:58:43Z</time>
      </trkpt>
      <trkpt lat="50.657315" lon="6.396107">
        <ele>484.640000</ele>
        <time>2009-05-21T07:58:50Z</time>
      </trkpt>
      <trkpt lat="50.657445" lon="6.395850">
        <ele>485.600000</ele>
        <time>2009-05-21T07:59:04Z</time>
      </trkpt>
      <trkpt lat="50.657573" lon="6.395667">
        <ele>486.080000</ele>
        <time>2009-05-21T07:59:16Z</time>
      </trkpt>
      <trkpt lat="50.657674" lon="6.395431">
        <ele>486.560000</ele>
        <time>2009-05-21T07:59:30Z</time>
      </trkpt>
      <trkpt lat="50.657595" lon="6.395268">
        <ele>487.050000</ele>
        <time>2009-05-21T07:59:40Z</time>
      </trkpt>
      <trkpt lat="50.657448" lon="6.394982">
        <ele>487.530000</ele>
        <time>2009-05-21T07:59:58Z</time>
      </trkpt>
      <trkpt lat="50.657376" lon="6.394831">
        <ele>487.530000</ele>
        <time>2009-05-21T08:00:07Z</time>
      </trkpt>
      <trkpt lat="50.657343" lon="6.394772">
        <ele>488.010000</ele>
        <time>2009-05-21T08:00:11Z</time>
      </trkpt>
      <trkpt lat="50.657226" lon="6.394567">
        <ele>487.530000</ele>
        <time>2009-05-21T08:00:22Z</time>
      </trkpt>
      <trkpt lat="50.657104" lon="6.394330">
        <ele>488.490000</ele>
        <time>2009-05-21T08:00:36Z</time>
      </trkpt>
      <trkpt lat="50.657033" lon="6.394141">
        <ele>488.490000</ele>
        <time>2009-05-21T08:00:46Z</time>
      </trkpt>
      <trkpt lat="50.656993" lon="6.394067">
        <ele>488.010000</ele>
        <time>2009-05-21T08:00:50Z</time>
      </trkpt>
      <trkpt lat="50.656839" lon="6.393796">
        <ele>488.970000</ele>
        <time>2009-05-21T08:01:05Z</time>
      </trkpt>
      <trkpt lat="50.656718" lon="6.393625">
        <ele>488.490000</ele>
        <time>2009-05-21T08:01:16Z</time>
      </trkpt>
      <trkpt lat="50.656601" lon="6.393363">
        <ele>488.970000</ele>
        <time>2009-05-21T08:01:30Z</time>
      </trkpt>
      <trkpt lat="50.656556" lon="6.393289">
        <ele>489.930000</ele>
        <time>2009-05-21T08:01:35Z</time>
      </trkpt>
      <trkpt lat="50.656417" lon="6.393036">
        <ele>488.970000</ele>
        <time>2009-05-21T08:01:50Z</time>
      </trkpt>
      <trkpt lat="50.656285" lon="6.392809">
        <ele>488.970000</ele>
        <time>2009-05-21T08:02:04Z</time>
      </trkpt>
      <trkpt lat="50.656179" lon="6.392570">
        <ele>489.930000</ele>
        <time>2009-05-21T08:02:17Z</time>
      </trkpt>
      <trkpt lat="50.656048" lon="6.392317">
        <ele>489.450000</ele>
        <time>2009-05-21T08:02:31Z</time>
      </trkpt>
      <trkpt lat="50.656004" lon="6.392236">
        <ele>489.450000</ele>
        <time>2009-05-21T08:02:36Z</time>
      </trkpt>
      <trkpt lat="50.655985" lon="6.392209">
        <ele>489.450000</ele>
        <time>2009-05-21T08:02:38Z</time>
      </trkpt>
      <trkpt lat="50.655849" lon="6.391951">
        <ele>489.450000</ele>
        <time>2009-05-21T08:02:53Z</time>
      </trkpt>
      <trkpt lat="50.655771" lon="6.391787">
        <ele>489.930000</ele>
        <time>2009-05-21T08:03:03Z</time>
      </trkpt>
      <trkpt lat="50.655624" lon="6.391523">
        <ele>489.930000</ele>
        <time>2009-05-21T08:03:18Z</time>
      </trkpt>
      <trkpt lat="50.655619" lon="6.391508">
        <ele>489.930000</ele>
        <time>2009-05-21T08:03:19Z</time>
      </trkpt>
      <trkpt lat="50.655538" lon="6.391368">
        <ele>490.410000</ele>
        <time>2009-05-21T08:03:27Z</time>
      </trkpt>
      <trkpt lat="50.655408" lon="6.391060">
        <ele>489.930000</ele>
        <time>2009-05-21T08:03:42Z</time>
      </trkpt>
      <trkpt lat="50.655340" lon="6.390746">
        <ele>490.890000</ele>
        <time>2009-05-21T08:03:56Z</time>
      </trkpt>
      <trkpt lat="50.655295" lon="6.390544">
        <ele>490.410000</ele>
        <time>2009-05-21T08:04:05Z</time>
      </trkpt>
      <trkpt lat="50.655214" lon="6.390236">
        <ele>490.890000</ele>
        <time>2009-05-21T08:04:20Z</time>
      </trkpt>
      <trkpt lat="50.655200" lon="6.390166">
        <ele>490.410000</ele>
        <time>2009-05-21T08:04:23Z</time>
      </trkpt>
      <trkpt lat="50.655164" lon="6.389996">
        <ele>489.930000</ele>
        <time>2009-05-21T08:04:30Z</time>
      </trkpt>
      <trkpt lat="50.655077" lon="6.389748">
        <ele>490.410000</ele>
        <time>2009-05-21T08:04:44Z</time>
      </trkpt>
      <trkpt lat="50.655006" lon="6.389410">
        <ele>489.930000</ele>
        <time>2009-05-21T08:04:59Z</time>
      </trkpt>
      <trkpt lat="50.654913" lon="6.389065">
        <ele>489.450000</ele>
        <time>2009-05-21T08:05:16Z</time>
      </trkpt>
      <trkpt lat="50.654902" lon="6.388988">
        <ele>489.450000</ele>
        <time>2009-05-21T08:05:20Z</time>
      </trkpt>
      <trkpt lat="50.654875" lon="6.388902">
        <ele>489.450000</ele>
        <time>2009-05-21T08:05:24Z</time>
      </trkpt>
      <trkpt lat="50.654794" lon="6.388584">
        <ele>488.970000</ele>
        <time>2009-05-21T08:05:39Z</time>
      </trkpt>
      <trkpt lat="50.654704" lon="6.388248">
        <ele>488.970000</ele>
        <time>2009-05-21T08:05:55Z</time>
      </trkpt>
      <trkpt lat="50.654689" lon="6.388185">
        <ele>488.010000</ele>
        <time>2009-05-21T08:05:58Z</time>
      </trkpt>
      <trkpt lat="50.654670" lon="6.388073">
        <ele>488.490000</ele>
        <time>2009-05-21T08:06:03Z</time>
      </trkpt>
      <trkpt lat="50.654629" lon="6.387963">
        <ele>488.010000</ele>
        <time>2009-05-21T08:06:09Z</time>
      </trkpt>
      <trkpt lat="50.654610" lon="6.387690">
        <ele>488.010000</ele>
        <time>2009-05-21T08:06:19Z</time>
      </trkpt>
      <trkpt lat="50.654615" lon="6.387571">
        <ele>488.010000</ele>
        <time>2009-05-21T08:06:24Z</time>
      </trkpt>
      <trkpt lat="50.654644" lon="6.387250">
        <ele>488.010000</ele>
        <time>2009-05-21T08:06:39Z</time>
      </trkpt>
      <trkpt lat="50.654680" lon="6.386905">
        <ele>486.080000</ele>
        <time>2009-05-21T08:06:53Z</time>
      </trkpt>
      <trkpt lat="50.654678" lon="6.386623">
        <ele>486.080000</ele>
        <time>2009-05-21T08:07:05Z</time>
      </trkpt>
      <trkpt lat="50.654663" lon="6.386494">
        <ele>486.080000</ele>
        <time>2009-05-21T08:07:10Z</time>
      </trkpt>
      <trkpt lat="50.654685" lon="6.386159">
        <ele>485.120000</ele>
        <time>2009-05-21T08:07:26Z</time>
      </trkpt>
      <trkpt lat="50.654708" lon="6.385816">
        <ele>484.640000</ele>
        <time>2009-05-21T08:07:41Z</time>
      </trkpt>
      <trkpt lat="50.654715" lon="6.385468">
        <ele>484.640000</ele>
        <time>2009-05-21T08:07:55Z</time>
      </trkpt>
      <trkpt lat="50.654740" lon="6.385128">
        <ele>484.160000</ele>
        <time>2009-05-21T08:08:09Z</time>
      </trkpt>
      <trkpt lat="50.654739" lon="6.385046">
        <ele>484.160000</ele>
        <time>2009-05-21T08:08:13Z</time>
      </trkpt>
      <trkpt lat="50.654745" lon="6.384977">
        <ele>484.160000</ele>
        <time>2009-05-21T08:08:16Z</time>
      </trkpt>
      <trkpt lat="50.654742" lon="6.384872">
        <ele>484.160000</ele>
        <time>2009-05-21T08:08:21Z</time>
      </trkpt>
      <trkpt lat="50.654781" lon="6.384510">
        <ele>483.680000</ele>
        <time>2009-05-21T08:08:37Z</time>
      </trkpt>
      <trkpt lat="50.654773" lon="6.384221">
        <ele>483.200000</ele>
        <time>2009-05-21T08:08:51Z</time>
      </trkpt>
      <trkpt lat="50.654789" lon="6.384050">
        <ele>483.200000</ele>
        <time>2009-05-21T08:08:58Z</time>
      </trkpt>
      <trkpt lat="50.654814" lon="6.383724">
        <ele>484.160000</ele>
        <time>2009-05-21T08:09:12Z</time>
      </trkpt>
      <trkpt lat="50.654886" lon="6.383449">
        <ele>482.240000</ele>
        <time>2009-05-21T08:09:25Z</time>
      </trkpt>
      <trkpt lat="50.654944" lon="6.383129">
        <ele>481.760000</ele>
        <time>2009-05-21T08:09:39Z</time>
      </trkpt>
      <trkpt lat="50.655003" lon="6.382840">
        <ele>481.760000</ele>
        <time>2009-05-21T08:09:53Z</time>
      </trkpt>
      <trkpt lat="50.655044" lon="6.382633">
        <ele>481.760000</ele>
        <time>2009-05-21T08:10:02Z</time>
      </trkpt>
      <trkpt lat="50.655046" lon="6.382562">
        <ele>481.760000</ele>
        <time>2009-05-21T08:10:06Z</time>
      </trkpt>
      <trkpt lat="50.655103" lon="6.382204">
        <ele>481.760000</ele>
        <time>2009-05-21T08:10:23Z</time>
      </trkpt>
      <trkpt lat="50.655165" lon="6.381985">
        <ele>481.280000</ele>
        <time>2009-05-21T08:10:32Z</time>
      </trkpt>
      <trkpt lat="50.655168" lon="6.381893">
        <ele>481.760000</ele>
        <time>2009-05-21T08:10:37Z</time>
      </trkpt>
      <trkpt lat="50.655256" lon="6.381555">
        <ele>482.240000</ele>
        <time>2009-05-21T08:10:53Z</time>
      </trkpt>
      <trkpt lat="50.655308" lon="6.381240">
        <ele>483.680000</ele>
        <time>2009-05-21T08:11:06Z</time>
      </trkpt>
      <trkpt lat="50.655370" lon="6.381006">
        <ele>484.160000</ele>
        <time>2009-05-21T08:11:18Z</time>
      </trkpt>
      <trkpt lat="50.655429" lon="6.380713">
        <ele>484.640000</ele>
        <time>2009-05-21T08:11:31Z</time>
      </trkpt>
      <trkpt lat="50.655433" lon="6.380646">
        <ele>485.120000</ele>
        <time>2009-05-21T08:11:35Z</time>
      </trkpt>
      <trkpt lat="50.655500" lon="6.380377">
        <ele>486.080000</ele>
        <time>2009-05-21T08:11:50Z</time>
      </trkpt>
      <trkpt lat="50.655564" lon="6.380097">
        <ele>486.080000</ele>
        <time>2009-05-21T08:12:04Z</time>
      </trkpt>
      <trkpt lat="50.655594" lon="6.379823">
        <ele>487.050000</ele>
        <time>2009-05-21T08:12:16Z</time>
      </trkpt>
      <trkpt lat="50.655594" lon="6.379622">
        <ele>486.560000</ele>
        <time>2009-05-21T08:12:26Z</time>
      </trkpt>
      <trkpt lat="50.655533" lon="6.379346">
        <ele>487.050000</ele>
        <time>2009-05-21T08:12:40Z</time>
      </trkpt>
      <trkpt lat="50.655493" lon="6.379000">
        <ele>486.560000</ele>
        <time>2009-05-21T08:12:54Z</time>
      </trkpt>
      <trkpt lat="50.655473" lon="6.378820">
        <ele>487.050000</ele>
        <time>2009-05-21T08:13:04Z</time>
      </trkpt>
      <trkpt lat="50.655467" lon="6.378775">
        <ele>486.560000</ele>
        <time>2009-05-21T08:13:07Z</time>
      </trkpt>
      <trkpt lat="50.655421" lon="6.378447">
        <ele>487.050000</ele>
        <time>2009-05-21T08:13:23Z</time>
      </trkpt>
      <trkpt lat="50.655417" lon="6.378427">
        <ele>487.050000</ele>
        <time>2009-05-21T08:13:24Z</time>
      </trkpt>
      <trkpt lat="50.655417" lon="6.378109">
        <ele>487.050000</ele>
        <time>2009-05-21T08:13:38Z</time>
      </trkpt>
      <trkpt lat="50.655398" lon="6.377926">
        <ele>487.530000</ele>
        <time>2009-05-21T08:13:45Z</time>
      </trkpt>
      <trkpt lat="50.655382" lon="6.377868">
        <ele>487.530000</ele>
        <time>2009-05-21T08:13:48Z</time>
      </trkpt>
      <trkpt lat="50.655372" lon="6.377557">
        <ele>487.530000</ele>
        <time>2009-05-21T08:14:02Z</time>
      </trkpt>
      <trkpt lat="50.655349" lon="6.377452">
        <ele>487.050000</ele>
        <time>2009-05-21T08:14:07Z</time>
      </trkpt>
      <trkpt lat="50.655320" lon="6.377276">
        <ele>487.530000</ele>
        <time>2009-05-21T08:14:15Z</time>
      </trkpt>
      <trkpt lat="50.655345" lon="6.377106">
        <ele>487.530000</ele>
        <time>2009-05-21T08:14:22Z</time>
      </trkpt>
      <trkpt lat="50.655510" lon="6.377018">
        <ele>488.970000</ele>
        <time>2009-05-21T08:14:36Z</time>
      </trkpt>
      <trkpt lat="50.655677" lon="6.376961">
        <ele>489.450000</ele>
        <time>2009-05-21T08:14:48Z</time>
      </trkpt>
      <trkpt lat="50.655688" lon="6.376912">
        <ele>489.450000</ele>
        <time>2009-05-21T08:14:58Z</time>
      </trkpt>
      <trkpt lat="50.655595" lon="6.376947">
        <ele>489.450000</ele>
        <time>2009-05-21T08:15:05Z</time>
      </trkpt>
      <trkpt lat="50.655384" lon="6.377115">
        <ele>488.010000</ele>
        <time>2009-05-21T08:15:20Z</time>
      </trkpt>
      <trkpt lat="50.655289" lon="6.377054">
        <ele>488.010000</ele>
        <time>2009-05-21T08:15:27Z</time>
      </trkpt>
      <trkpt lat="50.655272" lon="6.376990">
        <ele>488.010000</ele>
        <time>2009-05-21T08:15:31Z</time>
      </trkpt>
      <trkpt lat="50.655263" lon="6.376933">
        <ele>488.490000</ele>
        <time>2009-05-21T08:15:34Z</time>
      </trkpt>
      <trkpt lat="50.655184" lon="6.376629">
        <ele>488.490000</ele>
        <time>2009-05-21T08:15:48Z</time>
      </trkpt>
      <trkpt lat="50.655116" lon="6.376349">
        <ele>488.490000</ele>
        <time>2009-05-21T08:16:01Z</time>
      </trkpt>
      <trkpt lat="50.655117" lon="6.376216">
        <ele>488.970000</ele>
        <time>2009-05-21T08:16:11Z</time>
      </trkpt>
      <trkpt lat="50.655311" lon="6.375760">
        <ele>490.890000</ele>
        <time>2009-05-21T08:16:35Z</time>
      </trkpt>
      <trkpt lat="50.655399" lon="6.375533">
        <ele>491.850000</ele>
        <time>2009-05-21T08:16:48Z</time>
      </trkpt>
      <trkpt lat="50.655561" lon="6.375262">
        <ele>492.810000</ele>
        <time>2009-05-21T08:17:03Z</time>
      </trkpt>
      <trkpt lat="50.655657" lon="6.375106">
        <ele>492.810000</ele>
        <time>2009-05-21T08:17:14Z</time>
      </trkpt>
      <trkpt lat="50.655675" lon="6.375048">
        <ele>492.810000</ele>
        <time>2009-05-21T08:17:18Z</time>
      </trkpt>
      <trkpt lat="50.655695" lon="6.375021">
        <ele>492.810000</ele>
        <time>2009-05-21T08:17:21Z</time>
      </trkpt>
      <trkpt lat="50.655712" lon="6.374948">
        <ele>493.290000</ele>
        <time>2009-05-21T08:17:26Z</time>
      </trkpt>
      <trkpt lat="50.655775" lon="6.374824">
        <ele>493.770000</ele>
        <time>2009-05-21T08:17:33Z</time>
      </trkpt>
      <trkpt lat="50.655865" lon="6.374602">
        <ele>493.770000</ele>
        <time>2009-05-21T08:17:46Z</time>
      </trkpt>
      <trkpt lat="50.655960" lon="6.374377">
        <ele>493.770000</ele>
        <time>2009-05-21T08:18:01Z</time>
      </trkpt>
      <trkpt lat="50.656016" lon="6.374197">
        <ele>494.260000</ele>
        <time>2009-05-21T08:18:16Z</time>
      </trkpt>
      <trkpt lat="50.656043" lon="6.374165">
        <ele>494.260000</ele>
        <time>2009-05-21T08:18:18Z</time>
      </trkpt>
      <trkpt lat="50.656046" lon="6.374079">
        <ele>494.740000</ele>
        <time>2009-05-21T08:18:31Z</time>
      </trkpt>
      <trkpt lat="50.655973" lon="6.374014">
        <ele>494.740000</ele>
        <time>2009-05-21T08:18:48Z</time>
      </trkpt>
      <trkpt lat="50.655886" lon="6.373938">
        <ele>495.220000</ele>
        <time>2009-05-21T08:19:04Z</time>
      </trkpt>
      <trkpt lat="50.655737" lon="6.373725">
        <ele>495.700000</ele>
        <time>2009-05-21T08:19:24Z</time>
      </trkpt>
      <trkpt lat="50.655624" lon="6.373481">
        <ele>495.700000</ele>
        <time>2009-05-21T08:19:44Z</time>
      </trkpt>
      <trkpt lat="50.655531" lon="6.373348">
        <ele>496.660000</ele>
        <time>2009-05-21T08:20:09Z</time>
      </trkpt>
      <trkpt lat="50.655629" lon="6.373481">
        <ele>496.180000</ele>
        <time>2009-05-21T08:20:39Z</time>
      </trkpt>
      <trkpt lat="50.655645" lon="6.373504">
        <ele>496.180000</ele>
        <time>2009-05-21T08:20:41Z</time>
      </trkpt>
      <trkpt lat="50.655836" lon="6.373849">
        <ele>495.700000</ele>
        <time>2009-05-21T08:21:02Z</time>
      </trkpt>
      <trkpt lat="50.655919" lon="6.373970">
        <ele>495.700000</ele>
        <time>2009-05-21T08:21:11Z</time>
      </trkpt>
      <trkpt lat="50.656040" lon="6.374020">
        <ele>495.700000</ele>
        <time>2009-05-21T08:21:19Z</time>
      </trkpt>
      <trkpt lat="50.656028" lon="6.374102">
        <ele>495.220000</ele>
        <time>2009-05-21T08:21:21Z</time>
      </trkpt>
      <trkpt lat="50.656067" lon="6.374098">
        <ele>495.700000</ele>
        <time>2009-05-21T08:21:23Z</time>
      </trkpt>
      <trkpt lat="50.656130" lon="6.374004">
        <ele>495.220000</ele>
        <time>2009-05-21T08:21:31Z</time>
      </trkpt>
      <trkpt lat="50.656301" lon="6.373590">
        <ele>494.260000</ele>
        <time>2009-05-21T08:21:54Z</time>
      </trkpt>
      <trkpt lat="50.656401" lon="6.373342">
        <ele>493.770000</ele>
        <time>2009-05-21T08:22:06Z</time>
      </trkpt>
      <trkpt lat="50.656440" lon="6.373263">
        <ele>493.770000</ele>
        <time>2009-05-21T08:22:11Z</time>
      </trkpt>
      <trkpt lat="50.656555" lon="6.373024">
        <ele>493.290000</ele>
        <time>2009-05-21T08:22:27Z</time>
      </trkpt>
      <trkpt lat="50.656646" lon="6.372800">
        <ele>493.290000</ele>
        <time>2009-05-21T08:22:42Z</time>
      </trkpt>
      <trkpt lat="50.656786" lon="6.372493">
        <ele>493.770000</ele>
        <time>2009-05-21T08:23:02Z</time>
      </trkpt>
      <trkpt lat="50.656921" lon="6.372282">
        <ele>494.260000</ele>
        <time>2009-05-21T08:23:17Z</time>
      </trkpt>
      <trkpt lat="50.656936" lon="6.372237">
        <ele>494.260000</ele>
        <time>2009-05-21T08:23:20Z</time>
      </trkpt>
      <trkpt lat="50.657050" lon="6.371947">
        <ele>495.220000</ele>
        <time>2009-05-21T08:23:34Z</time>
      </trkpt>
      <trkpt lat="50.657164" lon="6.371648">
        <ele>495.220000</ele>
        <time>2009-05-21T08:23:51Z</time>
      </trkpt>
      <trkpt lat="50.657209" lon="6.371525">
        <ele>495.220000</ele>
        <time>2009-05-21T08:23:58Z</time>
      </trkpt>
      <trkpt lat="50.657245" lon="6.371469">
        <ele>495.220000</ele>
        <time>2009-05-21T08:24:02Z</time>
      </trkpt>
      <trkpt lat="50.657371" lon="6.371185">
        <ele>494.740000</ele>
        <time>2009-05-21T08:24:18Z</time>
      </trkpt>
      <trkpt lat="50.657434" lon="6.371009">
        <ele>494.740000</ele>
        <time>2009-05-21T08:24:29Z</time>
      </trkpt>
      <trkpt lat="50.657473" lon="6.370917">
        <ele>494.740000</ele>
        <time>2009-05-21T08:24:34Z</time>
      </trkpt>
      <trkpt lat="50.657597" lon="6.370721">
        <ele>495.220000</ele>
        <time>2009-05-21T08:24:49Z</time>
      </trkpt>
      <trkpt lat="50.657673" lon="6.370521">
        <ele>495.220000</ele>
        <time>2009-05-21T08:25:02Z</time>
      </trkpt>
      <trkpt lat="50.657697" lon="6.370456">
        <ele>495.220000</ele>
        <time>2009-05-21T08:25:05Z</time>
      </trkpt>
      <trkpt lat="50.657845" lon="6.370234">
        <ele>495.700000</ele>
        <time>2009-05-21T08:25:19Z</time>
      </trkpt>
      <trkpt lat="50.657914" lon="6.370019">
        <ele>495.700000</ele>
        <time>2009-05-21T08:25:32Z</time>
      </trkpt>
      <trkpt lat="50.657956" lon="6.369895">
        <ele>495.220000</ele>
        <time>2009-05-21T08:25:39Z</time>
      </trkpt>
      <trkpt lat="50.658033" lon="6.369671">
        <ele>495.220000</ele>
        <time>2009-05-21T08:25:52Z</time>
      </trkpt>
      <trkpt lat="50.658070" lon="6.369627">
        <ele>495.220000</ele>
        <time>2009-05-21T08:25:56Z</time>
      </trkpt>
      <trkpt lat="50.658111" lon="6.369512">
        <ele>495.220000</ele>
        <time>2009-05-21T08:26:02Z</time>
      </trkpt>
      <trkpt lat="50.658224" lon="6.369299">
        <ele>494.740000</ele>
        <time>2009-05-21T08:26:14Z</time>
      </trkpt>
      <trkpt lat="50.658309" lon="6.369053">
        <ele>494.740000</ele>
        <time>2009-05-21T08:26:26Z</time>
      </trkpt>
      <trkpt lat="50.658462" lon="6.368862">
        <ele>493.290000</ele>
        <time>2009-05-21T08:26:39Z</time>
      </trkpt>
      <trkpt lat="50.658509" lon="6.368815">
        <ele>493.290000</ele>
        <time>2009-05-21T08:26:44Z</time>
      </trkpt>
      <trkpt lat="50.658529" lon="6.368704">
        <ele>493.290000</ele>
        <time>2009-05-21T08:26:49Z</time>
      </trkpt>
      <trkpt lat="50.658519" lon="6.368649">
        <ele>493.770000</ele>
        <time>2009-05-21T08:26:52Z</time>
      </trkpt>
      <trkpt lat="50.658447" lon="6.368616">
        <ele>493.770000</ele>
        <time>2009-05-21T08:26:56Z</time>
      </trkpt>
      <trkpt lat="50.658344" lon="6.368366">
        <ele>494.260000</ele>
        <time>2009-05-21T08:27:12Z</time>
      </trkpt>
      <trkpt lat="50.658293" lon="6.368292">
        <ele>494.740000</ele>
        <time>2009-05-21T08:27:17Z</time>
      </trkpt>
      <trkpt lat="50.658271" lon="6.368257">
        <ele>495.220000</ele>
        <time>2009-05-21T08:27:19Z</time>
      </trkpt>
      <trkpt lat="50.658198" lon="6.368162">
        <ele>495.220000</ele>
        <time>2009-05-21T08:27:25Z</time>
      </trkpt>
      <trkpt lat="50.658054" lon="6.367959">
        <ele>495.700000</ele>
        <time>2009-05-21T08:27:38Z</time>
      </trkpt>
      <trkpt lat="50.657916" lon="6.367832">
        <ele>496.660000</ele>
        <time>2009-05-21T08:27:51Z</time>
      </trkpt>
      <trkpt lat="50.657837" lon="6.367714">
        <ele>497.140000</ele>
        <time>2009-05-21T08:27:59Z</time>
      </trkpt>
      <trkpt lat="50.657721" lon="6.367662">
        <ele>498.100000</ele>
        <time>2009-05-21T08:28:10Z</time>
      </trkpt>
      <trkpt lat="50.657695" lon="6.367618">
        <ele>498.100000</ele>
        <time>2009-05-21T08:28:13Z</time>
      </trkpt>
      <trkpt lat="50.657639" lon="6.367559">
        <ele>498.580000</ele>
        <time>2009-05-21T08:28:18Z</time>
      </trkpt>
      <trkpt lat="50.657587" lon="6.367470">
        <ele>499.060000</ele>
        <time>2009-05-21T08:28:22Z</time>
      </trkpt>
      <trkpt lat="50.657491" lon="6.367471">
        <ele>499.060000</ele>
        <time>2009-05-21T08:28:27Z</time>
      </trkpt>
      <trkpt lat="50.657476" lon="6.367411">
        <ele>499.540000</ele>
        <time>2009-05-21T08:28:29Z</time>
      </trkpt>
      <trkpt lat="50.657445" lon="6.367342">
        <ele>499.540000</ele>
        <time>2009-05-21T08:28:34Z</time>
      </trkpt>
      <trkpt lat="50.657429" lon="6.367310">
        <ele>499.540000</ele>
        <time>2009-05-21T08:28:37Z</time>
      </trkpt>
      <trkpt lat="50.657335" lon="6.367063">
        <ele>500.020000</ele>
        <time>2009-05-21T08:28:52Z</time>
      </trkpt>
      <trkpt lat="50.657305" lon="6.367026">
        <ele>500.020000</ele>
        <time>2009-05-21T08:28:54Z</time>
      </trkpt>
      <trkpt lat="50.657210" lon="6.366965">
        <ele>500.020000</ele>
        <time>2009-05-21T08:29:02Z</time>
      </trkpt>
      <trkpt lat="50.657079" lon="6.366858">
        <ele>500.500000</ele>
        <time>2009-05-21T08:29:14Z</time>
      </trkpt>
      <trkpt lat="50.656944" lon="6.366703">
        <ele>501.460000</ele>
        <time>2009-05-21T08:29:29Z</time>
      </trkpt>
      <trkpt lat="50.656899" lon="6.366690">
        <ele>501.950000</ele>
        <time>2009-05-21T08:29:32Z</time>
      </trkpt>
      <trkpt lat="50.656642" lon="6.366602">
        <ele>502.430000</ele>
        <time>2009-05-21T08:29:51Z</time>
      </trkpt>
      <trkpt lat="50.656387" lon="6.366467">
        <ele>503.390000</ele>
        <time>2009-05-21T08:30:13Z</time>
      </trkpt>
      <trkpt lat="50.656115" lon="6.366402">
        <ele>503.870000</ele>
        <time>2009-05-21T08:30:32Z</time>
      </trkpt>
      <trkpt lat="50.655720" lon="6.366295">
        <ele>504.350000</ele>
        <time>2009-05-21T08:30:54Z</time>
      </trkpt>
      <trkpt lat="50.655350" lon="6.366159">
        <ele>505.310000</ele>
        <time>2009-05-21T08:31:16Z</time>
      </trkpt>
      <trkpt lat="50.655245" lon="6.366171">
        <ele>505.310000</ele>
        <time>2009-05-21T08:31:57Z</time>
      </trkpt>
      <trkpt lat="50.655232" lon="6.366165">
        <ele>505.310000</ele>
        <time>2009-05-21T08:31:58Z</time>
      </trkpt>
      <trkpt lat="50.655122" lon="6.366065">
        <ele>504.830000</ele>
        <time>2009-05-21T08:32:09Z</time>
      </trkpt>
      <trkpt lat="50.655049" lon="6.366030">
        <ele>504.350000</ele>
        <time>2009-05-21T08:32:17Z</time>
      </trkpt>
      <trkpt lat="50.654977" lon="6.365967">
        <ele>504.350000</ele>
        <time>2009-05-21T08:32:22Z</time>
      </trkpt>
      <trkpt lat="50.654900" lon="6.365735">
        <ele>504.350000</ele>
        <time>2009-05-21T08:32:38Z</time>
      </trkpt>
      <trkpt lat="50.654971" lon="6.365841">
        <ele>503.870000</ele>
        <time>2009-05-21T08:33:04Z</time>
      </trkpt>
      <trkpt lat="50.655295" lon="6.366103">
        <ele>504.830000</ele>
        <time>2009-05-21T08:33:27Z</time>
      </trkpt>
      <trkpt lat="50.655470" lon="6.366007">
        <ele>504.830000</ele>
        <time>2009-05-21T08:33:45Z</time>
      </trkpt>
      <trkpt lat="50.655475" lon="6.365682">
        <ele>504.830000</ele>
        <time>2009-05-21T08:34:03Z</time>
      </trkpt>
      <trkpt lat="50.655455" lon="6.365579">
        <ele>504.830000</ele>
        <time>2009-05-21T08:34:09Z</time>
      </trkpt>
      <trkpt lat="50.655402" lon="6.365140">
        <ele>503.870000</ele>
        <time>2009-05-21T08:34:33Z</time>
      </trkpt>
      <trkpt lat="50.655415" lon="6.364730">
        <ele>503.870000</ele>
        <time>2009-05-21T08:34:52Z</time>
      </trkpt>
      <trkpt lat="50.655565" lon="6.364390">
        <ele>503.870000</ele>
        <time>2009-05-21T08:35:13Z</time>
      </trkpt>
      <trkpt lat="50.655769" lon="6.364059">
        <ele>503.870000</ele>
        <time>2009-05-21T08:35:36Z</time>
      </trkpt>
      <trkpt lat="50.655959" lon="6.363850">
        <ele>502.910000</ele>
        <time>2009-05-21T08:35:54Z</time>
      </trkpt>
      <trkpt lat="50.656126" lon="6.363695">
        <ele>502.430000</ele>
        <time>2009-05-21T08:36:10Z</time>
      </trkpt>
      <trkpt lat="50.656085" lon="6.363451">
        <ele>502.430000</ele>
        <time>2009-05-21T08:36:27Z</time>
      </trkpt>
      <trkpt lat="50.656045" lon="6.363394">
        <ele>502.430000</ele>
        <time>2009-05-21T08:36:31Z</time>
      </trkpt>
      <trkpt lat="50.655876" lon="6.363053">
        <ele>502.910000</ele>
        <time>2009-05-21T08:36:54Z</time>
      </trkpt>
      <trkpt lat="50.655768" lon="6.362757">
        <ele>503.870000</ele>
        <time>2009-05-21T08:37:09Z</time>
      </trkpt>
      <trkpt lat="50.655698" lon="6.362566">
        <ele>504.350000</ele>
        <time>2009-05-21T08:37:28Z</time>
      </trkpt>
      <trkpt lat="50.655662" lon="6.362500">
        <ele>504.350000</ele>
        <time>2009-05-21T08:37:46Z</time>
      </trkpt>
      <trkpt lat="50.655627" lon="6.362434">
        <ele>504.350000</ele>
        <time>2009-05-21T08:37:50Z</time>
      </trkpt>
      <trkpt lat="50.655527" lon="6.362196">
        <ele>504.830000</ele>
        <time>2009-05-21T08:38:04Z</time>
      </trkpt>
      <trkpt lat="50.655502" lon="6.362160">
        <ele>504.830000</ele>
        <time>2009-05-21T08:38:07Z</time>
      </trkpt>
      <trkpt lat="50.655416" lon="6.361966">
        <ele>505.790000</ele>
        <time>2009-05-21T08:38:21Z</time>
      </trkpt>
      <trkpt lat="50.655303" lon="6.361625">
        <ele>506.270000</ele>
        <time>2009-05-21T08:38:39Z</time>
      </trkpt>
      <trkpt lat="50.655228" lon="6.361496">
        <ele>506.750000</ele>
        <time>2009-05-21T08:38:50Z</time>
      </trkpt>
      <trkpt lat="50.655094" lon="6.361286">
        <ele>507.230000</ele>
        <time>2009-05-21T08:39:05Z</time>
      </trkpt>
      <trkpt lat="50.655013" lon="6.361045">
        <ele>507.710000</ele>
        <time>2009-05-21T08:39:20Z</time>
      </trkpt>
      <trkpt lat="50.654949" lon="6.360823">
        <ele>508.190000</ele>
        <time>2009-05-21T08:39:34Z</time>
      </trkpt>
      <trkpt lat="50.654814" lon="6.360503">
        <ele>508.670000</ele>
        <time>2009-05-21T08:39:55Z</time>
      </trkpt>
      <trkpt lat="50.654669" lon="6.360251">
        <ele>509.160000</ele>
        <time>2009-05-21T08:40:15Z</time>
      </trkpt>
      <trkpt lat="50.654643" lon="6.360204">
        <ele>509.160000</ele>
        <time>2009-05-21T08:40:18Z</time>
      </trkpt>
      <trkpt lat="50.654571" lon="6.360048">
        <ele>509.160000</ele>
        <time>2009-05-21T08:40:27Z</time>
      </trkpt>
      <trkpt lat="50.654520" lon="6.359956">
        <ele>509.640000</ele>
        <time>2009-05-21T08:40:34Z</time>
      </trkpt>
      <trkpt lat="50.654459" lon="6.359810">
        <ele>509.640000</ele>
        <time>2009-05-21T08:40:42Z</time>
      </trkpt>
      <trkpt lat="50.654381" lon="6.359622">
        <ele>510.120000</ele>
        <time>2009-05-21T08:40:55Z</time>
      </trkpt>
      <trkpt lat="50.654325" lon="6.359505">
        <ele>510.600000</ele>
        <time>2009-05-21T08:41:15Z</time>
      </trkpt>
      <trkpt lat="50.654241" lon="6.359311">
        <ele>510.120000</ele>
        <time>2009-05-21T08:41:38Z</time>
      </trkpt>
      <trkpt lat="50.654164" lon="6.359073">
        <ele>509.640000</ele>
        <time>2009-05-21T08:41:57Z</time>
      </trkpt>
      <trkpt lat="50.654018" lon="6.358719">
        <ele>509.640000</ele>
        <time>2009-05-21T08:42:17Z</time>
      </trkpt>
      <trkpt lat="50.653883" lon="6.358425">
        <ele>509.640000</ele>
        <time>2009-05-21T08:42:38Z</time>
      </trkpt>
      <trkpt lat="50.653708" lon="6.358089">
        <ele>509.160000</ele>
        <time>2009-05-21T08:42:59Z</time>
      </trkpt>
      <trkpt lat="50.653546" lon="6.357819">
        <ele>508.670000</ele>
        <time>2009-05-21T08:43:18Z</time>
      </trkpt>
      <trkpt lat="50.653485" lon="6.357528">
        <ele>508.190000</ele>
        <time>2009-05-21T08:43:37Z</time>
      </trkpt>
      <trkpt lat="50.653348" lon="6.357174">
        <ele>507.710000</ele>
        <time>2009-05-21T08:43:59Z</time>
      </trkpt>
      <trkpt lat="50.653250" lon="6.357057">
        <ele>507.230000</ele>
        <time>2009-05-21T08:44:16Z</time>
      </trkpt>
      <trkpt lat="50.653074" lon="6.356675">
        <ele>505.310000</ele>
        <time>2009-05-21T08:44:36Z</time>
      </trkpt>
      <trkpt lat="50.653001" lon="6.356455">
        <ele>504.830000</ele>
        <time>2009-05-21T08:44:49Z</time>
      </trkpt>
      <trkpt lat="50.652866" lon="6.356308">
        <ele>504.350000</ele>
        <time>2009-05-21T08:45:02Z</time>
      </trkpt>
      <trkpt lat="50.652755" lon="6.356084">
        <ele>504.350000</ele>
        <time>2009-05-21T08:45:13Z</time>
      </trkpt>
      <trkpt lat="50.652655" lon="6.355792">
        <ele>503.870000</ele>
        <time>2009-05-21T08:45:26Z</time>
      </trkpt>
      <trkpt lat="50.652647" lon="6.355712">
        <ele>503.870000</ele>
        <time>2009-05-21T08:45:30Z</time>
      </trkpt>
      <trkpt lat="50.652588" lon="6.355578">
        <ele>503.870000</ele>
        <time>2009-05-21T08:45:39Z</time>
      </trkpt>
      <trkpt lat="50.652570" lon="6.355554">
        <ele>503.870000</ele>
        <time>2009-05-21T08:45:41Z</time>
      </trkpt>
      <trkpt lat="50.652485" lon="6.355383">
        <ele>504.350000</ele>
        <time>2009-05-21T08:45:55Z</time>
      </trkpt>
      <trkpt lat="50.652385" lon="6.355225">
        <ele>504.830000</ele>
        <time>2009-05-21T08:46:10Z</time>
      </trkpt>
      <trkpt lat="50.652352" lon="6.355164">
        <ele>504.830000</ele>
        <time>2009-05-21T08:46:14Z</time>
      </trkpt>
      <trkpt lat="50.652316" lon="6.355032">
        <ele>504.830000</ele>
        <time>2009-05-21T08:46:22Z</time>
      </trkpt>
      <trkpt lat="50.652242" lon="6.354918">
        <ele>504.830000</ele>
        <time>2009-05-21T08:46:29Z</time>
      </trkpt>
      <trkpt lat="50.652161" lon="6.354708">
        <ele>504.830000</ele>
        <time>2009-05-21T08:46:41Z</time>
      </trkpt>
      <trkpt lat="50.652009" lon="6.354449">
        <ele>505.310000</ele>
        <time>2009-05-21T08:47:02Z</time>
      </trkpt>
      <trkpt lat="50.651861" lon="6.354141">
        <ele>504.830000</ele>
        <time>2009-05-21T08:47:21Z</time>
      </trkpt>
      <trkpt lat="50.651757" lon="6.353962">
        <ele>504.830000</ele>
        <time>2009-05-21T08:47:37Z</time>
      </trkpt>
      <trkpt lat="50.651703" lon="6.353825">
        <ele>504.830000</ele>
        <time>2009-05-21T08:47:47Z</time>
      </trkpt>
      <trkpt lat="50.651541" lon="6.353447">
        <ele>505.310000</ele>
        <time>2009-05-21T08:48:09Z</time>
      </trkpt>
      <trkpt lat="50.651355" lon="6.353129">
        <ele>506.270000</ele>
        <time>2009-05-21T08:48:31Z</time>
      </trkpt>
      <trkpt lat="50.651206" lon="6.352850">
        <ele>506.750000</ele>
        <time>2009-05-21T08:48:52Z</time>
      </trkpt>
      <trkpt lat="50.651026" lon="6.352462">
        <ele>506.750000</ele>
        <time>2009-05-21T08:49:14Z</time>
      </trkpt>
      <trkpt lat="50.650849" lon="6.352081">
        <ele>506.270000</ele>
        <time>2009-05-21T08:49:38Z</time>
      </trkpt>
      <trkpt lat="50.650600" lon="6.351686">
        <ele>504.350000</ele>
        <time>2009-05-21T08:50:03Z</time>
      </trkpt>
      <trkpt lat="50.650434" lon="6.351367">
        <ele>501.950000</ele>
        <time>2009-05-21T08:50:23Z</time>
      </trkpt>
      <trkpt lat="50.650328" lon="6.351073">
        <ele>500.980000</ele>
        <time>2009-05-21T08:50:43Z</time>
      </trkpt>
      <trkpt lat="50.650280" lon="6.351077">
        <ele>500.500000</ele>
        <time>2009-05-21T08:50:54Z</time>
      </trkpt>
      <trkpt lat="50.650099" lon="6.350808">
        <ele>500.020000</ele>
        <time>2009-05-21T08:51:16Z</time>
      </trkpt>
      <trkpt lat="50.650067" lon="6.350765">
        <ele>500.020000</ele>
        <time>2009-05-21T08:51:19Z</time>
      </trkpt>
      <trkpt lat="50.649993" lon="6.350687">
        <ele>499.540000</ele>
        <time>2009-05-21T08:51:24Z</time>
      </trkpt>
      <trkpt lat="50.649861" lon="6.350549">
        <ele>500.500000</ele>
        <time>2009-05-21T08:51:36Z</time>
      </trkpt>
      <trkpt lat="50.649686" lon="6.350541">
        <ele>501.460000</ele>
        <time>2009-05-21T08:51:45Z</time>
      </trkpt>
      <trkpt lat="50.649586" lon="6.350464">
        <ele>501.460000</ele>
        <time>2009-05-21T08:51:55Z</time>
      </trkpt>
      <trkpt lat="50.649433" lon="6.350384">
        <ele>500.980000</ele>
        <time>2009-05-21T08:52:08Z</time>
      </trkpt>
      <trkpt lat="50.649273" lon="6.350200">
        <ele>501.460000</ele>
        <time>2009-05-21T08:52:29Z</time>
      </trkpt>
      <trkpt lat="50.649208" lon="6.350151">
        <ele>502.430000</ele>
        <time>2009-05-21T08:52:51Z</time>
      </trkpt>
      <trkpt lat="50.648926" lon="6.349970">
        <ele>502.910000</ele>
        <time>2009-05-21T08:53:13Z</time>
      </trkpt>
      <trkpt lat="50.648780" lon="6.349780">
        <ele>502.910000</ele>
        <time>2009-05-21T08:53:28Z</time>
      </trkpt>
      <trkpt lat="50.648572" lon="6.349474">
        <ele>504.830000</ele>
        <time>2009-05-21T08:53:47Z</time>
      </trkpt>
      <trkpt lat="50.648474" lon="6.349231">
        <ele>506.750000</ele>
        <time>2009-05-21T08:54:01Z</time>
      </trkpt>
      <trkpt lat="50.648405" lon="6.349037">
        <ele>508.190000</ele>
        <time>2009-05-21T08:54:14Z</time>
      </trkpt>
      <trkpt lat="50.648306" lon="6.348765">
        <ele>510.120000</ele>
        <time>2009-05-21T08:54:32Z</time>
      </trkpt>
      <trkpt lat="50.648195" lon="6.348394">
        <ele>510.600000</ele>
        <time>2009-05-21T08:54:50Z</time>
      </trkpt>
      <trkpt lat="50.648114" lon="6.348133">
        <ele>511.560000</ele>
        <time>2009-05-21T08:55:03Z</time>
      </trkpt>
      <trkpt lat="50.648096" lon="6.348071">
        <ele>511.560000</ele>
        <time>2009-05-21T08:55:06Z</time>
      </trkpt>
      <trkpt lat="50.648081" lon="6.347995">
        <ele>511.560000</ele>
        <time>2009-05-21T08:55:10Z</time>
      </trkpt>
      <trkpt lat="50.647955" lon="6.347779">
        <ele>512.040000</ele>
        <time>2009-05-21T08:55:23Z</time>
      </trkpt>
      <trkpt lat="50.647932" lon="6.347755">
        <ele>512.520000</ele>
        <time>2009-05-21T08:55:26Z</time>
      </trkpt>
      <trkpt lat="50.647857" lon="6.347631">
        <ele>512.520000</ele>
        <time>2009-05-21T08:55:33Z</time>
      </trkpt>
      <trkpt lat="50.647704" lon="6.347342">
        <ele>513.960000</ele>
        <time>2009-05-21T08:55:53Z</time>
      </trkpt>
      <trkpt lat="50.647591" lon="6.347069">
        <ele>513.960000</ele>
        <time>2009-05-21T08:56:08Z</time>
      </trkpt>
      <trkpt lat="50.647489" lon="6.346905">
        <ele>514.440000</ele>
        <time>2009-05-21T08:56:20Z</time>
      </trkpt>
      <trkpt lat="50.647396" lon="6.346643">
        <ele>514.920000</ele>
        <time>2009-05-21T08:56:35Z</time>
      </trkpt>
      <trkpt lat="50.647276" lon="6.346220">
        <ele>515.400000</ele>
        <time>2009-05-21T08:56:55Z</time>
      </trkpt>
      <trkpt lat="50.647175" lon="6.345985">
        <ele>515.400000</ele>
        <time>2009-05-21T08:57:08Z</time>
      </trkpt>
      <trkpt lat="50.647089" lon="6.345791">
        <ele>515.400000</ele>
        <time>2009-05-21T08:57:20Z</time>
      </trkpt>
      <trkpt lat="50.647001" lon="6.345597">
        <ele>515.400000</ele>
        <time>2009-05-21T08:57:32Z</time>
      </trkpt>
      <trkpt lat="50.646904" lon="6.345228">
        <ele>515.880000</ele>
        <time>2009-05-21T08:57:54Z</time>
      </trkpt>
      <trkpt lat="50.646834" lon="6.345051">
        <ele>515.880000</ele>
        <time>2009-05-21T08:58:06Z</time>
      </trkpt>
      <trkpt lat="50.646745" lon="6.344813">
        <ele>515.880000</ele>
        <time>2009-05-21T08:58:19Z</time>
      </trkpt>
      <trkpt lat="50.646671" lon="6.344561">
        <ele>515.880000</ele>
        <time>2009-05-21T08:58:32Z</time>
      </trkpt>
      <trkpt lat="50.646618" lon="6.344448">
        <ele>515.880000</ele>
        <time>2009-05-21T08:58:40Z</time>
      </trkpt>
      <trkpt lat="50.646580" lon="6.344295">
        <ele>515.400000</ele>
        <time>2009-05-21T08:58:49Z</time>
      </trkpt>
      <trkpt lat="50.646506" lon="6.343978">
        <ele>515.400000</ele>
        <time>2009-05-21T08:59:05Z</time>
      </trkpt>
      <trkpt lat="50.646468" lon="6.343723">
        <ele>515.400000</ele>
        <time>2009-05-21T08:59:17Z</time>
      </trkpt>
      <trkpt lat="50.646367" lon="6.343367">
        <ele>514.920000</ele>
        <time>2009-05-21T08:59:32Z</time>
      </trkpt>
      <trkpt lat="50.646318" lon="6.343150">
        <ele>514.920000</ele>
        <time>2009-05-21T08:59:44Z</time>
      </trkpt>
      <trkpt lat="50.646221" lon="6.342775">
        <ele>513.960000</ele>
        <time>2009-05-21T09:00:06Z</time>
      </trkpt>
      <trkpt lat="50.646108" lon="6.342354">
        <ele>513.480000</ele>
        <time>2009-05-21T09:00:29Z</time>
      </trkpt>
      <trkpt lat="50.646007" lon="6.341959">
        <ele>512.520000</ele>
        <time>2009-05-21T09:00:47Z</time>
      </trkpt>
      <trkpt lat="50.645882" lon="6.341552">
        <ele>511.080000</ele>
        <time>2009-05-21T09:01:10Z</time>
      </trkpt>
      <trkpt lat="50.645800" lon="6.341090">
        <ele>508.670000</ele>
        <time>2009-05-21T09:01:31Z</time>
      </trkpt>
      <trkpt lat="50.645701" lon="6.340766">
        <ele>506.750000</ele>
        <time>2009-05-21T09:01:48Z</time>
      </trkpt>
      <trkpt lat="50.645587" lon="6.340339">
        <ele>503.870000</ele>
        <time>2009-05-21T09:02:09Z</time>
      </trkpt>
      <trkpt lat="50.645535" lon="6.340031">
        <ele>501.950000</ele>
        <time>2009-05-21T09:02:24Z</time>
      </trkpt>
      <trkpt lat="50.645474" lon="6.339886">
        <ele>500.500000</ele>
        <time>2009-05-21T09:02:33Z</time>
      </trkpt>
      <trkpt lat="50.645405" lon="6.339619">
        <ele>497.140000</ele>
        <time>2009-05-21T09:02:50Z</time>
      </trkpt>
      <trkpt lat="50.645340" lon="6.339439">
        <ele>495.700000</ele>
        <time>2009-05-21T09:03:00Z</time>
      </trkpt>
      <trkpt lat="50.645333" lon="6.339370">
        <ele>495.220000</ele>
        <time>2009-05-21T09:03:03Z</time>
      </trkpt>
      <trkpt lat="50.645281" lon="6.339197">
        <ele>493.290000</ele>
        <time>2009-05-21T09:03:12Z</time>
      </trkpt>
      <trkpt lat="50.645236" lon="6.338889">
        <ele>491.370000</ele>
        <time>2009-05-21T09:03:31Z</time>
      </trkpt>
      <trkpt lat="50.645213" lon="6.338749">
        <ele>490.890000</ele>
        <time>2009-05-21T09:03:37Z</time>
      </trkpt>
      <trkpt lat="50.645166" lon="6.338544">
        <ele>490.410000</ele>
        <time>2009-05-21T09:03:48Z</time>
      </trkpt>
      <trkpt lat="50.645168" lon="6.338474">
        <ele>490.410000</ele>
        <time>2009-05-21T09:04:05Z</time>
      </trkpt>
      <trkpt lat="50.645119" lon="6.338404">
        <ele>490.890000</ele>
        <time>2009-05-21T09:04:25Z</time>
      </trkpt>
      <trkpt lat="50.645089" lon="6.338398">
        <ele>490.410000</ele>
        <time>2009-05-21T09:05:47Z</time>
      </trkpt>
      <trkpt lat="50.645128" lon="6.338183">
        <ele>490.410000</ele>
        <time>2009-05-21T09:06:27Z</time>
      </trkpt>
      <trkpt lat="50.645074" lon="6.338019">
        <ele>489.930000</ele>
        <time>2009-05-21T09:06:34Z</time>
      </trkpt>
      <trkpt lat="50.645017" lon="6.337862">
        <ele>489.450000</ele>
        <time>2009-05-21T09:06:49Z</time>
      </trkpt>
      <trkpt lat="50.644986" lon="6.337779">
        <ele>488.490000</ele>
        <time>2009-05-21T09:06:55Z</time>
      </trkpt>
      <trkpt lat="50.644880" lon="6.337493">
        <ele>488.490000</ele>
        <time>2009-05-21T09:07:11Z</time>
      </trkpt>
      <trkpt lat="50.644864" lon="6.337342">
        <ele>488.490000</ele>
        <time>2009-05-21T09:07:28Z</time>
      </trkpt>
      <trkpt lat="50.644768" lon="6.337140">
        <ele>488.010000</ele>
        <time>2009-05-21T09:07:42Z</time>
      </trkpt>
      <trkpt lat="50.644634" lon="6.336844">
        <ele>488.010000</ele>
        <time>2009-05-21T09:07:56Z</time>
      </trkpt>
      <trkpt lat="50.644620" lon="6.336818">
        <ele>488.010000</ele>
        <time>2009-05-21T09:07:57Z</time>
      </trkpt>
      <trkpt lat="50.644582" lon="6.336727">
        <ele>487.530000</ele>
        <time>2009-05-21T09:08:01Z</time>
      </trkpt>
      <trkpt lat="50.644539" lon="6.336643">
        <ele>487.530000</ele>
        <time>2009-05-21T09:08:06Z</time>
      </trkpt>
      <trkpt lat="50.644481" lon="6.336496">
        <ele>486.560000</ele>
        <time>2009-05-21T09:08:15Z</time>
      </trkpt>
      <trkpt lat="50.644434" lon="6.336214">
        <ele>485.600000</ele>
        <time>2009-05-21T09:08:28Z</time>
      </trkpt>
      <trkpt lat="50.644402" lon="6.335904">
        <ele>485.120000</ele>
        <time>2009-05-21T09:08:43Z</time>
      </trkpt>
      <trkpt lat="50.644354" lon="6.335640">
        <ele>484.160000</ele>
        <time>2009-05-21T09:08:56Z</time>
      </trkpt>
      <trkpt lat="50.644335" lon="6.335227">
        <ele>482.720000</ele>
        <time>2009-05-21T09:09:16Z</time>
      </trkpt>
      <trkpt lat="50.644365" lon="6.334852">
        <ele>479.350000</ele>
        <time>2009-05-21T09:09:33Z</time>
      </trkpt>
      <trkpt lat="50.644360" lon="6.334602">
        <ele>476.950000</ele>
        <time>2009-05-21T09:09:47Z</time>
      </trkpt>
      <trkpt lat="50.644398" lon="6.334438">
        <ele>475.990000</ele>
        <time>2009-05-21T09:09:54Z</time>
      </trkpt>
      <trkpt lat="50.644428" lon="6.334250">
        <ele>474.550000</ele>
        <time>2009-05-21T09:10:02Z</time>
      </trkpt>
      <trkpt lat="50.644512" lon="6.333837">
        <ele>472.630000</ele>
        <time>2009-05-21T09:10:21Z</time>
      </trkpt>
      <trkpt lat="50.644516" lon="6.333581">
        <ele>472.140000</ele>
        <time>2009-05-21T09:10:29Z</time>
      </trkpt>
      <trkpt lat="50.644563" lon="6.333334">
        <ele>471.180000</ele>
        <time>2009-05-21T09:10:42Z</time>
      </trkpt>
      <trkpt lat="50.644644" lon="6.333024">
        <ele>469.740000</ele>
        <time>2009-05-21T09:11:02Z</time>
      </trkpt>
      <trkpt lat="50.644711" lon="6.332873">
        <ele>468.780000</ele>
        <time>2009-05-21T09:11:10Z</time>
      </trkpt>
      <trkpt lat="50.644715" lon="6.332838">
        <ele>469.260000</ele>
        <time>2009-05-21T09:11:12Z</time>
      </trkpt>
      <trkpt lat="50.644784" lon="6.332569">
        <ele>467.340000</ele>
        <time>2009-05-21T09:11:27Z</time>
      </trkpt>
      <trkpt lat="50.644838" lon="6.332275">
        <ele>465.900000</ele>
        <time>2009-05-21T09:11:42Z</time>
      </trkpt>
      <trkpt lat="50.644902" lon="6.331800">
        <ele>464.450000</ele>
        <time>2009-05-21T09:12:03Z</time>
      </trkpt>
      <trkpt lat="50.644881" lon="6.331401">
        <ele>462.050000</ele>
        <time>2009-05-21T09:12:23Z</time>
      </trkpt>
      <trkpt lat="50.644826" lon="6.331049">
        <ele>460.610000</ele>
        <time>2009-05-21T09:12:41Z</time>
      </trkpt>
      <trkpt lat="50.644695" lon="6.330698">
        <ele>462.050000</ele>
        <time>2009-05-21T09:13:04Z</time>
      </trkpt>
      <trkpt lat="50.644400" lon="6.330319">
        <ele>465.420000</ele>
        <time>2009-05-21T09:13:29Z</time>
      </trkpt>
      <trkpt lat="50.644183" lon="6.330208">
        <ele>467.340000</ele>
        <time>2009-05-21T09:13:48Z</time>
      </trkpt>
      <trkpt lat="50.644140" lon="6.330144">
        <ele>467.820000</ele>
        <time>2009-05-21T09:13:52Z</time>
      </trkpt>
      <trkpt lat="50.643879" lon="6.330025">
        <ele>467.820000</ele>
        <time>2009-05-21T09:14:14Z</time>
      </trkpt>
      <trkpt lat="50.643617" lon="6.329816">
        <ele>467.820000</ele>
        <time>2009-05-21T09:14:34Z</time>
      </trkpt>
      <trkpt lat="50.643320" lon="6.329876">
        <ele>466.380000</ele>
        <time>2009-05-21T09:14:57Z</time>
      </trkpt>
      <trkpt lat="50.643037" lon="6.329891">
        <ele>465.420000</ele>
        <time>2009-05-21T09:15:18Z</time>
      </trkpt>
      <trkpt lat="50.642795" lon="6.329872">
        <ele>462.530000</ele>
        <time>2009-05-21T09:15:40Z</time>
      </trkpt>
      <trkpt lat="50.642456" lon="6.329820">
        <ele>461.570000</ele>
        <time>2009-05-21T09:16:01Z</time>
      </trkpt>
      <trkpt lat="50.642366" lon="6.329605">
        <ele>461.570000</ele>
        <time>2009-05-21T09:16:20Z</time>
      </trkpt>
      <trkpt lat="50.642338" lon="6.329561">
        <ele>461.570000</ele>
        <time>2009-05-21T09:16:57Z</time>
      </trkpt>
      <trkpt lat="50.642376" lon="6.329494">
        <ele>461.570000</ele>
        <time>2009-05-21T09:17:06Z</time>
      </trkpt>
      <trkpt lat="50.642461" lon="6.329336">
        <ele>461.570000</ele>
        <time>2009-05-21T09:17:14Z</time>
      </trkpt>
      <trkpt lat="50.642513" lon="6.329136">
        <ele>462.050000</ele>
        <time>2009-05-21T09:17:24Z</time>
      </trkpt>
      <trkpt lat="50.642612" lon="6.328922">
        <ele>463.010000</ele>
        <time>2009-05-21T09:17:35Z</time>
      </trkpt>
      <trkpt lat="50.642653" lon="6.328844">
        <ele>463.490000</ele>
        <time>2009-05-21T09:17:40Z</time>
      </trkpt>
      <trkpt lat="50.642673" lon="6.328815">
        <ele>463.490000</ele>
        <time>2009-05-21T09:17:42Z</time>
      </trkpt>
      <trkpt lat="50.642857" lon="6.328719">
        <ele>464.930000</ele>
        <time>2009-05-21T09:17:58Z</time>
      </trkpt>
      <trkpt lat="50.642881" lon="6.328696">
        <ele>464.930000</ele>
        <time>2009-05-21T09:18:00Z</time>
      </trkpt>
      <trkpt lat="50.643048" lon="6.328526">
        <ele>465.900000</ele>
        <time>2009-05-21T09:18:14Z</time>
      </trkpt>
      <trkpt lat="50.643208" lon="6.328366">
        <ele>466.380000</ele>
        <time>2009-05-21T09:18:27Z</time>
      </trkpt>
      <trkpt lat="50.643407" lon="6.328132">
        <ele>467.340000</ele>
        <time>2009-05-21T09:18:44Z</time>
      </trkpt>
      <trkpt lat="50.643504" lon="6.327943">
        <ele>468.300000</ele>
        <time>2009-05-21T09:18:57Z</time>
      </trkpt>
      <trkpt lat="50.643613" lon="6.327753">
        <ele>469.260000</ele>
        <time>2009-05-21T09:19:09Z</time>
      </trkpt>
      <trkpt lat="50.643646" lon="6.327691">
        <ele>469.740000</ele>
        <time>2009-05-21T09:19:13Z</time>
      </trkpt>
      <trkpt lat="50.643739" lon="6.327632">
        <ele>469.740000</ele>
        <time>2009-05-21T09:19:19Z</time>
      </trkpt>
      <trkpt lat="50.643789" lon="6.327637">
        <ele>470.220000</ele>
        <time>2009-05-21T09:19:23Z</time>
      </trkpt>
      <trkpt lat="50.643856" lon="6.327619">
        <ele>470.220000</ele>
        <time>2009-05-21T09:19:32Z</time>
      </trkpt>
      <trkpt lat="50.643956" lon="6.327681">
        <ele>471.660000</ele>
        <time>2009-05-21T09:19:39Z</time>
      </trkpt>
      <trkpt lat="50.644129" lon="6.327734">
        <ele>472.630000</ele>
        <time>2009-05-21T09:19:54Z</time>
      </trkpt>
      <trkpt lat="50.644058" lon="6.327564">
        <ele>473.110000</ele>
        <time>2009-05-21T09:20:17Z</time>
      </trkpt>
      <trkpt lat="50.643943" lon="6.327498">
        <ele>473.590000</ele>
        <time>2009-05-21T09:20:33Z</time>
      </trkpt>
      <trkpt lat="50.643893" lon="6.327479">
        <ele>474.070000</ele>
        <time>2009-05-21T09:20:37Z</time>
      </trkpt>
      <trkpt lat="50.643662" lon="6.327323">
        <ele>475.030000</ele>
        <time>2009-05-21T09:20:51Z</time>
      </trkpt>
      <trkpt lat="50.643433" lon="6.327237">
        <ele>476.950000</ele>
        <time>2009-05-21T09:21:07Z</time>
      </trkpt>
      <trkpt lat="50.643260" lon="6.327196">
        <ele>478.390000</ele>
        <time>2009-05-21T09:21:23Z</time>
      </trkpt>
      <trkpt lat="50.643004" lon="6.327087">
        <ele>480.800000</ele>
        <time>2009-05-21T09:21:44Z</time>
      </trkpt>
      <trkpt lat="50.642902" lon="6.327055">
        <ele>481.760000</ele>
        <time>2009-05-21T09:21:51Z</time>
      </trkpt>
      <trkpt lat="50.642825" lon="6.327021">
        <ele>481.760000</ele>
        <time>2009-05-21T09:21:59Z</time>
      </trkpt>
      <trkpt lat="50.642704" lon="6.326975">
        <ele>483.200000</ele>
        <time>2009-05-21T09:22:12Z</time>
      </trkpt>
      <trkpt lat="50.642473" lon="6.326881">
        <ele>485.120000</ele>
        <time>2009-05-21T09:22:33Z</time>
      </trkpt>
      <trkpt lat="50.642196" lon="6.326753">
        <ele>487.050000</ele>
        <time>2009-05-21T09:22:54Z</time>
      </trkpt>
      <trkpt lat="50.642183" lon="6.326753">
        <ele>487.050000</ele>
        <time>2009-05-21T09:22:55Z</time>
      </trkpt>
      <trkpt lat="50.642021" lon="6.326759">
        <ele>488.010000</ele>
        <time>2009-05-21T09:23:05Z</time>
      </trkpt>
      <trkpt lat="50.641829" lon="6.326671">
        <ele>488.490000</ele>
        <time>2009-05-21T09:23:20Z</time>
      </trkpt>
      <trkpt lat="50.641641" lon="6.326589">
        <ele>488.970000</ele>
        <time>2009-05-21T09:23:33Z</time>
      </trkpt>
      <trkpt lat="50.641500" lon="6.326517">
        <ele>488.490000</ele>
        <time>2009-05-21T09:23:45Z</time>
      </trkpt>
      <trkpt lat="50.641377" lon="6.326430">
        <ele>488.490000</ele>
        <time>2009-05-21T09:23:55Z</time>
      </trkpt>
      <trkpt lat="50.641197" lon="6.326311">
        <ele>488.490000</ele>
        <time>2009-05-21T09:24:08Z</time>
      </trkpt>
      <trkpt lat="50.641134" lon="6.326275">
        <ele>488.490000</ele>
        <time>2009-05-21T09:24:30Z</time>
      </trkpt>
      <trkpt lat="50.641123" lon="6.326284">
        <ele>488.490000</ele>
        <time>2009-05-21T09:24:38Z</time>
      </trkpt>
      <trkpt lat="50.641062" lon="6.326138">
        <ele>488.490000</ele>
        <time>2009-05-21T09:24:43Z</time>
      </trkpt>
      <trkpt lat="50.641104" lon="6.326035">
        <ele>488.970000</ele>
        <time>2009-05-21T09:26:13Z</time>
      </trkpt>
      <trkpt lat="50.641052" lon="6.325768">
        <ele>491.370000</ele>
        <time>2009-05-21T09:26:29Z</time>
      </trkpt>
      <trkpt lat="50.640993" lon="6.325517">
        <ele>493.290000</ele>
        <time>2009-05-21T09:26:45Z</time>
      </trkpt>
      <trkpt lat="50.640969" lon="6.325436">
        <ele>493.770000</ele>
        <time>2009-05-21T09:26:50Z</time>
      </trkpt>
      <trkpt lat="50.640942" lon="6.325355">
        <ele>494.740000</ele>
        <time>2009-05-21T09:26:56Z</time>
      </trkpt>
      <trkpt lat="50.640918" lon="6.325104">
        <ele>495.700000</ele>
        <time>2009-05-21T09:27:09Z</time>
      </trkpt>
      <trkpt lat="50.640918" lon="6.324951">
        <ele>496.180000</ele>
        <time>2009-05-21T09:27:15Z</time>
      </trkpt>
      <trkpt lat="50.640972" lon="6.324701">
        <ele>497.620000</ele>
        <time>2009-05-21T09:27:31Z</time>
      </trkpt>
      <trkpt lat="50.640987" lon="6.324668">
        <ele>498.100000</ele>
        <time>2009-05-21T09:27:34Z</time>
      </trkpt>
      <trkpt lat="50.641031" lon="6.324521">
        <ele>499.540000</ele>
        <time>2009-05-21T09:27:44Z</time>
      </trkpt>
      <trkpt lat="50.641101" lon="6.324084">
        <ele>501.950000</ele>
        <time>2009-05-21T09:28:07Z</time>
      </trkpt>
      <trkpt lat="50.641107" lon="6.323988">
        <ele>502.430000</ele>
        <time>2009-05-21T09:28:11Z</time>
      </trkpt>
      <trkpt lat="50.641137" lon="6.323650">
        <ele>503.870000</ele>
        <time>2009-05-21T09:28:25Z</time>
      </trkpt>
      <trkpt lat="50.641178" lon="6.323417">
        <ele>504.830000</ele>
        <time>2009-05-21T09:28:38Z</time>
      </trkpt>
      <trkpt lat="50.641225" lon="6.323196">
        <ele>506.750000</ele>
        <time>2009-05-21T09:28:56Z</time>
      </trkpt>
      <trkpt lat="50.641246" lon="6.323024">
        <ele>507.230000</ele>
        <time>2009-05-21T09:29:03Z</time>
      </trkpt>
      <trkpt lat="50.641264" lon="6.322887">
        <ele>508.190000</ele>
        <time>2009-05-21T09:29:11Z</time>
      </trkpt>
      <trkpt lat="50.641303" lon="6.322729">
        <ele>509.160000</ele>
        <time>2009-05-21T09:29:23Z</time>
      </trkpt>
      <trkpt lat="50.641388" lon="6.322365">
        <ele>510.600000</ele>
        <time>2009-05-21T09:29:42Z</time>
      </trkpt>
      <trkpt lat="50.641405" lon="6.322145">
        <ele>511.080000</ele>
        <time>2009-05-21T09:29:55Z</time>
      </trkpt>
      <trkpt lat="50.641494" lon="6.322141">
        <ele>511.080000</ele>
        <time>2009-05-21T09:30:12Z</time>
      </trkpt>
      <trkpt lat="50.641630" lon="6.322129">
        <ele>511.080000</ele>
        <time>2009-05-21T09:30:24Z</time>
      </trkpt>
      <trkpt lat="50.641816" lon="6.322234">
        <ele>510.600000</ele>
        <time>2009-05-21T09:30:39Z</time>
      </trkpt>
      <trkpt lat="50.641841" lon="6.322234">
        <ele>510.600000</ele>
        <time>2009-05-21T09:30:41Z</time>
      </trkpt>
      <trkpt lat="50.641877" lon="6.322166">
        <ele>510.600000</ele>
        <time>2009-05-21T09:30:45Z</time>
      </trkpt>
      <trkpt lat="50.641926" lon="6.321962">
        <ele>511.080000</ele>
        <time>2009-05-21T09:30:55Z</time>
      </trkpt>
      <trkpt lat="50.641960" lon="6.321720">
        <ele>511.560000</ele>
        <time>2009-05-21T09:31:07Z</time>
      </trkpt>
      <trkpt lat="50.641999" lon="6.321489">
        <ele>511.560000</ele>
        <time>2009-05-21T09:31:19Z</time>
      </trkpt>
      <trkpt lat="50.642036" lon="6.321246">
        <ele>512.040000</ele>
        <time>2009-05-21T09:31:31Z</time>
      </trkpt>
      <trkpt lat="50.642076" lon="6.321078">
        <ele>512.040000</ele>
        <time>2009-05-21T09:31:38Z</time>
      </trkpt>
      <trkpt lat="50.642165" lon="6.320932">
        <ele>512.520000</ele>
        <time>2009-05-21T09:31:47Z</time>
      </trkpt>
      <trkpt lat="50.642207" lon="6.320812">
        <ele>512.520000</ele>
        <time>2009-05-21T09:31:54Z</time>
      </trkpt>
      <trkpt lat="50.642258" lon="6.320576">
        <ele>511.560000</ele>
        <time>2009-05-21T09:32:08Z</time>
      </trkpt>
      <trkpt lat="50.642260" lon="6.320554">
        <ele>511.560000</ele>
        <time>2009-05-21T09:32:09Z</time>
      </trkpt>
      <trkpt lat="50.642263" lon="6.320424">
        <ele>511.560000</ele>
        <time>2009-05-21T09:32:16Z</time>
      </trkpt>
      <trkpt lat="50.642298" lon="6.320092">
        <ele>511.080000</ele>
        <time>2009-05-21T09:32:30Z</time>
      </trkpt>
      <trkpt lat="50.642367" lon="6.319863">
        <ele>510.120000</ele>
        <time>2009-05-21T09:32:42Z</time>
      </trkpt>
      <trkpt lat="50.642434" lon="6.319609">
        <ele>510.120000</ele>
        <time>2009-05-21T09:32:56Z</time>
      </trkpt>
      <trkpt lat="50.642473" lon="6.319451">
        <ele>509.640000</ele>
        <time>2009-05-21T09:33:07Z</time>
      </trkpt>
      <trkpt lat="50.642562" lon="6.319146">
        <ele>508.670000</ele>
        <time>2009-05-21T09:33:24Z</time>
      </trkpt>
      <trkpt lat="50.642572" lon="6.319110">
        <ele>508.190000</ele>
        <time>2009-05-21T09:33:26Z</time>
      </trkpt>
      <trkpt lat="50.642615" lon="6.318868">
        <ele>507.710000</ele>
        <time>2009-05-21T09:33:38Z</time>
      </trkpt>
      <trkpt lat="50.642620" lon="6.318714">
        <ele>507.230000</ele>
        <time>2009-05-21T09:33:44Z</time>
      </trkpt>
      <trkpt lat="50.642635" lon="6.318455">
        <ele>506.270000</ele>
        <time>2009-05-21T09:33:57Z</time>
      </trkpt>
      <trkpt lat="50.642686" lon="6.318133">
        <ele>505.310000</ele>
        <time>2009-05-21T09:34:10Z</time>
      </trkpt>
      <trkpt lat="50.642752" lon="6.317899">
        <ele>504.350000</ele>
        <time>2009-05-21T09:34:24Z</time>
      </trkpt>
      <trkpt lat="50.642799" lon="6.317615">
        <ele>503.390000</ele>
        <time>2009-05-21T09:34:38Z</time>
      </trkpt>
      <trkpt lat="50.642814" lon="6.317565">
        <ele>502.910000</ele>
        <time>2009-05-21T09:34:41Z</time>
      </trkpt>
      <trkpt lat="50.642774" lon="6.317415">
        <ele>501.950000</ele>
        <time>2009-05-21T09:34:54Z</time>
      </trkpt>
      <trkpt lat="50.642705" lon="6.317413">
        <ele>502.910000</ele>
        <time>2009-05-21T09:35:00Z</time>
      </trkpt>
      <trkpt lat="50.642471" lon="6.317387">
        <ele>503.870000</ele>
        <time>2009-05-21T09:35:17Z</time>
      </trkpt>
      <trkpt lat="50.642387" lon="6.317383">
        <ele>504.350000</ele>
        <time>2009-05-21T09:35:26Z</time>
      </trkpt>
      <trkpt lat="50.642323" lon="6.317369">
        <ele>505.310000</ele>
        <time>2009-05-21T09:35:31Z</time>
      </trkpt>
      <trkpt lat="50.642295" lon="6.317378">
        <ele>505.310000</ele>
        <time>2009-05-21T09:35:33Z</time>
      </trkpt>
      <trkpt lat="50.642121" lon="6.317374">
        <ele>506.270000</ele>
        <time>2009-05-21T09:35:48Z</time>
      </trkpt>
      <trkpt lat="50.641967" lon="6.317255">
        <ele>506.750000</ele>
        <time>2009-05-21T09:36:03Z</time>
      </trkpt>
      <trkpt lat="50.641839" lon="6.317089">
        <ele>506.750000</ele>
        <time>2009-05-21T09:36:15Z</time>
      </trkpt>
      <trkpt lat="50.641669" lon="6.316866">
        <ele>506.750000</ele>
        <time>2009-05-21T09:36:28Z</time>
      </trkpt>
      <trkpt lat="50.641593" lon="6.316758">
        <ele>507.230000</ele>
        <time>2009-05-21T09:36:37Z</time>
      </trkpt>
      <trkpt lat="50.641409" lon="6.316598">
        <ele>507.230000</ele>
        <time>2009-05-21T09:36:52Z</time>
      </trkpt>
      <trkpt lat="50.641287" lon="6.316410">
        <ele>507.230000</ele>
        <time>2009-05-21T09:37:04Z</time>
      </trkpt>
      <trkpt lat="50.641254" lon="6.316378">
        <ele>506.750000</ele>
        <time>2009-05-21T09:37:08Z</time>
      </trkpt>
      <trkpt lat="50.641198" lon="6.316314">
        <ele>506.750000</ele>
        <time>2009-05-21T09:37:13Z</time>
      </trkpt>
      <trkpt lat="50.641077" lon="6.316183">
        <ele>506.750000</ele>
        <time>2009-05-21T09:37:25Z</time>
      </trkpt>
      <trkpt lat="50.640971" lon="6.316017">
        <ele>506.270000</ele>
        <time>2009-05-21T09:37:36Z</time>
      </trkpt>
      <trkpt lat="50.640814" lon="6.315875">
        <ele>506.750000</ele>
        <time>2009-05-21T09:37:48Z</time>
      </trkpt>
      <trkpt lat="50.640683" lon="6.315724">
        <ele>506.750000</ele>
        <time>2009-05-21T09:38:02Z</time>
      </trkpt>
      <trkpt lat="50.640557" lon="6.315562">
        <ele>506.750000</ele>
        <time>2009-05-21T09:38:14Z</time>
      </trkpt>
      <trkpt lat="50.640418" lon="6.315380">
        <ele>506.750000</ele>
        <time>2009-05-21T09:38:27Z</time>
      </trkpt>
      <trkpt lat="50.640322" lon="6.315253">
        <ele>506.750000</ele>
        <time>2009-05-21T09:38:38Z</time>
      </trkpt>
      <trkpt lat="50.640144" lon="6.315101">
        <ele>507.710000</ele>
        <time>2009-05-21T09:38:54Z</time>
      </trkpt>
      <trkpt lat="50.639959" lon="6.314864">
        <ele>507.230000</ele>
        <time>2009-05-21T09:39:11Z</time>
      </trkpt>
      <trkpt lat="50.639824" lon="6.314700">
        <ele>507.230000</ele>
        <time>2009-05-21T09:39:25Z</time>
      </trkpt>
      <trkpt lat="50.639678" lon="6.314548">
        <ele>506.750000</ele>
        <time>2009-05-21T09:39:38Z</time>
      </trkpt>
      <trkpt lat="50.639530" lon="6.314312">
        <ele>506.750000</ele>
        <time>2009-05-21T09:39:53Z</time>
      </trkpt>
      <trkpt lat="50.639401" lon="6.314194">
        <ele>506.750000</ele>
        <time>2009-05-21T09:40:05Z</time>
      </trkpt>
      <trkpt lat="50.639314" lon="6.314069">
        <ele>506.270000</ele>
        <time>2009-05-21T09:40:18Z</time>
      </trkpt>
      <trkpt lat="50.639203" lon="6.313925">
        <ele>506.270000</ele>
        <time>2009-05-21T09:40:30Z</time>
      </trkpt>
      <trkpt lat="50.639033" lon="6.313700">
        <ele>505.790000</ele>
        <time>2009-05-21T09:40:43Z</time>
      </trkpt>
      <trkpt lat="50.639020" lon="6.313678">
        <ele>505.790000</ele>
        <time>2009-05-21T09:40:44Z</time>
      </trkpt>
      <trkpt lat="50.639020" lon="6.313583">
        <ele>505.790000</ele>
        <time>2009-05-21T09:40:51Z</time>
      </trkpt>
      <trkpt lat="50.639160" lon="6.313451">
        <ele>505.790000</ele>
        <time>2009-05-21T09:41:02Z</time>
      </trkpt>
      <trkpt lat="50.639194" lon="6.313437">
        <ele>505.310000</ele>
        <time>2009-05-21T09:41:04Z</time>
      </trkpt>
      <trkpt lat="50.639208" lon="6.313417">
        <ele>505.790000</ele>
        <time>2009-05-21T09:41:06Z</time>
      </trkpt>
      <trkpt lat="50.639265" lon="6.313404">
        <ele>505.790000</ele>
        <time>2009-05-21T09:41:10Z</time>
      </trkpt>
      <trkpt lat="50.639328" lon="6.313306">
        <ele>505.310000</ele>
        <time>2009-05-21T09:41:17Z</time>
      </trkpt>
      <trkpt lat="50.639403" lon="6.313283">
        <ele>505.310000</ele>
        <time>2009-05-21T09:41:22Z</time>
      </trkpt>
      <trkpt lat="50.639613" lon="6.313266">
        <ele>504.830000</ele>
        <time>2009-05-21T09:41:35Z</time>
      </trkpt>
      <trkpt lat="50.639764" lon="6.313144">
        <ele>503.870000</ele>
        <time>2009-05-21T09:41:49Z</time>
      </trkpt>
      <trkpt lat="50.639962" lon="6.312982">
        <ele>503.870000</ele>
        <time>2009-05-21T09:42:05Z</time>
      </trkpt>
      <trkpt lat="50.640133" lon="6.312960">
        <ele>502.910000</ele>
        <time>2009-05-21T09:42:19Z</time>
      </trkpt>
      <trkpt lat="50.640322" lon="6.312930">
        <ele>502.430000</ele>
        <time>2009-05-21T09:42:33Z</time>
      </trkpt>
      <trkpt lat="50.640361" lon="6.312930">
        <ele>501.950000</ele>
        <time>2009-05-21T09:42:37Z</time>
      </trkpt>
      <trkpt lat="50.640479" lon="6.312868">
        <ele>501.460000</ele>
        <time>2009-05-21T09:42:46Z</time>
      </trkpt>
      <trkpt lat="50.640694" lon="6.312871">
        <ele>500.980000</ele>
        <time>2009-05-21T09:43:01Z</time>
      </trkpt>
      <trkpt lat="50.640850" lon="6.312889">
        <ele>500.500000</ele>
        <time>2009-05-21T09:43:13Z</time>
      </trkpt>
      <trkpt lat="50.640893" lon="6.312898">
        <ele>500.500000</ele>
        <time>2009-05-21T09:43:16Z</time>
      </trkpt>
      <trkpt lat="50.640938" lon="6.312925">
        <ele>500.020000</ele>
        <time>2009-05-21T09:43:20Z</time>
      </trkpt>
      <trkpt lat="50.641111" lon="6.313005">
        <ele>500.020000</ele>
        <time>2009-05-21T09:43:34Z</time>
      </trkpt>
      <trkpt lat="50.641231" lon="6.313059">
        <ele>499.060000</ele>
        <time>2009-05-21T09:43:50Z</time>
      </trkpt>
      <trkpt lat="50.641386" lon="6.313138">
        <ele>498.580000</ele>
        <time>2009-05-21T09:44:04Z</time>
      </trkpt>
      <trkpt lat="50.641531" lon="6.313160">
        <ele>497.620000</ele>
        <time>2009-05-21T09:44:17Z</time>
      </trkpt>
      <trkpt lat="50.641539" lon="6.313156">
        <ele>497.620000</ele>
        <time>2009-05-21T09:44:18Z</time>
      </trkpt>
      <trkpt lat="50.641718" lon="6.313219">
        <ele>496.180000</ele>
        <time>2009-05-21T09:44:34Z</time>
      </trkpt>
      <trkpt lat="50.641967" lon="6.313271">
        <ele>493.770000</ele>
        <time>2009-05-21T09:44:58Z</time>
      </trkpt>
      <trkpt lat="50.642301" lon="6.313341">
        <ele>490.890000</ele>
        <time>2009-05-21T09:45:21Z</time>
      </trkpt>
      <trkpt lat="50.642387" lon="6.313276">
        <ele>489.930000</ele>
        <time>2009-05-21T09:45:33Z</time>
      </trkpt>
      <trkpt lat="50.642504" lon="6.313156">
        <ele>488.970000</ele>
        <time>2009-05-21T09:45:42Z</time>
      </trkpt>
      <trkpt lat="50.642624" lon="6.313053">
        <ele>488.490000</ele>
        <time>2009-05-21T09:45:51Z</time>
      </trkpt>
      <trkpt lat="50.642671" lon="6.312926">
        <ele>487.050000</ele>
        <time>2009-05-21T09:46:00Z</time>
      </trkpt>
      <trkpt lat="50.642776" lon="6.312746">
        <ele>484.160000</ele>
        <time>2009-05-21T09:46:16Z</time>
      </trkpt>
      <trkpt lat="50.642902" lon="6.312513">
        <ele>481.280000</ele>
        <time>2009-05-21T09:46:33Z</time>
      </trkpt>
      <trkpt lat="50.643047" lon="6.312269">
        <ele>478.390000</ele>
        <time>2009-05-21T09:46:52Z</time>
      </trkpt>
      <trkpt lat="50.643122" lon="6.312047">
        <ele>475.990000</ele>
        <time>2009-05-21T09:47:06Z</time>
      </trkpt>
      <trkpt lat="50.643154" lon="6.312019">
        <ele>475.030000</ele>
        <time>2009-05-21T09:47:11Z</time>
      </trkpt>
      <trkpt lat="50.643315" lon="6.311781">
        <ele>471.660000</ele>
        <time>2009-05-21T09:47:29Z</time>
      </trkpt>
      <trkpt lat="50.643433" lon="6.311600">
        <ele>469.260000</ele>
        <time>2009-05-21T09:47:45Z</time>
      </trkpt>
      <trkpt lat="50.643502" lon="6.311642">
        <ele>468.300000</ele>
        <time>2009-05-21T09:47:50Z</time>
      </trkpt>
      <trkpt lat="50.643564" lon="6.311759">
        <ele>467.340000</ele>
        <time>2009-05-21T09:47:56Z</time>
      </trkpt>
      <trkpt lat="50.643551" lon="6.311965">
        <ele>464.930000</ele>
        <time>2009-05-21T09:48:08Z</time>
      </trkpt>
      <trkpt lat="50.643588" lon="6.312103">
        <ele>463.970000</ele>
        <time>2009-05-21T09:48:17Z</time>
      </trkpt>
      <trkpt lat="50.643677" lon="6.312068">
        <ele>463.010000</ele>
        <time>2009-05-21T09:48:25Z</time>
      </trkpt>
      <trkpt lat="50.643822" lon="6.311926">
        <ele>460.610000</ele>
        <time>2009-05-21T09:48:48Z</time>
      </trkpt>
      <trkpt lat="50.643950" lon="6.311727">
        <ele>458.690000</ele>
        <time>2009-05-21T09:49:28Z</time>
      </trkpt>
      <trkpt lat="50.644035" lon="6.311556">
        <ele>456.280000</ele>
        <time>2009-05-21T09:49:42Z</time>
      </trkpt>
      <trkpt lat="50.644091" lon="6.311387">
        <ele>455.320000</ele>
        <time>2009-05-21T09:49:51Z</time>
      </trkpt>
      <trkpt lat="50.644161" lon="6.311233">
        <ele>452.920000</ele>
        <time>2009-05-21T09:50:07Z</time>
      </trkpt>
      <trkpt lat="50.644188" lon="6.311324">
        <ele>453.400000</ele>
        <time>2009-05-21T09:50:29Z</time>
      </trkpt>
      <trkpt lat="50.644219" lon="6.311286">
        <ele>452.440000</ele>
        <time>2009-05-21T09:51:22Z</time>
      </trkpt>
      <trkpt lat="50.644231" lon="6.311337">
        <ele>453.400000</ele>
        <time>2009-05-21T09:51:35Z</time>
      </trkpt>
      <trkpt lat="50.644259" lon="6.311352">
        <ele>451.480000</ele>
        <time>2009-05-21T09:51:45Z</time>
      </trkpt>
      <trkpt lat="50.644345" lon="6.311556">
        <ele>448.590000</ele>
        <time>2009-05-21T09:52:05Z</time>
      </trkpt>
      <trkpt lat="50.644346" lon="6.311427">
        <ele>448.110000</ele>
        <time>2009-05-21T09:52:12Z</time>
      </trkpt>
      <trkpt lat="50.644320" lon="6.311102">
        <ele>444.270000</ele>
        <time>2009-05-21T09:52:31Z</time>
      </trkpt>
      <trkpt lat="50.644347" lon="6.311045">
        <ele>443.790000</ele>
        <time>2009-05-21T09:52:36Z</time>
      </trkpt>
      <trkpt lat="50.644512" lon="6.310889">
        <ele>440.420000</ele>
        <time>2009-05-21T09:52:56Z</time>
      </trkpt>
      <trkpt lat="50.644558" lon="6.310912">
        <ele>439.940000</ele>
        <time>2009-05-21T09:52:58Z</time>
      </trkpt>
      <trkpt lat="50.644555" lon="6.310996">
        <ele>439.460000</ele>
        <time>2009-05-21T09:53:11Z</time>
      </trkpt>
      <trkpt lat="50.644566" lon="6.311023">
        <ele>439.460000</ele>
        <time>2009-05-21T09:53:12Z</time>
      </trkpt>
      <trkpt lat="50.644565" lon="6.311339">
        <ele>437.540000</ele>
        <time>2009-05-21T09:53:31Z</time>
      </trkpt>
      <trkpt lat="50.644510" lon="6.311676">
        <ele>436.580000</ele>
        <time>2009-05-21T09:53:44Z</time>
      </trkpt>
      <trkpt lat="50.644510" lon="6.311757">
        <ele>436.100000</ele>
        <time>2009-05-21T09:53:50Z</time>
      </trkpt>
      <trkpt lat="50.644443" lon="6.311969">
        <ele>435.130000</ele>
        <time>2009-05-21T09:54:01Z</time>
      </trkpt>
      <trkpt lat="50.644372" lon="6.312080">
        <ele>434.170000</ele>
        <time>2009-05-21T09:54:08Z</time>
      </trkpt>
      <trkpt lat="50.644375" lon="6.312127">
        <ele>434.170000</ele>
        <time>2009-05-21T09:54:10Z</time>
      </trkpt>
      <trkpt lat="50.644384" lon="6.312162">
        <ele>433.690000</ele>
        <time>2009-05-21T09:54:12Z</time>
      </trkpt>
      <trkpt lat="50.644328" lon="6.312195">
        <ele>433.690000</ele>
        <time>2009-05-21T09:54:16Z</time>
      </trkpt>
      <trkpt lat="50.644335" lon="6.312440">
        <ele>432.250000</ele>
        <time>2009-05-21T09:54:30Z</time>
      </trkpt>
      <trkpt lat="50.644354" lon="6.312539">
        <ele>431.770000</ele>
        <time>2009-05-21T09:54:34Z</time>
      </trkpt>
      <trkpt lat="50.644362" lon="6.312680">
        <ele>431.290000</ele>
        <time>2009-05-21T09:54:41Z</time>
      </trkpt>
      <trkpt lat="50.644321" lon="6.312740">
        <ele>430.330000</ele>
        <time>2009-05-21T09:54:45Z</time>
      </trkpt>
      <trkpt lat="50.644311" lon="6.312791">
        <ele>430.330000</ele>
        <time>2009-05-21T09:54:48Z</time>
      </trkpt>
      <trkpt lat="50.644369" lon="6.312898">
        <ele>429.370000</ele>
        <time>2009-05-21T09:54:54Z</time>
      </trkpt>
      <trkpt lat="50.644458" lon="6.313088">
        <ele>427.920000</ele>
        <time>2009-05-21T09:55:07Z</time>
      </trkpt>
      <trkpt lat="50.644591" lon="6.313199">
        <ele>426.960000</ele>
        <time>2009-05-21T09:55:18Z</time>
      </trkpt>
      <trkpt lat="50.644624" lon="6.313200">
        <ele>426.480000</ele>
        <time>2009-05-21T09:55:22Z</time>
      </trkpt>
      <trkpt lat="50.644698" lon="6.313277">
        <ele>426.000000</ele>
        <time>2009-05-21T09:55:28Z</time>
      </trkpt>
      <trkpt lat="50.644737" lon="6.313325">
        <ele>425.520000</ele>
        <time>2009-05-21T09:55:34Z</time>
      </trkpt>
      <trkpt lat="50.644784" lon="6.313328">
        <ele>424.560000</ele>
        <time>2009-05-21T09:55:39Z</time>
      </trkpt>
      <trkpt lat="50.644883" lon="6.313352">
        <ele>423.600000</ele>
        <time>2009-05-21T09:55:50Z</time>
      </trkpt>
      <trkpt lat="50.645080" lon="6.313566">
        <ele>422.640000</ele>
        <time>2009-05-21T09:56:01Z</time>
      </trkpt>
      <trkpt lat="50.645225" lon="6.313809">
        <ele>421.190000</ele>
        <time>2009-05-21T09:56:16Z</time>
      </trkpt>
      <trkpt lat="50.645304" lon="6.314072">
        <ele>420.230000</ele>
        <time>2009-05-21T09:56:29Z</time>
      </trkpt>
      <trkpt lat="50.645370" lon="6.314268">
        <ele>419.750000</ele>
        <time>2009-05-21T09:56:40Z</time>
      </trkpt>
      <trkpt lat="50.645425" lon="6.314340">
        <ele>418.790000</ele>
        <time>2009-05-21T09:56:47Z</time>
      </trkpt>
      <trkpt lat="50.645557" lon="6.314574">
        <ele>417.350000</ele>
        <time>2009-05-21T09:57:00Z</time>
      </trkpt>
      <trkpt lat="50.645694" lon="6.314842">
        <ele>416.390000</ele>
        <time>2009-05-21T09:57:15Z</time>
      </trkpt>
      <trkpt lat="50.645755" lon="6.314916">
        <ele>415.910000</ele>
        <time>2009-05-21T09:57:20Z</time>
      </trkpt>
      <trkpt lat="50.645874" lon="6.315144">
        <ele>414.470000</ele>
        <time>2009-05-21T09:57:36Z</time>
      </trkpt>
      <trkpt lat="50.645969" lon="6.315255">
        <ele>413.020000</ele>
        <time>2009-05-21T09:57:51Z</time>
      </trkpt>
      <trkpt lat="50.646113" lon="6.315350">
        <ele>412.060000</ele>
        <time>2009-05-21T09:58:05Z</time>
      </trkpt>
      <trkpt lat="50.646143" lon="6.315374">
        <ele>412.060000</ele>
        <time>2009-05-21T09:58:07Z</time>
      </trkpt>
      <trkpt lat="50.646292" lon="6.315362">
        <ele>411.100000</ele>
        <time>2009-05-21T09:58:21Z</time>
      </trkpt>
      <trkpt lat="50.646371" lon="6.315458">
        <ele>410.620000</ele>
        <time>2009-05-21T09:58:26Z</time>
      </trkpt>
      <trkpt lat="50.646710" lon="6.315760">
        <ele>408.700000</ele>
        <time>2009-05-21T09:58:47Z</time>
      </trkpt>
      <trkpt lat="50.646818" lon="6.315963">
        <ele>407.260000</ele>
        <time>2009-05-21T09:59:02Z</time>
      </trkpt>
      <trkpt lat="50.647004" lon="6.316135">
        <ele>405.810000</ele>
        <time>2009-05-21T09:59:18Z</time>
      </trkpt>
      <trkpt lat="50.647115" lon="6.316310">
        <ele>404.370000</ele>
        <time>2009-05-21T09:59:32Z</time>
      </trkpt>
      <trkpt lat="50.647291" lon="6.316470">
        <ele>402.930000</ele>
        <time>2009-05-21T09:59:48Z</time>
      </trkpt>
      <trkpt lat="50.647431" lon="6.316569">
        <ele>401.490000</ele>
        <time>2009-05-21T10:00:02Z</time>
      </trkpt>
      <trkpt lat="50.647524" lon="6.316721">
        <ele>400.530000</ele>
        <time>2009-05-21T10:00:15Z</time>
      </trkpt>
      <trkpt lat="50.647693" lon="6.316910">
        <ele>398.600000</ele>
        <time>2009-05-21T10:00:29Z</time>
      </trkpt>
      <trkpt lat="50.647809" lon="6.317041">
        <ele>397.160000</ele>
        <time>2009-05-21T10:00:43Z</time>
      </trkpt>
      <trkpt lat="50.647983" lon="6.317187">
        <ele>395.720000</ele>
        <time>2009-05-21T10:00:56Z</time>
      </trkpt>
      <trkpt lat="50.647979" lon="6.317226">
        <ele>395.720000</ele>
        <time>2009-05-21T10:00:59Z</time>
      </trkpt>
      <trkpt lat="50.648101" lon="6.317401">
        <ele>393.800000</ele>
        <time>2009-05-21T10:01:15Z</time>
      </trkpt>
      <trkpt lat="50.648315" lon="6.317579">
        <ele>393.320000</ele>
        <time>2009-05-21T10:01:26Z</time>
      </trkpt>
      <trkpt lat="50.648402" lon="6.317649">
        <ele>392.360000</ele>
        <time>2009-05-21T10:01:34Z</time>
      </trkpt>
      <trkpt lat="50.648394" lon="6.317679">
        <ele>392.360000</ele>
        <time>2009-05-21T10:01:36Z</time>
      </trkpt>
      <trkpt lat="50.648447" lon="6.317730">
        <ele>391.870000</ele>
        <time>2009-05-21T10:01:41Z</time>
      </trkpt>
      <trkpt lat="50.648581" lon="6.317931">
        <ele>390.430000</ele>
        <time>2009-05-21T10:01:54Z</time>
      </trkpt>
      <trkpt lat="50.648797" lon="6.318081">
        <ele>388.990000</ele>
        <time>2009-05-21T10:02:09Z</time>
      </trkpt>
      <trkpt lat="50.648816" lon="6.318080">
        <ele>388.990000</ele>
        <time>2009-05-21T10:02:12Z</time>
      </trkpt>
      <trkpt lat="50.648891" lon="6.318133">
        <ele>387.550000</ele>
        <time>2009-05-21T10:02:26Z</time>
      </trkpt>
      <trkpt lat="50.649029" lon="6.318337">
        <ele>387.070000</ele>
        <time>2009-05-21T10:02:40Z</time>
      </trkpt>
      <trkpt lat="50.649220" lon="6.318378">
        <ele>386.590000</ele>
        <time>2009-05-21T10:02:53Z</time>
      </trkpt>
      <trkpt lat="50.649331" lon="6.318486">
        <ele>386.110000</ele>
        <time>2009-05-21T10:03:08Z</time>
      </trkpt>
      <trkpt lat="50.649341" lon="6.318478">
        <ele>386.110000</ele>
        <time>2009-05-21T10:03:11Z</time>
      </trkpt>
      <trkpt lat="50.649422" lon="6.318538">
        <ele>385.630000</ele>
        <time>2009-05-21T10:03:19Z</time>
      </trkpt>
      <trkpt lat="50.649466" lon="6.318616">
        <ele>385.630000</ele>
        <time>2009-05-21T10:03:23Z</time>
      </trkpt>
      <trkpt lat="50.649628" lon="6.318590">
        <ele>385.630000</ele>
        <time>2009-05-21T10:03:34Z</time>
      </trkpt>
      <trkpt lat="50.649882" lon="6.318715">
        <ele>385.630000</ele>
        <time>2009-05-21T10:03:49Z</time>
      </trkpt>
      <trkpt lat="50.650003" lon="6.318896">
        <ele>385.150000</ele>
        <time>2009-05-21T10:03:57Z</time>
      </trkpt>
      <trkpt lat="50.650123" lon="6.319067">
        <ele>385.150000</ele>
        <time>2009-05-21T10:04:10Z</time>
      </trkpt>
      <trkpt lat="50.650168" lon="6.319113">
        <ele>385.150000</ele>
        <time>2009-05-21T10:04:15Z</time>
      </trkpt>
      <trkpt lat="50.650185" lon="6.319176">
        <ele>384.660000</ele>
        <time>2009-05-21T10:04:18Z</time>
      </trkpt>
      <trkpt lat="50.650378" lon="6.319238">
        <ele>384.660000</ele>
        <time>2009-05-21T10:04:33Z</time>
      </trkpt>
      <trkpt lat="50.650485" lon="6.319417">
        <ele>384.180000</ele>
        <time>2009-05-21T10:04:44Z</time>
      </trkpt>
      <trkpt lat="50.650606" lon="6.319390">
        <ele>384.180000</ele>
        <time>2009-05-21T10:04:51Z</time>
      </trkpt>
      <trkpt lat="50.650626" lon="6.319228">
        <ele>384.180000</ele>
        <time>2009-05-21T10:05:05Z</time>
      </trkpt>
      <trkpt lat="50.650600" lon="6.319391">
        <ele>384.180000</ele>
        <time>2009-05-21T10:05:45Z</time>
      </trkpt>
      <trkpt lat="50.650622" lon="6.319420">
        <ele>385.630000</ele>
        <time>2009-05-21T10:06:14Z</time>
      </trkpt>
      <trkpt lat="50.650761" lon="6.319515">
        <ele>384.660000</ele>
        <time>2009-05-21T10:06:39Z</time>
      </trkpt>
      <trkpt lat="50.650953" lon="6.319694">
        <ele>384.180000</ele>
        <time>2009-05-21T10:06:57Z</time>
      </trkpt>
      <trkpt lat="50.651256" lon="6.319984">
        <ele>383.220000</ele>
        <time>2009-05-21T10:07:17Z</time>
      </trkpt>
      <trkpt lat="50.651354" lon="6.320058">
        <ele>383.220000</ele>
        <time>2009-05-21T10:07:25Z</time>
      </trkpt>
      <trkpt lat="50.651428" lon="6.320176">
        <ele>382.740000</ele>
        <time>2009-05-21T10:07:30Z</time>
      </trkpt>
      <trkpt lat="50.651462" lon="6.320244">
        <ele>382.740000</ele>
        <time>2009-05-21T10:07:33Z</time>
      </trkpt>
      <trkpt lat="50.651582" lon="6.320455">
        <ele>382.260000</ele>
        <time>2009-05-21T10:07:46Z</time>
      </trkpt>
      <trkpt lat="50.651592" lon="6.320475">
        <ele>382.260000</ele>
        <time>2009-05-21T10:07:47Z</time>
      </trkpt>
      <trkpt lat="50.651631" lon="6.320586">
        <ele>382.260000</ele>
        <time>2009-05-21T10:07:53Z</time>
      </trkpt>
      <trkpt lat="50.651646" lon="6.320620">
        <ele>382.260000</ele>
        <time>2009-05-21T10:07:55Z</time>
      </trkpt>
      <trkpt lat="50.651670" lon="6.320678">
        <ele>381.780000</ele>
        <time>2009-05-21T10:07:59Z</time>
      </trkpt>
      <trkpt lat="50.651714" lon="6.320935">
        <ele>381.300000</ele>
        <time>2009-05-21T10:08:10Z</time>
      </trkpt>
      <trkpt lat="50.651733" lon="6.321045">
        <ele>381.300000</ele>
        <time>2009-05-21T10:08:18Z</time>
      </trkpt>
      <trkpt lat="50.651825" lon="6.321220">
        <ele>380.340000</ele>
        <time>2009-05-21T10:08:30Z</time>
      </trkpt>
      <trkpt lat="50.651850" lon="6.321324">
        <ele>379.860000</ele>
        <time>2009-05-21T10:08:36Z</time>
      </trkpt>
      <trkpt lat="50.651858" lon="6.321491">
        <ele>379.860000</ele>
        <time>2009-05-21T10:08:43Z</time>
      </trkpt>
      <trkpt lat="50.651829" lon="6.321832">
        <ele>378.900000</ele>
        <time>2009-05-21T10:08:58Z</time>
      </trkpt>
      <trkpt lat="50.651833" lon="6.321905">
        <ele>378.900000</ele>
        <time>2009-05-21T10:09:02Z</time>
      </trkpt>
      <trkpt lat="50.651870" lon="6.322169">
        <ele>378.900000</ele>
        <time>2009-05-21T10:09:14Z</time>
      </trkpt>
      <trkpt lat="50.651899" lon="6.322286">
        <ele>378.900000</ele>
        <time>2009-05-21T10:09:19Z</time>
      </trkpt>
      <trkpt lat="50.651929" lon="6.322324">
        <ele>378.420000</ele>
        <time>2009-05-21T10:09:22Z</time>
      </trkpt>
      <trkpt lat="50.652056" lon="6.322672">
        <ele>377.940000</ele>
        <time>2009-05-21T10:09:37Z</time>
      </trkpt>
      <trkpt lat="50.652111" lon="6.322875">
        <ele>378.420000</ele>
        <time>2009-05-21T10:09:47Z</time>
      </trkpt>
      <trkpt lat="50.652130" lon="6.322926">
        <ele>377.940000</ele>
        <time>2009-05-21T10:09:50Z</time>
      </trkpt>
      <trkpt lat="50.652193" lon="6.323128">
        <ele>377.450000</ele>
        <time>2009-05-21T10:10:03Z</time>
      </trkpt>
      <trkpt lat="50.652270" lon="6.323406">
        <ele>377.450000</ele>
        <time>2009-05-21T10:10:15Z</time>
      </trkpt>
      <trkpt lat="50.652329" lon="6.323598">
        <ele>376.970000</ele>
        <time>2009-05-21T10:10:25Z</time>
      </trkpt>
      <trkpt lat="50.652402" lon="6.323732">
        <ele>376.970000</ele>
        <time>2009-05-21T10:10:33Z</time>
      </trkpt>
      <trkpt lat="50.652539" lon="6.323967">
        <ele>376.970000</ele>
        <time>2009-05-21T10:10:46Z</time>
      </trkpt>
      <trkpt lat="50.652661" lon="6.324129">
        <ele>376.490000</ele>
        <time>2009-05-21T10:10:59Z</time>
      </trkpt>
      <trkpt lat="50.652803" lon="6.324265">
        <ele>376.010000</ele>
        <time>2009-05-21T10:11:10Z</time>
      </trkpt>
      <trkpt lat="50.652908" lon="6.324423">
        <ele>375.530000</ele>
        <time>2009-05-21T10:11:25Z</time>
      </trkpt>
      <trkpt lat="50.653116" lon="6.324710">
        <ele>375.050000</ele>
        <time>2009-05-21T10:11:40Z</time>
      </trkpt>
      <trkpt lat="50.653256" lon="6.324913">
        <ele>375.050000</ele>
        <time>2009-05-21T10:11:53Z</time>
      </trkpt>
      <trkpt lat="50.653265" lon="6.324970">
        <ele>375.050000</ele>
        <time>2009-05-21T10:11:57Z</time>
      </trkpt>
      <trkpt lat="50.653418" lon="6.325170">
        <ele>375.050000</ele>
        <time>2009-05-21T10:12:13Z</time>
      </trkpt>
      <trkpt lat="50.653706" lon="6.325528">
        <ele>374.570000</ele>
        <time>2009-05-21T10:12:42Z</time>
      </trkpt>
      <trkpt lat="50.653896" lon="6.325824">
        <ele>374.570000</ele>
        <time>2009-05-21T10:13:02Z</time>
      </trkpt>
      <trkpt lat="50.654082" lon="6.326179">
        <ele>374.090000</ele>
        <time>2009-05-21T10:13:24Z</time>
      </trkpt>
      <trkpt lat="50.654306" lon="6.326469">
        <ele>373.610000</ele>
        <time>2009-05-21T10:13:49Z</time>
      </trkpt>
      <trkpt lat="50.654351" lon="6.326592">
        <ele>373.610000</ele>
        <time>2009-05-21T10:14:00Z</time>
      </trkpt>
      <trkpt lat="50.654540" lon="6.326606">
        <ele>373.130000</ele>
        <time>2009-05-21T10:14:13Z</time>
      </trkpt>
      <trkpt lat="50.654708" lon="6.326692">
        <ele>373.130000</ele>
        <time>2009-05-21T10:14:25Z</time>
      </trkpt>
      <trkpt lat="50.654932" lon="6.326685">
        <ele>372.650000</ele>
        <time>2009-05-21T10:14:39Z</time>
      </trkpt>
      <trkpt lat="50.655099" lon="6.326746">
        <ele>372.650000</ele>
        <time>2009-05-21T10:14:52Z</time>
      </trkpt>
      <trkpt lat="50.655259" lon="6.326706">
        <ele>372.170000</ele>
        <time>2009-05-21T10:15:05Z</time>
      </trkpt>
      <trkpt lat="50.655304" lon="6.326768">
        <ele>372.170000</ele>
        <time>2009-05-21T10:15:09Z</time>
      </trkpt>
      <trkpt lat="50.655471" lon="6.326853">
        <ele>372.650000</ele>
        <time>2009-05-21T10:15:21Z</time>
      </trkpt>
      <trkpt lat="50.655573" lon="6.326917">
        <ele>372.650000</ele>
        <time>2009-05-21T10:15:31Z</time>
      </trkpt>
      <trkpt lat="50.655684" lon="6.326962">
        <ele>372.170000</ele>
        <time>2009-05-21T10:16:45Z</time>
      </trkpt>
      <trkpt lat="50.655721" lon="6.326995">
        <ele>372.170000</ele>
        <time>2009-05-21T10:16:47Z</time>
      </trkpt>
      <trkpt lat="50.655920" lon="6.327181">
        <ele>371.690000</ele>
        <time>2009-05-21T10:17:02Z</time>
      </trkpt>
      <trkpt lat="50.656012" lon="6.327301">
        <ele>372.170000</ele>
        <time>2009-05-21T10:17:14Z</time>
      </trkpt>
      <trkpt lat="50.656086" lon="6.327237">
        <ele>372.170000</ele>
        <time>2009-05-21T10:17:20Z</time>
      </trkpt>
      <trkpt lat="50.656116" lon="6.327264">
        <ele>372.170000</ele>
        <time>2009-05-21T10:17:25Z</time>
      </trkpt>
      <trkpt lat="50.656371" lon="6.327228">
        <ele>372.650000</ele>
        <time>2009-05-21T10:17:36Z</time>
      </trkpt>
      <trkpt lat="50.656407" lon="6.327233">
        <ele>372.650000</ele>
        <time>2009-05-21T10:17:38Z</time>
      </trkpt>
      <trkpt lat="50.656427" lon="6.327129">
        <ele>372.170000</ele>
        <time>2009-05-21T10:17:45Z</time>
      </trkpt>
      <trkpt lat="50.656422" lon="6.327088">
        <ele>372.170000</ele>
        <time>2009-05-21T10:17:47Z</time>
      </trkpt>
      <trkpt lat="50.656452" lon="6.327036">
        <ele>371.690000</ele>
        <time>2009-05-21T10:17:51Z</time>
      </trkpt>
      <trkpt lat="50.656473" lon="6.326936">
        <ele>371.690000</ele>
        <time>2009-05-21T10:17:55Z</time>
      </trkpt>
      <trkpt lat="50.656500" lon="6.326791">
        <ele>371.690000</ele>
        <time>2009-05-21T10:18:03Z</time>
      </trkpt>
      <trkpt lat="50.656543" lon="6.326595">
        <ele>371.690000</ele>
        <time>2009-05-21T10:18:15Z</time>
      </trkpt>
      <trkpt lat="50.656593" lon="6.326356">
        <ele>371.690000</ele>
        <time>2009-05-21T10:18:26Z</time>
      </trkpt>
      <trkpt lat="50.656660" lon="6.326152">
        <ele>371.690000</ele>
        <time>2009-05-21T10:18:38Z</time>
      </trkpt>
      <trkpt lat="50.656774" lon="6.326040">
        <ele>371.690000</ele>
        <time>2009-05-21T10:18:50Z</time>
      </trkpt>
      <trkpt lat="50.656929" lon="6.326314">
        <ele>370.240000</ele>
        <time>2009-05-21T10:19:10Z</time>
      </trkpt>
      <trkpt lat="50.656953" lon="6.326958">
        <ele>367.360000</ele>
        <time>2009-05-21T10:19:33Z</time>
      </trkpt>
      <trkpt lat="50.656945" lon="6.327025">
        <ele>366.880000</ele>
        <time>2009-05-21T10:19:36Z</time>
      </trkpt>
      <trkpt lat="50.656994" lon="6.327266">
        <ele>364.960000</ele>
        <time>2009-05-21T10:19:48Z</time>
      </trkpt>
      <trkpt lat="50.656992" lon="6.327369">
        <ele>364.960000</ele>
        <time>2009-05-21T10:19:51Z</time>
      </trkpt>
      <trkpt lat="50.657048" lon="6.327469">
        <ele>364.000000</ele>
        <time>2009-05-21T10:19:59Z</time>
      </trkpt>
      <trkpt lat="50.657135" lon="6.327495">
        <ele>363.520000</ele>
        <time>2009-05-21T10:20:03Z</time>
      </trkpt>
      <trkpt lat="50.657194" lon="6.327676">
        <ele>362.550000</ele>
        <time>2009-05-21T10:20:11Z</time>
      </trkpt>
      <trkpt lat="50.657225" lon="6.327723">
        <ele>362.070000</ele>
        <time>2009-05-21T10:20:14Z</time>
      </trkpt>
      <trkpt lat="50.657317" lon="6.327957">
        <ele>361.110000</ele>
        <time>2009-05-21T10:20:29Z</time>
      </trkpt>
      <trkpt lat="50.657311" lon="6.328053">
        <ele>360.630000</ele>
        <time>2009-05-21T10:20:35Z</time>
      </trkpt>
      <trkpt lat="50.657236" lon="6.328327">
        <ele>359.670000</ele>
        <time>2009-05-21T10:20:49Z</time>
      </trkpt>
      <trkpt lat="50.657224" lon="6.328435">
        <ele>358.710000</ele>
        <time>2009-05-21T10:20:53Z</time>
      </trkpt>
      <trkpt lat="50.657259" lon="6.328694">
        <ele>358.230000</ele>
        <time>2009-05-21T10:21:06Z</time>
      </trkpt>
      <trkpt lat="50.657281" lon="6.328837">
        <ele>357.750000</ele>
        <time>2009-05-21T10:21:12Z</time>
      </trkpt>
      <trkpt lat="50.657415" lon="6.329007">
        <ele>357.270000</ele>
        <time>2009-05-21T10:21:24Z</time>
      </trkpt>
      <trkpt lat="50.657514" lon="6.329225">
        <ele>357.270000</ele>
        <time>2009-05-21T10:21:37Z</time>
      </trkpt>
      <trkpt lat="50.657570" lon="6.329302">
        <ele>357.270000</ele>
        <time>2009-05-21T10:21:42Z</time>
      </trkpt>
      <trkpt lat="50.657698" lon="6.329358">
        <ele>357.270000</ele>
        <time>2009-05-21T10:21:52Z</time>
      </trkpt>
      <trkpt lat="50.657746" lon="6.329529">
        <ele>357.270000</ele>
        <time>2009-05-21T10:22:04Z</time>
      </trkpt>
      <trkpt lat="50.657776" lon="6.329631">
        <ele>357.270000</ele>
        <time>2009-05-21T10:22:09Z</time>
      </trkpt>
      <trkpt lat="50.657883" lon="6.329861">
        <ele>357.270000</ele>
        <time>2009-05-21T10:22:22Z</time>
      </trkpt>
      <trkpt lat="50.658028" lon="6.330142">
        <ele>356.310000</ele>
        <time>2009-05-21T10:22:36Z</time>
      </trkpt>
      <trkpt lat="50.658090" lon="6.330391">
        <ele>356.310000</ele>
        <time>2009-05-21T10:22:48Z</time>
      </trkpt>
      <trkpt lat="50.658113" lon="6.330483">
        <ele>355.830000</ele>
        <time>2009-05-21T10:22:53Z</time>
      </trkpt>
      <trkpt lat="50.658193" lon="6.330689">
        <ele>354.860000</ele>
        <time>2009-05-21T10:23:03Z</time>
      </trkpt>
      <trkpt lat="50.658208" lon="6.330780">
        <ele>354.860000</ele>
        <time>2009-05-21T10:23:07Z</time>
      </trkpt>
      <trkpt lat="50.658253" lon="6.331012">
        <ele>354.380000</ele>
        <time>2009-05-21T10:23:21Z</time>
      </trkpt>
      <trkpt lat="50.658368" lon="6.331258">
        <ele>354.380000</ele>
        <time>2009-05-21T10:23:36Z</time>
      </trkpt>
      <trkpt lat="50.658388" lon="6.331368">
        <ele>354.380000</ele>
        <time>2009-05-21T10:23:41Z</time>
      </trkpt>
      <trkpt lat="50.658414" lon="6.331633">
        <ele>353.420000</ele>
        <time>2009-05-21T10:23:55Z</time>
      </trkpt>
      <trkpt lat="50.658462" lon="6.331838">
        <ele>352.940000</ele>
        <time>2009-05-21T10:24:06Z</time>
      </trkpt>
      <trkpt lat="50.658500" lon="6.332040">
        <ele>352.940000</ele>
        <time>2009-05-21T10:24:18Z</time>
      </trkpt>
      <trkpt lat="50.658487" lon="6.332129">
        <ele>352.940000</ele>
        <time>2009-05-21T10:24:24Z</time>
      </trkpt>
      <trkpt lat="50.658464" lon="6.332281">
        <ele>352.460000</ele>
        <time>2009-05-21T10:24:28Z</time>
      </trkpt>
      <trkpt lat="50.658444" lon="6.332535">
        <ele>352.940000</ele>
        <time>2009-05-21T10:24:41Z</time>
      </trkpt>
      <trkpt lat="50.658414" lon="6.332580">
        <ele>352.460000</ele>
        <time>2009-05-21T10:24:43Z</time>
      </trkpt>
      <trkpt lat="50.658340" lon="6.332742">
        <ele>352.940000</ele>
        <time>2009-05-21T10:24:50Z</time>
      </trkpt>
      <trkpt lat="50.658349" lon="6.332810">
        <ele>353.420000</ele>
        <time>2009-05-21T10:24:55Z</time>
      </trkpt>
      <trkpt lat="50.658259" lon="6.333055">
        <ele>353.420000</ele>
        <time>2009-05-21T10:25:13Z</time>
      </trkpt>
      <trkpt lat="50.658215" lon="6.333523">
        <ele>354.380000</ele>
        <time>2009-05-21T10:25:35Z</time>
      </trkpt>
      <trkpt lat="50.658104" lon="6.333974">
        <ele>355.340000</ele>
        <time>2009-05-21T10:25:55Z</time>
      </trkpt>
      <trkpt lat="50.658067" lon="6.334026">
        <ele>355.340000</ele>
        <time>2009-05-21T10:25:57Z</time>
      </trkpt>
      <trkpt lat="50.658027" lon="6.334132">
        <ele>355.340000</ele>
        <time>2009-05-21T10:26:02Z</time>
      </trkpt>
      <trkpt lat="50.658052" lon="6.334249">
        <ele>355.340000</ele>
        <time>2009-05-21T10:26:12Z</time>
      </trkpt>
      <trkpt lat="50.658106" lon="6.334389">
        <ele>354.380000</ele>
        <time>2009-05-21T10:26:42Z</time>
      </trkpt>
      <trkpt lat="50.658105" lon="6.334448">
        <ele>353.420000</ele>
        <time>2009-05-21T10:26:46Z</time>
      </trkpt>
      <trkpt lat="50.658058" lon="6.334738">
        <ele>352.460000</ele>
        <time>2009-05-21T10:27:01Z</time>
      </trkpt>
      <trkpt lat="50.658116" lon="6.335004">
        <ele>351.500000</ele>
        <time>2009-05-21T10:27:13Z</time>
      </trkpt>
      <trkpt lat="50.658133" lon="6.335180">
        <ele>351.020000</ele>
        <time>2009-05-21T10:27:20Z</time>
      </trkpt>
      <trkpt lat="50.658150" lon="6.335451">
        <ele>350.540000</ele>
        <time>2009-05-21T10:27:28Z</time>
      </trkpt>
      <trkpt lat="50.658120" lon="6.335559">
        <ele>350.540000</ele>
        <time>2009-05-21T10:27:33Z</time>
      </trkpt>
      <trkpt lat="50.658165" lon="6.335648">
        <ele>350.060000</ele>
        <time>2009-05-21T10:27:39Z</time>
      </trkpt>
      <trkpt lat="50.658145" lon="6.335964">
        <ele>350.060000</ele>
        <time>2009-05-21T10:27:53Z</time>
      </trkpt>
      <trkpt lat="50.658165" lon="6.336031">
        <ele>350.060000</ele>
        <time>2009-05-21T10:27:56Z</time>
      </trkpt>
      <trkpt lat="50.658155" lon="6.336289">
        <ele>350.060000</ele>
        <time>2009-05-21T10:28:06Z</time>
      </trkpt>
      <trkpt lat="50.658125" lon="6.336465">
        <ele>349.580000</ele>
        <time>2009-05-21T10:28:13Z</time>
      </trkpt>
      <trkpt lat="50.658079" lon="6.336611">
        <ele>349.580000</ele>
        <time>2009-05-21T10:28:17Z</time>
      </trkpt>
      <trkpt lat="50.658166" lon="6.336828">
        <ele>349.580000</ele>
        <time>2009-05-21T10:28:31Z</time>
      </trkpt>
      <trkpt lat="50.658187" lon="6.336835">
        <ele>349.580000</ele>
        <time>2009-05-21T10:28:34Z</time>
      </trkpt>
      <trkpt lat="50.658200" lon="6.336963">
        <ele>349.580000</ele>
        <time>2009-05-21T10:28:39Z</time>
      </trkpt>
      <trkpt lat="50.658190" lon="6.337297">
        <ele>349.580000</ele>
        <time>2009-05-21T10:28:52Z</time>
      </trkpt>
      <trkpt lat="50.658248" lon="6.337415">
        <ele>349.580000</ele>
        <time>2009-05-21T10:28:57Z</time>
      </trkpt>
      <trkpt lat="50.658274" lon="6.337653">
        <ele>349.580000</ele>
        <time>2009-05-21T10:29:09Z</time>
      </trkpt>
      <trkpt lat="50.658268" lon="6.337828">
        <ele>350.060000</ele>
        <time>2009-05-21T10:29:16Z</time>
      </trkpt>
      <trkpt lat="50.658339" lon="6.338060">
        <ele>350.060000</ele>
        <time>2009-05-21T10:29:26Z</time>
      </trkpt>
      <trkpt lat="50.658378" lon="6.338371">
        <ele>350.060000</ele>
        <time>2009-05-21T10:29:37Z</time>
      </trkpt>
      <trkpt lat="50.658364" lon="6.338410">
        <ele>350.060000</ele>
        <time>2009-05-21T10:29:38Z</time>
      </trkpt>
      <trkpt lat="50.658362" lon="6.338454">
        <ele>349.580000</ele>
        <time>2009-05-21T10:29:41Z</time>
      </trkpt>
      <trkpt lat="50.658336" lon="6.338730">
        <ele>350.060000</ele>
        <time>2009-05-21T10:29:52Z</time>
      </trkpt>
      <trkpt lat="50.658329" lon="6.338808">
        <ele>350.060000</ele>
        <time>2009-05-21T10:30:02Z</time>
      </trkpt>
      <trkpt lat="50.658363" lon="6.338897">
        <ele>350.060000</ele>
        <time>2009-05-21T10:30:10Z</time>
      </trkpt>
      <trkpt lat="50.658380" lon="6.338937">
        <ele>349.580000</ele>
        <time>2009-05-21T10:30:12Z</time>
      </trkpt>
      <trkpt lat="50.658413" lon="6.339179">
        <ele>349.580000</ele>
        <time>2009-05-21T10:30:21Z</time>
      </trkpt>
      <trkpt lat="50.658477" lon="6.339431">
        <ele>349.100000</ele>
        <time>2009-05-21T10:30:33Z</time>
      </trkpt>
      <trkpt lat="50.658478" lon="6.339512">
        <ele>348.620000</ele>
        <time>2009-05-21T10:30:37Z</time>
      </trkpt>
      <trkpt lat="50.658460" lon="6.339683">
        <ele>348.620000</ele>
        <time>2009-05-21T10:30:44Z</time>
      </trkpt>
      <trkpt lat="50.658465" lon="6.339979">
        <ele>348.130000</ele>
        <time>2009-05-21T10:30:57Z</time>
      </trkpt>
      <trkpt lat="50.658534" lon="6.340145">
        <ele>347.650000</ele>
        <time>2009-05-21T10:31:03Z</time>
      </trkpt>
      <trkpt lat="50.658555" lon="6.340271">
        <ele>347.650000</ele>
        <time>2009-05-21T10:31:10Z</time>
      </trkpt>
      <trkpt lat="50.658562" lon="6.340304">
        <ele>347.650000</ele>
        <time>2009-05-21T10:31:12Z</time>
      </trkpt>
      <trkpt lat="50.658542" lon="6.340389">
        <ele>347.170000</ele>
        <time>2009-05-21T10:31:17Z</time>
      </trkpt>
      <trkpt lat="50.658617" lon="6.340496">
        <ele>347.170000</ele>
        <time>2009-05-21T10:31:24Z</time>
      </trkpt>
      <trkpt lat="50.658628" lon="6.340517">
        <ele>346.690000</ele>
        <time>2009-05-21T10:31:26Z</time>
      </trkpt>
      <trkpt lat="50.658638" lon="6.340675">
        <ele>347.170000</ele>
        <time>2009-05-21T10:31:32Z</time>
      </trkpt>
      <trkpt lat="50.658725" lon="6.340816">
        <ele>346.690000</ele>
        <time>2009-05-21T10:31:40Z</time>
      </trkpt>
      <trkpt lat="50.658768" lon="6.340949">
        <ele>346.690000</ele>
        <time>2009-05-21T10:31:46Z</time>
      </trkpt>
      <trkpt lat="50.658785" lon="6.341155">
        <ele>346.210000</ele>
        <time>2009-05-21T10:31:55Z</time>
      </trkpt>
      <trkpt lat="50.658790" lon="6.341251">
        <ele>346.210000</ele>
        <time>2009-05-21T10:32:00Z</time>
      </trkpt>
      <trkpt lat="50.658756" lon="6.341426">
        <ele>346.210000</ele>
        <time>2009-05-21T10:32:08Z</time>
      </trkpt>
      <trkpt lat="50.658691" lon="6.341557">
        <ele>345.730000</ele>
        <time>2009-05-21T10:32:18Z</time>
      </trkpt>
      <trkpt lat="50.658639" lon="6.341590">
        <ele>345.730000</ele>
        <time>2009-05-21T10:32:22Z</time>
      </trkpt>
      <trkpt lat="50.658555" lon="6.341580">
        <ele>345.250000</ele>
        <time>2009-05-21T10:32:30Z</time>
      </trkpt>
      <trkpt lat="50.658417" lon="6.341583">
        <ele>344.770000</ele>
        <time>2009-05-21T10:32:38Z</time>
      </trkpt>
      <trkpt lat="50.658347" lon="6.341867">
        <ele>344.290000</ele>
        <time>2009-05-21T10:32:55Z</time>
      </trkpt>
      <trkpt lat="50.658322" lon="6.342024">
        <ele>344.770000</ele>
        <time>2009-05-21T10:33:02Z</time>
      </trkpt>
      <trkpt lat="50.658442" lon="6.342193">
        <ele>344.770000</ele>
        <time>2009-05-21T10:33:17Z</time>
      </trkpt>
      <trkpt lat="50.658463" lon="6.342214">
        <ele>344.290000</ele>
        <time>2009-05-21T10:33:18Z</time>
      </trkpt>
      <trkpt lat="50.658596" lon="6.342416">
        <ele>343.330000</ele>
        <time>2009-05-21T10:33:32Z</time>
      </trkpt>
      <trkpt lat="50.658656" lon="6.342547">
        <ele>342.850000</ele>
        <time>2009-05-21T10:33:43Z</time>
      </trkpt>
      <trkpt lat="50.658702" lon="6.342587">
        <ele>342.370000</ele>
        <time>2009-05-21T10:33:46Z</time>
      </trkpt>
      <trkpt lat="50.658811" lon="6.342698">
        <ele>341.410000</ele>
        <time>2009-05-21T10:33:56Z</time>
      </trkpt>
      <trkpt lat="50.658828" lon="6.342781">
        <ele>341.410000</ele>
        <time>2009-05-21T10:33:59Z</time>
      </trkpt>
      <trkpt lat="50.658865" lon="6.342827">
        <ele>340.920000</ele>
        <time>2009-05-21T10:34:02Z</time>
      </trkpt>
      <trkpt lat="50.658945" lon="6.342870">
        <ele>340.920000</ele>
        <time>2009-05-21T10:34:08Z</time>
      </trkpt>
      <trkpt lat="50.658995" lon="6.342927">
        <ele>339.960000</ele>
        <time>2009-05-21T10:34:12Z</time>
      </trkpt>
      <trkpt lat="50.659056" lon="6.342939">
        <ele>339.960000</ele>
        <time>2009-05-21T10:34:16Z</time>
      </trkpt>
      <trkpt lat="50.659109" lon="6.343082">
        <ele>339.480000</ele>
        <time>2009-05-21T10:34:21Z</time>
      </trkpt>
      <trkpt lat="50.659154" lon="6.343153">
        <ele>339.480000</ele>
        <time>2009-05-21T10:34:26Z</time>
      </trkpt>
      <trkpt lat="50.659334" lon="6.343209">
        <ele>339.000000</ele>
        <time>2009-05-21T10:34:37Z</time>
      </trkpt>
      <trkpt lat="50.659360" lon="6.343249">
        <ele>339.000000</ele>
        <time>2009-05-21T10:34:40Z</time>
      </trkpt>
      <trkpt lat="50.659384" lon="6.343273">
        <ele>339.000000</ele>
        <time>2009-05-21T10:34:43Z</time>
      </trkpt>
      <trkpt lat="50.659399" lon="6.343292">
        <ele>339.000000</ele>
        <time>2009-05-21T10:34:45Z</time>
      </trkpt>
      <trkpt lat="50.659408" lon="6.343371">
        <ele>338.520000</ele>
        <time>2009-05-21T10:34:48Z</time>
      </trkpt>
      <trkpt lat="50.659409" lon="6.343451">
        <ele>338.520000</ele>
        <time>2009-05-21T10:34:52Z</time>
      </trkpt>
      <trkpt lat="50.659425" lon="6.343715">
        <ele>338.520000</ele>
        <time>2009-05-21T10:35:02Z</time>
      </trkpt>
      <trkpt lat="50.659447" lon="6.344000">
        <ele>337.560000</ele>
        <time>2009-05-21T10:35:16Z</time>
      </trkpt>
      <trkpt lat="50.659436" lon="6.344078">
        <ele>337.080000</ele>
        <time>2009-05-21T10:35:18Z</time>
      </trkpt>
      <trkpt lat="50.659466" lon="6.344271">
        <ele>337.080000</ele>
        <time>2009-05-21T10:35:30Z</time>
      </trkpt>
      <trkpt lat="50.659453" lon="6.344302">
        <ele>336.600000</ele>
        <time>2009-05-21T10:35:31Z</time>
      </trkpt>
      <trkpt lat="50.659470" lon="6.344367">
        <ele>336.600000</ele>
        <time>2009-05-21T10:35:34Z</time>
      </trkpt>
      <trkpt lat="50.659565" lon="6.344447">
        <ele>335.640000</ele>
        <time>2009-05-21T10:35:44Z</time>
      </trkpt>
      <trkpt lat="50.659624" lon="6.344544">
        <ele>335.160000</ele>
        <time>2009-05-21T10:35:52Z</time>
      </trkpt>
      <trkpt lat="50.659724" lon="6.344646">
        <ele>335.160000</ele>
        <time>2009-05-21T10:36:01Z</time>
      </trkpt>
      <trkpt lat="50.659731" lon="6.344724">
        <ele>335.640000</ele>
        <time>2009-05-21T10:36:05Z</time>
      </trkpt>
      <trkpt lat="50.659637" lon="6.344914">
        <ele>336.120000</ele>
        <time>2009-05-21T10:36:17Z</time>
      </trkpt>
      <trkpt lat="50.659590" lon="6.345158">
        <ele>337.080000</ele>
        <time>2009-05-21T10:36:29Z</time>
      </trkpt>
      <trkpt lat="50.659546" lon="6.345675">
        <ele>338.520000</ele>
        <time>2009-05-21T10:36:54Z</time>
      </trkpt>
      <trkpt lat="50.659691" lon="6.345982">
        <ele>338.520000</ele>
        <time>2009-05-21T10:37:14Z</time>
      </trkpt>
      <trkpt lat="50.659830" lon="6.346332">
        <ele>339.000000</ele>
        <time>2009-05-21T10:37:33Z</time>
      </trkpt>
      <trkpt lat="50.659927" lon="6.346777">
        <ele>338.520000</ele>
        <time>2009-05-21T10:37:51Z</time>
      </trkpt>
      <trkpt lat="50.659944" lon="6.346877">
        <ele>338.520000</ele>
        <time>2009-05-21T10:37:59Z</time>
      </trkpt>
      <trkpt lat="50.660047" lon="6.347339">
        <ele>339.000000</ele>
        <time>2009-05-21T10:38:22Z</time>
      </trkpt>
      <trkpt lat="50.660046" lon="6.347609">
        <ele>339.480000</ele>
        <time>2009-05-21T10:38:35Z</time>
      </trkpt>
      <trkpt lat="50.660050" lon="6.348105">
        <ele>340.920000</ele>
        <time>2009-05-21T10:38:58Z</time>
      </trkpt>
      <trkpt lat="50.660170" lon="6.348465">
        <ele>342.370000</ele>
        <time>2009-05-21T10:39:19Z</time>
      </trkpt>
      <trkpt lat="50.660164" lon="6.348903">
        <ele>343.810000</ele>
        <time>2009-05-21T10:39:40Z</time>
      </trkpt>
      <trkpt lat="50.660221" lon="6.349283">
        <ele>344.770000</ele>
        <time>2009-05-21T10:39:58Z</time>
      </trkpt>
      <trkpt lat="50.660346" lon="6.349613">
        <ele>346.210000</ele>
        <time>2009-05-21T10:40:15Z</time>
      </trkpt>
      <trkpt lat="50.660347" lon="6.350023">
        <ele>347.650000</ele>
        <time>2009-05-21T10:40:35Z</time>
      </trkpt>
      <trkpt lat="50.660480" lon="6.350433">
        <ele>348.620000</ele>
        <time>2009-05-21T10:40:56Z</time>
      </trkpt>
      <trkpt lat="50.660575" lon="6.350783">
        <ele>350.060000</ele>
        <time>2009-05-21T10:41:13Z</time>
      </trkpt>
      <trkpt lat="50.660673" lon="6.351117">
        <ele>351.500000</ele>
        <time>2009-05-21T10:41:31Z</time>
      </trkpt>
      <trkpt lat="50.660839" lon="6.351327">
        <ele>352.460000</ele>
        <time>2009-05-21T10:41:49Z</time>
      </trkpt>
      <trkpt lat="50.660897" lon="6.351411">
        <ele>352.940000</ele>
        <time>2009-05-21T10:41:54Z</time>
      </trkpt>
      <trkpt lat="50.660900" lon="6.351476">
        <ele>352.940000</ele>
        <time>2009-05-21T10:41:57Z</time>
      </trkpt>
      <trkpt lat="50.660921" lon="6.351570">
        <ele>353.420000</ele>
        <time>2009-05-21T10:42:02Z</time>
      </trkpt>
      <trkpt lat="50.660997" lon="6.351693">
        <ele>353.900000</ele>
        <time>2009-05-21T10:42:10Z</time>
      </trkpt>
      <trkpt lat="50.661021" lon="6.351707">
        <ele>353.900000</ele>
        <time>2009-05-21T10:42:12Z</time>
      </trkpt>
      <trkpt lat="50.661076" lon="6.351848">
        <ele>354.380000</ele>
        <time>2009-05-21T10:42:21Z</time>
      </trkpt>
      <trkpt lat="50.661264" lon="6.352081">
        <ele>355.830000</ele>
        <time>2009-05-21T10:42:38Z</time>
      </trkpt>
      <trkpt lat="50.661325" lon="6.352187">
        <ele>356.790000</ele>
        <time>2009-05-21T10:42:45Z</time>
      </trkpt>
      <trkpt lat="50.661307" lon="6.352271">
        <ele>357.750000</ele>
        <time>2009-05-21T10:42:49Z</time>
      </trkpt>
      <trkpt lat="50.661149" lon="6.352372">
        <ele>357.750000</ele>
        <time>2009-05-21T10:43:03Z</time>
      </trkpt>
      <trkpt lat="50.660940" lon="6.352641">
        <ele>358.710000</ele>
        <time>2009-05-21T10:43:24Z</time>
      </trkpt>
      <trkpt lat="50.660902" lon="6.352699">
        <ele>358.710000</ele>
        <time>2009-05-21T10:43:27Z</time>
      </trkpt>
      <trkpt lat="50.660735" lon="6.352865">
        <ele>359.670000</ele>
        <time>2009-05-21T10:43:40Z</time>
      </trkpt>
      <trkpt lat="50.660820" lon="6.353012">
        <ele>359.670000</ele>
        <time>2009-05-21T10:43:52Z</time>
      </trkpt>
      <trkpt lat="50.660861" lon="6.353072">
        <ele>360.150000</ele>
        <time>2009-05-21T10:43:56Z</time>
      </trkpt>
      <trkpt lat="50.661162" lon="6.353155">
        <ele>361.110000</ele>
        <time>2009-05-21T10:44:21Z</time>
      </trkpt>
      <trkpt lat="50.661530" lon="6.353297">
        <ele>362.550000</ele>
        <time>2009-05-21T10:44:47Z</time>
      </trkpt>
      <trkpt lat="50.661679" lon="6.353264">
        <ele>363.520000</ele>
        <time>2009-05-21T10:44:57Z</time>
      </trkpt>
      <trkpt lat="50.661881" lon="6.353343">
        <ele>365.440000</ele>
        <time>2009-05-21T10:45:12Z</time>
      </trkpt>
      <trkpt lat="50.661980" lon="6.353393">
        <ele>366.400000</ele>
        <time>2009-05-21T10:45:22Z</time>
      </trkpt>
      <trkpt lat="50.662298" lon="6.353394">
        <ele>368.800000</ele>
        <time>2009-05-21T10:45:44Z</time>
      </trkpt>
      <trkpt lat="50.662444" lon="6.353430">
        <ele>369.760000</ele>
        <time>2009-05-21T10:45:57Z</time>
      </trkpt>
      <trkpt lat="50.662476" lon="6.353393">
        <ele>370.240000</ele>
        <time>2009-05-21T10:46:02Z</time>
      </trkpt>
      <trkpt lat="50.662755" lon="6.353479">
        <ele>372.650000</ele>
        <time>2009-05-21T10:46:23Z</time>
      </trkpt>
      <trkpt lat="50.662919" lon="6.353485">
        <ele>374.090000</ele>
        <time>2009-05-21T10:46:36Z</time>
      </trkpt>
      <trkpt lat="50.663066" lon="6.353391">
        <ele>375.050000</ele>
        <time>2009-05-21T10:46:49Z</time>
      </trkpt>
      <trkpt lat="50.663247" lon="6.353184">
        <ele>376.490000</ele>
        <time>2009-05-21T10:47:06Z</time>
      </trkpt>
      <trkpt lat="50.663403" lon="6.353107">
        <ele>377.940000</ele>
        <time>2009-05-21T10:47:18Z</time>
      </trkpt>
      <trkpt lat="50.663561" lon="6.352983">
        <ele>378.900000</ele>
        <time>2009-05-21T10:47:33Z</time>
      </trkpt>
      <trkpt lat="50.663734" lon="6.352916">
        <ele>380.340000</ele>
        <time>2009-05-21T10:47:48Z</time>
      </trkpt>
      <trkpt lat="50.663851" lon="6.352875">
        <ele>381.300000</ele>
        <time>2009-05-21T10:47:58Z</time>
      </trkpt>
      <trkpt lat="50.663902" lon="6.352873">
        <ele>381.780000</ele>
        <time>2009-05-21T10:48:09Z</time>
      </trkpt>
      <trkpt lat="50.664029" lon="6.353061">
        <ele>382.260000</ele>
        <time>2009-05-21T10:48:20Z</time>
      </trkpt>
      <trkpt lat="50.664033" lon="6.353139">
        <ele>382.260000</ele>
        <time>2009-05-21T10:48:24Z</time>
      </trkpt>
      <trkpt lat="50.664004" lon="6.353315">
        <ele>383.220000</ele>
        <time>2009-05-21T10:48:38Z</time>
      </trkpt>
      <trkpt lat="50.664014" lon="6.353265">
        <ele>383.220000</ele>
        <time>2009-05-21T10:48:45Z</time>
      </trkpt>
      <trkpt lat="50.664086" lon="6.353587">
        <ele>383.700000</ele>
        <time>2009-05-21T10:49:12Z</time>
      </trkpt>
      <trkpt lat="50.664090" lon="6.353702">
        <ele>384.180000</ele>
        <time>2009-05-21T10:49:18Z</time>
      </trkpt>
      <trkpt lat="50.664013" lon="6.354195">
        <ele>386.590000</ele>
        <time>2009-05-21T10:49:41Z</time>
      </trkpt>
      <trkpt lat="50.663966" lon="6.354611">
        <ele>388.510000</ele>
        <time>2009-05-21T10:50:06Z</time>
      </trkpt>
      <trkpt lat="50.663919" lon="6.355076">
        <ele>390.430000</ele>
        <time>2009-05-21T10:50:26Z</time>
      </trkpt>
      <trkpt lat="50.663929" lon="6.355512">
        <ele>393.320000</ele>
        <time>2009-05-21T10:50:49Z</time>
      </trkpt>
      <trkpt lat="50.663897" lon="6.355666">
        <ele>393.800000</ele>
        <time>2009-05-21T10:50:56Z</time>
      </trkpt>
      <trkpt lat="50.663893" lon="6.355982">
        <ele>394.760000</ele>
        <time>2009-05-21T10:51:17Z</time>
      </trkpt>
      <trkpt lat="50.663831" lon="6.356326">
        <ele>395.720000</ele>
        <time>2009-05-21T10:51:32Z</time>
      </trkpt>
      <trkpt lat="50.663836" lon="6.356455">
        <ele>396.200000</ele>
        <time>2009-05-21T10:51:36Z</time>
      </trkpt>
      <trkpt lat="50.663829" lon="6.356490">
        <ele>396.200000</ele>
        <time>2009-05-21T10:51:38Z</time>
      </trkpt>
      <trkpt lat="50.663775" lon="6.356691">
        <ele>397.640000</ele>
        <time>2009-05-21T10:51:52Z</time>
      </trkpt>
      <trkpt lat="50.663662" lon="6.356961">
        <ele>398.600000</ele>
        <time>2009-05-21T10:52:03Z</time>
      </trkpt>
      <trkpt lat="50.663561" lon="6.357122">
        <ele>399.570000</ele>
        <time>2009-05-21T10:52:16Z</time>
      </trkpt>
      <trkpt lat="50.663545" lon="6.357218">
        <ele>400.050000</ele>
        <time>2009-05-21T10:52:20Z</time>
      </trkpt>
      <trkpt lat="50.663503" lon="6.357388">
        <ele>399.570000</ele>
        <time>2009-05-21T10:52:30Z</time>
      </trkpt>
      <trkpt lat="50.663484" lon="6.357600">
        <ele>399.570000</ele>
        <time>2009-05-21T10:52:41Z</time>
      </trkpt>
      <trkpt lat="50.663482" lon="6.357769">
        <ele>399.570000</ele>
        <time>2009-05-21T10:52:50Z</time>
      </trkpt>
      <trkpt lat="50.663473" lon="6.357911">
        <ele>399.080000</ele>
        <time>2009-05-21T10:52:58Z</time>
      </trkpt>
      <trkpt lat="50.663375" lon="6.358166">
        <ele>398.600000</ele>
        <time>2009-05-21T10:53:12Z</time>
      </trkpt>
      <trkpt lat="50.663233" lon="6.358258">
        <ele>397.640000</ele>
        <time>2009-05-21T10:53:25Z</time>
      </trkpt>
      <trkpt lat="50.663013" lon="6.358550">
        <ele>395.240000</ele>
        <time>2009-05-21T10:53:46Z</time>
      </trkpt>
      <trkpt lat="50.662808" lon="6.358716">
        <ele>393.800000</ele>
        <time>2009-05-21T10:54:07Z</time>
      </trkpt>
      <trkpt lat="50.662557" lon="6.358868">
        <ele>391.870000</ele>
        <time>2009-05-21T10:54:29Z</time>
      </trkpt>
      <trkpt lat="50.662377" lon="6.359056">
        <ele>390.430000</ele>
        <time>2009-05-21T10:54:49Z</time>
      </trkpt>
      <trkpt lat="50.662131" lon="6.359385">
        <ele>389.470000</ele>
        <time>2009-05-21T10:55:08Z</time>
      </trkpt>
      <trkpt lat="50.662013" lon="6.359631">
        <ele>388.030000</ele>
        <time>2009-05-21T10:55:22Z</time>
      </trkpt>
      <trkpt lat="50.661889" lon="6.359957">
        <ele>387.070000</ele>
        <time>2009-05-21T10:55:39Z</time>
      </trkpt>
      <trkpt lat="50.661869" lon="6.360088">
        <ele>387.070000</ele>
        <time>2009-05-21T10:55:49Z</time>
      </trkpt>
      <trkpt lat="50.661951" lon="6.360346">
        <ele>387.550000</ele>
        <time>2009-05-21T10:56:08Z</time>
      </trkpt>
      <trkpt lat="50.662252" lon="6.360394">
        <ele>386.110000</ele>
        <time>2009-05-21T10:56:31Z</time>
      </trkpt>
      <trkpt lat="50.662540" lon="6.360403">
        <ele>386.110000</ele>
        <time>2009-05-21T10:56:54Z</time>
      </trkpt>
      <trkpt lat="50.662853" lon="6.360431">
        <ele>385.630000</ele>
        <time>2009-05-21T10:57:17Z</time>
      </trkpt>
      <trkpt lat="50.663105" lon="6.360467">
        <ele>386.110000</ele>
        <time>2009-05-21T10:57:37Z</time>
      </trkpt>
      <trkpt lat="50.663353" lon="6.360509">
        <ele>386.590000</ele>
        <time>2009-05-21T10:57:57Z</time>
      </trkpt>
      <trkpt lat="50.663593" lon="6.360362">
        <ele>386.590000</ele>
        <time>2009-05-21T10:58:19Z</time>
      </trkpt>
      <trkpt lat="50.663859" lon="6.360261">
        <ele>386.590000</ele>
        <time>2009-05-21T10:58:39Z</time>
      </trkpt>
      <trkpt lat="50.664160" lon="6.360232">
        <ele>386.590000</ele>
        <time>2009-05-21T10:59:01Z</time>
      </trkpt>
      <trkpt lat="50.664505" lon="6.360173">
        <ele>387.070000</ele>
        <time>2009-05-21T10:59:24Z</time>
      </trkpt>
      <trkpt lat="50.664688" lon="6.360274">
        <ele>387.550000</ele>
        <time>2009-05-21T10:59:33Z</time>
      </trkpt>
      <trkpt lat="50.664701" lon="6.360362">
        <ele>387.550000</ele>
        <time>2009-05-21T10:59:36Z</time>
      </trkpt>
      <trkpt lat="50.664706" lon="6.360451">
        <ele>387.550000</ele>
        <time>2009-05-21T10:59:40Z</time>
      </trkpt>
      <trkpt lat="50.664728" lon="6.360616">
        <ele>387.550000</ele>
        <time>2009-05-21T10:59:46Z</time>
      </trkpt>
      <trkpt lat="50.664756" lon="6.360684">
        <ele>387.550000</ele>
        <time>2009-05-21T10:59:50Z</time>
      </trkpt>
      <trkpt lat="50.664853" lon="6.360897">
        <ele>387.550000</ele>
        <time>2009-05-21T11:00:05Z</time>
      </trkpt>
      <trkpt lat="50.664852" lon="6.360956">
        <ele>388.030000</ele>
        <time>2009-05-21T11:00:08Z</time>
      </trkpt>
      <trkpt lat="50.664897" lon="6.361034">
        <ele>387.550000</ele>
        <time>2009-05-21T11:00:14Z</time>
      </trkpt>
      <trkpt lat="50.664969" lon="6.361201">
        <ele>388.030000</ele>
        <time>2009-05-21T11:00:24Z</time>
      </trkpt>
      <trkpt lat="50.665051" lon="6.361281">
        <ele>388.030000</ele>
        <time>2009-05-21T11:00:32Z</time>
      </trkpt>
      <trkpt lat="50.665127" lon="6.361377">
        <ele>388.030000</ele>
        <time>2009-05-21T11:00:38Z</time>
      </trkpt>
      <trkpt lat="50.665339" lon="6.361448">
        <ele>388.510000</ele>
        <time>2009-05-21T11:00:54Z</time>
      </trkpt>
      <trkpt lat="50.665437" lon="6.361499">
        <ele>388.510000</ele>
        <time>2009-05-21T11:01:13Z</time>
      </trkpt>
      <trkpt lat="50.665675" lon="6.361435">
        <ele>388.990000</ele>
        <time>2009-05-21T11:01:35Z</time>
      </trkpt>
      <trkpt lat="50.665979" lon="6.361411">
        <ele>388.510000</ele>
        <time>2009-05-21T11:01:55Z</time>
      </trkpt>
      <trkpt lat="50.666165" lon="6.361403">
        <ele>388.510000</ele>
        <time>2009-05-21T11:02:07Z</time>
      </trkpt>
      <trkpt lat="50.666292" lon="6.361336">
        <ele>388.510000</ele>
        <time>2009-05-21T11:02:22Z</time>
      </trkpt>
      <trkpt lat="50.666312" lon="6.361320">
        <ele>388.510000</ele>
        <time>2009-05-21T11:02:24Z</time>
      </trkpt>
      <trkpt lat="50.666405" lon="6.361351">
        <ele>388.510000</ele>
        <time>2009-05-21T11:02:41Z</time>
      </trkpt>
      <trkpt lat="50.666408" lon="6.361490">
        <ele>388.030000</ele>
        <time>2009-05-21T11:03:10Z</time>
      </trkpt>
      <trkpt lat="50.666419" lon="6.361489">
        <ele>388.510000</ele>
        <time>2009-05-21T11:03:36Z</time>
      </trkpt>
      <trkpt lat="50.666376" lon="6.361476">
        <ele>388.510000</ele>
        <time>2009-05-21T11:03:42Z</time>
      </trkpt>
      <trkpt lat="50.666428" lon="6.361362">
        <ele>388.510000</ele>
        <time>2009-05-21T11:03:59Z</time>
      </trkpt>
      <trkpt lat="50.666461" lon="6.361321">
        <ele>388.510000</ele>
        <time>2009-05-21T11:04:18Z</time>
      </trkpt>
      <trkpt lat="50.666467" lon="6.361313">
        <ele>388.510000</ele>
        <time>2009-05-21T11:04:46Z</time>
      </trkpt>
      <trkpt lat="50.666486" lon="6.361371">
        <ele>388.510000</ele>
        <time>2009-05-21T11:05:00Z</time>
      </trkpt>
      <trkpt lat="50.666442" lon="6.361460">
        <ele>388.510000</ele>
        <time>2009-05-21T11:05:19Z</time>
      </trkpt>
      <trkpt lat="50.666433" lon="6.361658">
        <ele>391.390000</ele>
        <time>2009-05-21T11:05:39Z</time>
      </trkpt>
      <trkpt lat="50.666361" lon="6.361898">
        <ele>394.280000</ele>
        <time>2009-05-21T11:06:02Z</time>
      </trkpt>
      <trkpt lat="50.666315" lon="6.362087">
        <ele>396.200000</ele>
        <time>2009-05-21T11:06:16Z</time>
      </trkpt>
      <trkpt lat="50.666248" lon="6.362179">
        <ele>396.680000</ele>
        <time>2009-05-21T11:06:22Z</time>
      </trkpt>
      <trkpt lat="50.666130" lon="6.362425">
        <ele>398.600000</ele>
        <time>2009-05-21T11:06:38Z</time>
      </trkpt>
      <trkpt lat="50.666012" lon="6.362779">
        <ele>400.530000</ele>
        <time>2009-05-21T11:07:00Z</time>
      </trkpt>
      <trkpt lat="50.665839" lon="6.363092">
        <ele>402.450000</ele>
        <time>2009-05-21T11:07:19Z</time>
      </trkpt>
      <trkpt lat="50.665720" lon="6.363209">
        <ele>404.370000</ele>
        <time>2009-05-21T11:07:39Z</time>
      </trkpt>
      <trkpt lat="50.665469" lon="6.363332">
        <ele>407.260000</ele>
        <time>2009-05-21T11:07:59Z</time>
      </trkpt>
      <trkpt lat="50.665260" lon="6.363624">
        <ele>410.620000</ele>
        <time>2009-05-21T11:08:18Z</time>
      </trkpt>
      <trkpt lat="50.665138" lon="6.363879">
        <ele>413.500000</ele>
        <time>2009-05-21T11:08:38Z</time>
      </trkpt>
      <trkpt lat="50.664974" lon="6.364013">
        <ele>416.390000</ele>
        <time>2009-05-21T11:08:57Z</time>
      </trkpt>
      <trkpt lat="50.664867" lon="6.364172">
        <ele>419.270000</ele>
        <time>2009-05-21T11:09:17Z</time>
      </trkpt>
      <trkpt lat="50.664706" lon="6.364194">
        <ele>422.640000</ele>
        <time>2009-05-21T11:09:35Z</time>
      </trkpt>
      <trkpt lat="50.664605" lon="6.364063">
        <ele>424.560000</ele>
        <time>2009-05-21T11:09:50Z</time>
      </trkpt>
      <trkpt lat="50.664508" lon="6.363850">
        <ele>427.440000</ele>
        <time>2009-05-21T11:10:05Z</time>
      </trkpt>
      <trkpt lat="50.664437" lon="6.363754">
        <ele>428.400000</ele>
        <time>2009-05-21T11:10:13Z</time>
      </trkpt>
      <trkpt lat="50.664313" lon="6.363613">
        <ele>429.850000</ele>
        <time>2009-05-21T11:10:26Z</time>
      </trkpt>
      <trkpt lat="50.664210" lon="6.363498">
        <ele>431.770000</ele>
        <time>2009-05-21T11:10:39Z</time>
      </trkpt>
      <trkpt lat="50.664042" lon="6.363613">
        <ele>434.650000</ele>
        <time>2009-05-21T11:10:56Z</time>
      </trkpt>
      <trkpt lat="50.664035" lon="6.363666">
        <ele>434.650000</ele>
        <time>2009-05-21T11:10:58Z</time>
      </trkpt>
      <trkpt lat="50.663914" lon="6.364041">
        <ele>437.540000</ele>
        <time>2009-05-21T11:11:18Z</time>
      </trkpt>
      <trkpt lat="50.663847" lon="6.364237">
        <ele>440.420000</ele>
        <time>2009-05-21T11:11:35Z</time>
      </trkpt>
      <trkpt lat="50.663720" lon="6.364364">
        <ele>443.790000</ele>
        <time>2009-05-21T11:11:53Z</time>
      </trkpt>
      <trkpt lat="50.663552" lon="6.364286">
        <ele>447.150000</ele>
        <time>2009-05-21T11:12:11Z</time>
      </trkpt>
      <trkpt lat="50.663430" lon="6.364229">
        <ele>448.590000</ele>
        <time>2009-05-21T11:12:20Z</time>
      </trkpt>
      <trkpt lat="50.663282" lon="6.364210">
        <ele>451.960000</ele>
        <time>2009-05-21T11:12:37Z</time>
      </trkpt>
      <trkpt lat="50.663191" lon="6.364343">
        <ele>453.880000</ele>
        <time>2009-05-21T11:12:57Z</time>
      </trkpt>
      <trkpt lat="50.663233" lon="6.364316">
        <ele>453.880000</ele>
        <time>2009-05-21T11:13:52Z</time>
      </trkpt>
      <trkpt lat="50.663264" lon="6.364407">
        <ele>453.880000</ele>
        <time>2009-05-21T11:13:56Z</time>
      </trkpt>
      <trkpt lat="50.663117" lon="6.364584">
        <ele>455.320000</ele>
        <time>2009-05-21T11:14:17Z</time>
      </trkpt>
      <trkpt lat="50.663068" lon="6.364427">
        <ele>456.280000</ele>
        <time>2009-05-21T11:14:38Z</time>
      </trkpt>
      <trkpt lat="50.662934" lon="6.364300">
        <ele>457.720000</ele>
        <time>2009-05-21T11:14:53Z</time>
      </trkpt>
      <trkpt lat="50.662731" lon="6.364188">
        <ele>458.690000</ele>
        <time>2009-05-21T11:15:09Z</time>
      </trkpt>
      <trkpt lat="50.662622" lon="6.364194">
        <ele>459.650000</ele>
        <time>2009-05-21T11:15:19Z</time>
      </trkpt>
      <trkpt lat="50.662567" lon="6.363984">
        <ele>461.090000</ele>
        <time>2009-05-21T11:15:32Z</time>
      </trkpt>
      <trkpt lat="50.662325" lon="6.363740">
        <ele>463.970000</ele>
        <time>2009-05-21T11:15:56Z</time>
      </trkpt>
      <trkpt lat="50.662115" lon="6.363556">
        <ele>466.380000</ele>
        <time>2009-05-21T11:16:17Z</time>
      </trkpt>
      <trkpt lat="50.661935" lon="6.363433">
        <ele>467.820000</ele>
        <time>2009-05-21T11:16:33Z</time>
      </trkpt>
      <trkpt lat="50.661793" lon="6.363440">
        <ele>468.780000</ele>
        <time>2009-05-21T11:16:44Z</time>
      </trkpt>
      <trkpt lat="50.661710" lon="6.363379">
        <ele>469.740000</ele>
        <time>2009-05-21T11:16:55Z</time>
      </trkpt>
      <trkpt lat="50.661589" lon="6.363287">
        <ele>471.180000</ele>
        <time>2009-05-21T11:17:09Z</time>
      </trkpt>
      <trkpt lat="50.661469" lon="6.363238">
        <ele>472.140000</ele>
        <time>2009-05-21T11:17:19Z</time>
      </trkpt>
      <trkpt lat="50.661450" lon="6.363219">
        <ele>472.140000</ele>
        <time>2009-05-21T11:17:21Z</time>
      </trkpt>
      <trkpt lat="50.661341" lon="6.363247">
        <ele>473.590000</ele>
        <time>2009-05-21T11:17:35Z</time>
      </trkpt>
      <trkpt lat="50.661107" lon="6.363437">
        <ele>475.510000</ele>
        <time>2009-05-21T11:17:54Z</time>
      </trkpt>
      <trkpt lat="50.660939" lon="6.363625">
        <ele>476.470000</ele>
        <time>2009-05-21T11:18:12Z</time>
      </trkpt>
      <trkpt lat="50.660747" lon="6.363772">
        <ele>478.870000</ele>
        <time>2009-05-21T11:18:31Z</time>
      </trkpt>
      <trkpt lat="50.660644" lon="6.363922">
        <ele>480.800000</ele>
        <time>2009-05-21T11:18:46Z</time>
      </trkpt>
      <trkpt lat="50.660517" lon="6.364257">
        <ele>481.760000</ele>
        <time>2009-05-21T11:19:09Z</time>
      </trkpt>
      <trkpt lat="50.660383" lon="6.364633">
        <ele>482.240000</ele>
        <time>2009-05-21T11:19:32Z</time>
      </trkpt>
      <trkpt lat="50.660248" lon="6.364921">
        <ele>483.680000</ele>
        <time>2009-05-21T11:19:52Z</time>
      </trkpt>
      <trkpt lat="50.660050" lon="6.365199">
        <ele>485.120000</ele>
        <time>2009-05-21T11:20:11Z</time>
      </trkpt>
      <trkpt lat="50.659911" lon="6.365536">
        <ele>487.530000</ele>
        <time>2009-05-21T11:20:33Z</time>
      </trkpt>
      <trkpt lat="50.659777" lon="6.365851">
        <ele>489.930000</ele>
        <time>2009-05-21T11:20:51Z</time>
      </trkpt>
      <trkpt lat="50.659613" lon="6.366121">
        <ele>490.890000</ele>
        <time>2009-05-21T11:21:06Z</time>
      </trkpt>
      <trkpt lat="50.659537" lon="6.366353">
        <ele>491.370000</ele>
        <time>2009-05-21T11:21:18Z</time>
      </trkpt>
      <trkpt lat="50.659495" lon="6.366434">
        <ele>491.850000</ele>
        <time>2009-05-21T11:21:23Z</time>
      </trkpt>
      <trkpt lat="50.659321" lon="6.366649">
        <ele>492.810000</ele>
        <time>2009-05-21T11:21:37Z</time>
      </trkpt>
      <trkpt lat="50.659287" lon="6.366794">
        <ele>493.290000</ele>
        <time>2009-05-21T11:21:42Z</time>
      </trkpt>
      <trkpt lat="50.659270" lon="6.366875">
        <ele>493.290000</ele>
        <time>2009-05-21T11:21:46Z</time>
      </trkpt>
      <trkpt lat="50.659266" lon="6.366976">
        <ele>493.770000</ele>
        <time>2009-05-21T11:21:50Z</time>
      </trkpt>
      <trkpt lat="50.659280" lon="6.367107">
        <ele>494.260000</ele>
        <time>2009-05-21T11:21:55Z</time>
      </trkpt>
      <trkpt lat="50.659349" lon="6.367346">
        <ele>495.700000</ele>
        <time>2009-05-21T11:22:10Z</time>
      </trkpt>
      <trkpt lat="50.659454" lon="6.367507">
        <ele>496.180000</ele>
        <time>2009-05-21T11:22:21Z</time>
      </trkpt>
      <trkpt lat="50.659467" lon="6.367534">
        <ele>496.660000</ele>
        <time>2009-05-21T11:22:23Z</time>
      </trkpt>
      <trkpt lat="50.659466" lon="6.367632">
        <ele>496.660000</ele>
        <time>2009-05-21T11:22:28Z</time>
      </trkpt>
      <trkpt lat="50.659504" lon="6.367682">
        <ele>497.140000</ele>
        <time>2009-05-21T11:22:33Z</time>
      </trkpt>
      <trkpt lat="50.659462" lon="6.367896">
        <ele>497.140000</ele>
        <time>2009-05-21T11:22:46Z</time>
      </trkpt>
      <trkpt lat="50.659233" lon="6.368086">
        <ele>498.100000</ele>
        <time>2009-05-21T11:23:08Z</time>
      </trkpt>
      <trkpt lat="50.659029" lon="6.368295">
        <ele>499.060000</ele>
        <time>2009-05-21T11:23:28Z</time>
      </trkpt>
      <trkpt lat="50.658720" lon="6.368613">
        <ele>500.020000</ele>
        <time>2009-05-21T11:23:50Z</time>
      </trkpt>
      <trkpt lat="50.658575" lon="6.368798">
        <ele>500.980000</ele>
        <time>2009-05-21T11:24:07Z</time>
      </trkpt>
      <trkpt lat="50.658557" lon="6.368972">
        <ele>500.980000</ele>
        <time>2009-05-21T11:24:18Z</time>
      </trkpt>
      <trkpt lat="50.658668" lon="6.369405">
        <ele>499.060000</ele>
        <time>2009-05-21T11:24:38Z</time>
      </trkpt>
      <trkpt lat="50.658722" lon="6.369510">
        <ele>498.580000</ele>
        <time>2009-05-21T11:24:44Z</time>
      </trkpt>
      <trkpt lat="50.658798" lon="6.369739">
        <ele>498.100000</ele>
        <time>2009-05-21T11:24:55Z</time>
      </trkpt>
      <trkpt lat="50.658799" lon="6.369858">
        <ele>497.140000</ele>
        <time>2009-05-21T11:25:01Z</time>
      </trkpt>
      <trkpt lat="50.658819" lon="6.369963">
        <ele>496.660000</ele>
        <time>2009-05-21T11:25:06Z</time>
      </trkpt>
      <trkpt lat="50.658851" lon="6.370061">
        <ele>496.180000</ele>
        <time>2009-05-21T11:25:11Z</time>
      </trkpt>
      <trkpt lat="50.658909" lon="6.370127">
        <ele>495.700000</ele>
        <time>2009-05-21T11:25:16Z</time>
      </trkpt>
      <trkpt lat="50.658920" lon="6.370128">
        <ele>495.220000</ele>
        <time>2009-05-21T11:25:18Z</time>
      </trkpt>
      <trkpt lat="50.658961" lon="6.370266">
        <ele>494.740000</ele>
        <time>2009-05-21T11:25:25Z</time>
      </trkpt>
      <trkpt lat="50.659119" lon="6.370443">
        <ele>493.770000</ele>
        <time>2009-05-21T11:25:39Z</time>
      </trkpt>
      <trkpt lat="50.659148" lon="6.370527">
        <ele>492.810000</ele>
        <time>2009-05-21T11:25:43Z</time>
      </trkpt>
      <trkpt lat="50.659168" lon="6.370610">
        <ele>492.330000</ele>
        <time>2009-05-21T11:25:47Z</time>
      </trkpt>
      <trkpt lat="50.659185" lon="6.370670">
        <ele>492.330000</ele>
        <time>2009-05-21T11:25:50Z</time>
      </trkpt>
      <trkpt lat="50.659287" lon="6.370806">
        <ele>490.890000</ele>
        <time>2009-05-21T11:25:59Z</time>
      </trkpt>
      <trkpt lat="50.659350" lon="6.370872">
        <ele>489.930000</ele>
        <time>2009-05-21T11:26:04Z</time>
      </trkpt>
      <trkpt lat="50.659419" lon="6.371016">
        <ele>488.970000</ele>
        <time>2009-05-21T11:26:13Z</time>
      </trkpt>
      <trkpt lat="50.659433" lon="6.371105">
        <ele>488.010000</ele>
        <time>2009-05-21T11:26:19Z</time>
      </trkpt>
      <trkpt lat="50.659488" lon="6.371186">
        <ele>487.530000</ele>
        <time>2009-05-21T11:26:25Z</time>
      </trkpt>
      <trkpt lat="50.659507" lon="6.371285">
        <ele>486.560000</ele>
        <time>2009-05-21T11:26:31Z</time>
      </trkpt>
      <trkpt lat="50.659519" lon="6.371457">
        <ele>485.120000</ele>
        <time>2009-05-21T11:26:39Z</time>
      </trkpt>
      <trkpt lat="50.659531" lon="6.371488">
        <ele>484.640000</ele>
        <time>2009-05-21T11:26:41Z</time>
      </trkpt>
      <trkpt lat="50.659555" lon="6.371558">
        <ele>483.680000</ele>
        <time>2009-05-21T11:26:45Z</time>
      </trkpt>
      <trkpt lat="50.659651" lon="6.371724">
        <ele>481.760000</ele>
        <time>2009-05-21T11:26:56Z</time>
      </trkpt>
      <trkpt lat="50.659748" lon="6.371792">
        <ele>480.800000</ele>
        <time>2009-05-21T11:27:03Z</time>
      </trkpt>
      <trkpt lat="50.659808" lon="6.372036">
        <ele>479.350000</ele>
        <time>2009-05-21T11:27:15Z</time>
      </trkpt>
      <trkpt lat="50.659868" lon="6.372113">
        <ele>478.390000</ele>
        <time>2009-05-21T11:27:21Z</time>
      </trkpt>
      <trkpt lat="50.659894" lon="6.372189">
        <ele>477.910000</ele>
        <time>2009-05-21T11:27:25Z</time>
      </trkpt>
      <trkpt lat="50.659931" lon="6.372457">
        <ele>475.990000</ele>
        <time>2009-05-21T11:27:39Z</time>
      </trkpt>
      <trkpt lat="50.659940" lon="6.372670">
        <ele>475.030000</ele>
        <time>2009-05-21T11:27:48Z</time>
      </trkpt>
      <trkpt lat="50.659847" lon="6.372930">
        <ele>473.590000</ele>
        <time>2009-05-21T11:28:02Z</time>
      </trkpt>
      <trkpt lat="50.659782" lon="6.373115">
        <ele>471.660000</ele>
        <time>2009-05-21T11:28:16Z</time>
      </trkpt>
      <trkpt lat="50.659566" lon="6.373368">
        <ele>469.260000</ele>
        <time>2009-05-21T11:28:40Z</time>
      </trkpt>
      <trkpt lat="50.659321" lon="6.373450">
        <ele>467.820000</ele>
        <time>2009-05-21T11:29:02Z</time>
      </trkpt>
      <trkpt lat="50.659121" lon="6.373610">
        <ele>467.820000</ele>
        <time>2009-05-21T11:29:21Z</time>
      </trkpt>
      <trkpt lat="50.659102" lon="6.373859">
        <ele>468.300000</ele>
        <time>2009-05-21T11:29:36Z</time>
      </trkpt>
      <trkpt lat="50.659236" lon="6.374318">
        <ele>469.740000</ele>
        <time>2009-05-21T11:29:57Z</time>
      </trkpt>
      <trkpt lat="50.659313" lon="6.374716">
        <ele>471.180000</ele>
        <time>2009-05-21T11:30:14Z</time>
      </trkpt>
      <trkpt lat="50.659362" lon="6.374904">
        <ele>471.660000</ele>
        <time>2009-05-21T11:30:24Z</time>
      </trkpt>
      <trkpt lat="50.659398" lon="6.374983">
        <ele>472.140000</ele>
        <time>2009-05-21T11:30:29Z</time>
      </trkpt>
      <trkpt lat="50.659464" lon="6.375245">
        <ele>473.110000</ele>
        <time>2009-05-21T11:30:43Z</time>
      </trkpt>
      <trkpt lat="50.659486" lon="6.375328">
        <ele>473.110000</ele>
        <time>2009-05-21T11:30:48Z</time>
      </trkpt>
      <trkpt lat="50.659518" lon="6.375430">
        <ele>473.590000</ele>
        <time>2009-05-21T11:30:54Z</time>
      </trkpt>
      <trkpt lat="50.659542" lon="6.375569">
        <ele>474.070000</ele>
        <time>2009-05-21T11:31:01Z</time>
      </trkpt>
      <trkpt lat="50.659743" lon="6.375861">
        <ele>475.990000</ele>
        <time>2009-05-21T11:31:23Z</time>
      </trkpt>
      <trkpt lat="50.659801" lon="6.376160">
        <ele>477.910000</ele>
        <time>2009-05-21T11:31:41Z</time>
      </trkpt>
      <trkpt lat="50.659854" lon="6.376504">
        <ele>479.840000</ele>
        <time>2009-05-21T11:31:59Z</time>
      </trkpt>
      <trkpt lat="50.659789" lon="6.377050">
        <ele>482.240000</ele>
        <time>2009-05-21T11:32:22Z</time>
      </trkpt>
      <trkpt lat="50.659624" lon="6.377414">
        <ele>481.760000</ele>
        <time>2009-05-21T11:32:43Z</time>
      </trkpt>
      <trkpt lat="50.659533" lon="6.377621">
        <ele>481.760000</ele>
        <time>2009-05-21T11:32:53Z</time>
      </trkpt>
      <trkpt lat="50.659406" lon="6.377770">
        <ele>481.760000</ele>
        <time>2009-05-21T11:33:07Z</time>
      </trkpt>
      <trkpt lat="50.659300" lon="6.377967">
        <ele>481.760000</ele>
        <time>2009-05-21T11:33:23Z</time>
      </trkpt>
      <trkpt lat="50.659281" lon="6.378000">
        <ele>481.280000</ele>
        <time>2009-05-21T11:33:25Z</time>
      </trkpt>
      <trkpt lat="50.659248" lon="6.378183">
        <ele>481.280000</ele>
        <time>2009-05-21T11:33:44Z</time>
      </trkpt>
      <trkpt lat="50.659127" lon="6.378227">
        <ele>482.720000</ele>
        <time>2009-05-21T11:37:39Z</time>
      </trkpt>
      <trkpt lat="50.659012" lon="6.378641">
        <ele>483.200000</ele>
        <time>2009-05-21T11:38:01Z</time>
      </trkpt>
      <trkpt lat="50.658865" lon="6.378960">
        <ele>483.200000</ele>
        <time>2009-05-21T11:38:17Z</time>
      </trkpt>
      <trkpt lat="50.658742" lon="6.379210">
        <ele>482.720000</ele>
        <time>2009-05-21T11:38:30Z</time>
      </trkpt>
      <trkpt lat="50.658663" lon="6.379409">
        <ele>482.720000</ele>
        <time>2009-05-21T11:38:43Z</time>
      </trkpt>
      <trkpt lat="50.658576" lon="6.379576">
        <ele>482.240000</ele>
        <time>2009-05-21T11:38:55Z</time>
      </trkpt>
      <trkpt lat="50.658465" lon="6.379784">
        <ele>482.240000</ele>
        <time>2009-05-21T11:39:08Z</time>
      </trkpt>
      <trkpt lat="50.658369" lon="6.380060">
        <ele>481.760000</ele>
        <time>2009-05-21T11:39:22Z</time>
      </trkpt>
      <trkpt lat="50.658250" lon="6.380314">
        <ele>481.280000</ele>
        <time>2009-05-21T11:39:36Z</time>
      </trkpt>
      <trkpt lat="50.658234" lon="6.380348">
        <ele>481.280000</ele>
        <time>2009-05-21T11:39:38Z</time>
      </trkpt>
      <trkpt lat="50.658188" lon="6.380479">
        <ele>481.280000</ele>
        <time>2009-05-21T11:39:44Z</time>
      </trkpt>
      <trkpt lat="50.658137" lon="6.380628">
        <ele>480.800000</ele>
        <time>2009-05-21T11:39:52Z</time>
      </trkpt>
      <trkpt lat="50.658128" lon="6.380780">
        <ele>480.320000</ele>
        <time>2009-05-21T11:40:00Z</time>
      </trkpt>
      <trkpt lat="50.658109" lon="6.380896">
        <ele>480.320000</ele>
        <time>2009-05-21T11:40:06Z</time>
      </trkpt>
      <trkpt lat="50.658042" lon="6.381244">
        <ele>479.840000</ele>
        <time>2009-05-21T11:40:21Z</time>
      </trkpt>
      <trkpt lat="50.658008" lon="6.381433">
        <ele>479.350000</ele>
        <time>2009-05-21T11:40:31Z</time>
      </trkpt>
      <trkpt lat="50.657942" lon="6.381688">
        <ele>479.350000</ele>
        <time>2009-05-21T11:40:45Z</time>
      </trkpt>
      <trkpt lat="50.657934" lon="6.381811">
        <ele>479.350000</ele>
        <time>2009-05-21T11:40:51Z</time>
      </trkpt>
      <trkpt lat="50.657909" lon="6.381899">
        <ele>479.350000</ele>
        <time>2009-05-21T11:40:57Z</time>
      </trkpt>
      <trkpt lat="50.657859" lon="6.382254">
        <ele>478.390000</ele>
        <time>2009-05-21T11:41:13Z</time>
      </trkpt>
      <trkpt lat="50.657780" lon="6.382525">
        <ele>477.910000</ele>
        <time>2009-05-21T11:41:26Z</time>
      </trkpt>
      <trkpt lat="50.657727" lon="6.382777">
        <ele>477.910000</ele>
        <time>2009-05-21T11:41:37Z</time>
      </trkpt>
      <trkpt lat="50.657705" lon="6.383060">
        <ele>478.390000</ele>
        <time>2009-05-21T11:41:51Z</time>
      </trkpt>
      <trkpt lat="50.657652" lon="6.383470">
        <ele>478.870000</ele>
        <time>2009-05-21T11:42:12Z</time>
      </trkpt>
      <trkpt lat="50.657600" lon="6.383636">
        <ele>478.870000</ele>
        <time>2009-05-21T11:42:17Z</time>
      </trkpt>
      <trkpt lat="50.657590" lon="6.383707">
        <ele>478.870000</ele>
        <time>2009-05-21T11:42:21Z</time>
      </trkpt>
      <trkpt lat="50.657582" lon="6.383898">
        <ele>478.870000</ele>
        <time>2009-05-21T11:42:30Z</time>
      </trkpt>
      <trkpt lat="50.657598" lon="6.384216">
        <ele>479.350000</ele>
        <time>2009-05-21T11:42:48Z</time>
      </trkpt>
      <trkpt lat="50.657587" lon="6.384506">
        <ele>478.870000</ele>
        <time>2009-05-21T11:43:02Z</time>
      </trkpt>
      <trkpt lat="50.657575" lon="6.384781">
        <ele>478.870000</ele>
        <time>2009-05-21T11:43:15Z</time>
      </trkpt>
      <trkpt lat="50.657578" lon="6.384847">
        <ele>479.350000</ele>
        <time>2009-05-21T11:43:18Z</time>
      </trkpt>
      <trkpt lat="50.657593" lon="6.384957">
        <ele>479.350000</ele>
        <time>2009-05-21T11:43:24Z</time>
      </trkpt>
      <trkpt lat="50.657600" lon="6.385359">
        <ele>479.350000</ele>
        <time>2009-05-21T11:43:43Z</time>
      </trkpt>
      <trkpt lat="50.657607" lon="6.385690">
        <ele>479.350000</ele>
        <time>2009-05-21T11:43:58Z</time>
      </trkpt>
      <trkpt lat="50.657594" lon="6.385848">
        <ele>479.350000</ele>
        <time>2009-05-21T11:44:05Z</time>
      </trkpt>
      <trkpt lat="50.657574" lon="6.385983">
        <ele>479.840000</ele>
        <time>2009-05-21T11:44:12Z</time>
      </trkpt>
      <trkpt lat="50.657566" lon="6.386100">
        <ele>479.840000</ele>
        <time>2009-05-21T11:44:17Z</time>
      </trkpt>
      <trkpt lat="50.657564" lon="6.386406">
        <ele>479.840000</ele>
        <time>2009-05-21T11:44:33Z</time>
      </trkpt>
      <trkpt lat="50.657523" lon="6.386589">
        <ele>479.840000</ele>
        <time>2009-05-21T11:44:39Z</time>
      </trkpt>
      <trkpt lat="50.657502" lon="6.386698">
        <ele>479.840000</ele>
        <time>2009-05-21T11:44:44Z</time>
      </trkpt>
      <trkpt lat="50.657503" lon="6.386897">
        <ele>480.320000</ele>
        <time>2009-05-21T11:44:52Z</time>
      </trkpt>
      <trkpt lat="50.657480" lon="6.386998">
        <ele>480.320000</ele>
        <time>2009-05-21T11:44:56Z</time>
      </trkpt>
      <trkpt lat="50.657486" lon="6.387303">
        <ele>480.800000</ele>
        <time>2009-05-21T11:45:11Z</time>
      </trkpt>
      <trkpt lat="50.657542" lon="6.387595">
        <ele>480.320000</ele>
        <time>2009-05-21T11:45:26Z</time>
      </trkpt>
      <trkpt lat="50.657557" lon="6.387690">
        <ele>480.320000</ele>
        <time>2009-05-21T11:45:33Z</time>
      </trkpt>
      <trkpt lat="50.657597" lon="6.387832">
        <ele>480.320000</ele>
        <time>2009-05-21T11:45:39Z</time>
      </trkpt>
      <trkpt lat="50.657610" lon="6.387915">
        <ele>480.320000</ele>
        <time>2009-05-21T11:45:43Z</time>
      </trkpt>
      <trkpt lat="50.657620" lon="6.388000">
        <ele>480.800000</ele>
        <time>2009-05-21T11:45:47Z</time>
      </trkpt>
      <trkpt lat="50.657625" lon="6.388112">
        <ele>480.800000</ele>
        <time>2009-05-21T11:45:52Z</time>
      </trkpt>
      <trkpt lat="50.657730" lon="6.388334">
        <ele>481.280000</ele>
        <time>2009-05-21T11:46:04Z</time>
      </trkpt>
      <trkpt lat="50.657761" lon="6.388375">
        <ele>481.280000</ele>
        <time>2009-05-21T11:46:07Z</time>
      </trkpt>
      <trkpt lat="50.657806" lon="6.388525">
        <ele>481.280000</ele>
        <time>2009-05-21T11:46:15Z</time>
      </trkpt>
      <trkpt lat="50.657824" lon="6.388590">
        <ele>481.280000</ele>
        <time>2009-05-21T11:46:18Z</time>
      </trkpt>
      <trkpt lat="50.657835" lon="6.388706">
        <ele>481.280000</ele>
        <time>2009-05-21T11:46:23Z</time>
      </trkpt>
      <trkpt lat="50.657857" lon="6.388823">
        <ele>481.280000</ele>
        <time>2009-05-21T11:46:29Z</time>
      </trkpt>
      <trkpt lat="50.657876" lon="6.388913">
        <ele>481.280000</ele>
        <time>2009-05-21T11:46:33Z</time>
      </trkpt>
      <trkpt lat="50.657923" lon="6.389013">
        <ele>481.280000</ele>
        <time>2009-05-21T11:46:39Z</time>
      </trkpt>
      <trkpt lat="50.657941" lon="6.389119">
        <ele>480.800000</ele>
        <time>2009-05-21T11:46:44Z</time>
      </trkpt>
      <trkpt lat="50.657948" lon="6.389361">
        <ele>481.280000</ele>
        <time>2009-05-21T11:46:58Z</time>
      </trkpt>
      <trkpt lat="50.657988" lon="6.389489">
        <ele>481.280000</ele>
        <time>2009-05-21T11:47:04Z</time>
      </trkpt>
      <trkpt lat="50.658007" lon="6.389602">
        <ele>481.280000</ele>
        <time>2009-05-21T11:47:09Z</time>
      </trkpt>
      <trkpt lat="50.658040" lon="6.389727">
        <ele>481.280000</ele>
        <time>2009-05-21T11:47:15Z</time>
      </trkpt>
      <trkpt lat="50.658057" lon="6.389823">
        <ele>481.280000</ele>
        <time>2009-05-21T11:47:20Z</time>
      </trkpt>
      <trkpt lat="50.658097" lon="6.390088">
        <ele>481.760000</ele>
        <time>2009-05-21T11:47:31Z</time>
      </trkpt>
      <trkpt lat="50.658132" lon="6.390240">
        <ele>481.760000</ele>
        <time>2009-05-21T11:47:39Z</time>
      </trkpt>
      <trkpt lat="50.658175" lon="6.390506">
        <ele>481.760000</ele>
        <time>2009-05-21T11:47:53Z</time>
      </trkpt>
      <trkpt lat="50.658265" lon="6.390793">
        <ele>482.720000</ele>
        <time>2009-05-21T11:48:07Z</time>
      </trkpt>
      <trkpt lat="50.658306" lon="6.391002">
        <ele>482.240000</ele>
        <time>2009-05-21T11:48:17Z</time>
      </trkpt>
      <trkpt lat="50.658383" lon="6.391302">
        <ele>482.720000</ele>
        <time>2009-05-21T11:48:33Z</time>
      </trkpt>
      <trkpt lat="50.658400" lon="6.391316">
        <ele>482.720000</ele>
        <time>2009-05-21T11:48:34Z</time>
      </trkpt>
      <trkpt lat="50.658420" lon="6.391405">
        <ele>483.200000</ele>
        <time>2009-05-21T11:48:39Z</time>
      </trkpt>
      <trkpt lat="50.658426" lon="6.391448">
        <ele>483.200000</ele>
        <time>2009-05-21T11:48:42Z</time>
      </trkpt>
      <trkpt lat="50.658507" lon="6.391575">
        <ele>483.200000</ele>
        <time>2009-05-21T11:48:50Z</time>
      </trkpt>
      <trkpt lat="50.658614" lon="6.391836">
        <ele>483.200000</ele>
        <time>2009-05-21T11:49:04Z</time>
      </trkpt>
      <trkpt lat="50.658671" lon="6.391912">
        <ele>483.200000</ele>
        <time>2009-05-21T11:49:09Z</time>
      </trkpt>
      <trkpt lat="50.658847" lon="6.392121">
        <ele>482.240000</ele>
        <time>2009-05-21T11:49:25Z</time>
      </trkpt>
      <trkpt lat="50.659064" lon="6.392340">
        <ele>481.760000</ele>
        <time>2009-05-21T11:49:43Z</time>
      </trkpt>
      <trkpt lat="50.659222" lon="6.392479">
        <ele>482.720000</ele>
        <time>2009-05-21T11:49:58Z</time>
      </trkpt>
      <trkpt lat="50.659462" lon="6.392588">
        <ele>482.240000</ele>
        <time>2009-05-21T11:50:13Z</time>
      </trkpt>
      <trkpt lat="50.659486" lon="6.392609">
        <ele>482.720000</ele>
        <time>2009-05-21T11:50:16Z</time>
      </trkpt>
      <trkpt lat="50.659543" lon="6.392665">
        <ele>482.720000</ele>
        <time>2009-05-21T11:50:21Z</time>
      </trkpt>
      <trkpt lat="50.659599" lon="6.392685">
        <ele>482.720000</ele>
        <time>2009-05-21T11:50:26Z</time>
      </trkpt>
      <trkpt lat="50.659789" lon="6.392827">
        <ele>482.720000</ele>
        <time>2009-05-21T11:50:41Z</time>
      </trkpt>
      <trkpt lat="50.659945" lon="6.392873">
        <ele>482.720000</ele>
        <time>2009-05-21T11:50:54Z</time>
      </trkpt>
      <trkpt lat="50.659966" lon="6.392877">
        <ele>482.720000</ele>
        <time>2009-05-21T11:50:55Z</time>
      </trkpt>
      <trkpt lat="50.660024" lon="6.392926">
        <ele>482.720000</ele>
        <time>2009-05-21T11:51:00Z</time>
      </trkpt>
      <trkpt lat="50.660197" lon="6.393089">
        <ele>483.680000</ele>
        <time>2009-05-21T11:51:15Z</time>
      </trkpt>
      <trkpt lat="50.660177" lon="6.393184">
        <ele>483.680000</ele>
        <time>2009-05-21T11:51:19Z</time>
      </trkpt>
      <trkpt lat="50.660047" lon="6.393358">
        <ele>484.160000</ele>
        <time>2009-05-21T11:51:34Z</time>
      </trkpt>
      <trkpt lat="50.659842" lon="6.393426">
        <ele>485.600000</ele>
        <time>2009-05-21T11:51:51Z</time>
      </trkpt>
      <trkpt lat="50.659650" lon="6.393615">
        <ele>486.080000</ele>
        <time>2009-05-21T11:52:05Z</time>
      </trkpt>
      <trkpt lat="50.659477" lon="6.393729">
        <ele>487.050000</ele>
        <time>2009-05-21T11:52:19Z</time>
      </trkpt>
      <trkpt lat="50.659295" lon="6.393931">
        <ele>488.490000</ele>
        <time>2009-05-21T11:52:32Z</time>
      </trkpt>
      <trkpt lat="50.659182" lon="6.394036">
        <ele>489.450000</ele>
        <time>2009-05-21T11:52:44Z</time>
      </trkpt>
      <trkpt lat="50.658981" lon="6.394183">
        <ele>491.370000</ele>
        <time>2009-05-21T11:52:59Z</time>
      </trkpt>
      <trkpt lat="50.658787" lon="6.394305">
        <ele>491.370000</ele>
        <time>2009-05-21T11:53:13Z</time>
      </trkpt>
      <trkpt lat="50.658568" lon="6.394488">
        <ele>492.330000</ele>
        <time>2009-05-21T11:53:30Z</time>
      </trkpt>
      <trkpt lat="50.658526" lon="6.394518">
        <ele>492.330000</ele>
        <time>2009-05-21T11:53:34Z</time>
      </trkpt>
      <trkpt lat="50.658348" lon="6.394691">
        <ele>493.290000</ele>
        <time>2009-05-21T11:53:49Z</time>
      </trkpt>
      <trkpt lat="50.658150" lon="6.394897">
        <ele>493.770000</ele>
        <time>2009-05-21T11:54:06Z</time>
      </trkpt>
      <trkpt lat="50.658000" lon="6.395094">
        <ele>494.740000</ele>
        <time>2009-05-21T11:54:21Z</time>
      </trkpt>
      <trkpt lat="50.657849" lon="6.395349">
        <ele>495.220000</ele>
        <time>2009-05-21T11:54:39Z</time>
      </trkpt>
      <trkpt lat="50.657733" lon="6.395542">
        <ele>495.220000</ele>
        <time>2009-05-21T11:54:53Z</time>
      </trkpt>
      <trkpt lat="50.657581" lon="6.395736">
        <ele>495.220000</ele>
        <time>2009-05-21T11:55:06Z</time>
      </trkpt>
      <trkpt lat="50.657568" lon="6.395749">
        <ele>495.220000</ele>
        <time>2009-05-21T11:55:07Z</time>
      </trkpt>
      <trkpt lat="50.657513" lon="6.395816">
        <ele>495.220000</ele>
        <time>2009-05-21T11:55:11Z</time>
      </trkpt>
      <trkpt lat="50.657346" lon="6.396009">
        <ele>494.740000</ele>
        <time>2009-05-21T11:55:25Z</time>
      </trkpt>
      <trkpt lat="50.657253" lon="6.396158">
        <ele>493.770000</ele>
        <time>2009-05-21T11:55:38Z</time>
      </trkpt>
      <trkpt lat="50.657113" lon="6.396367">
        <ele>493.290000</ele>
        <time>2009-05-21T11:55:52Z</time>
      </trkpt>
      <trkpt lat="50.657103" lon="6.396376">
        <ele>493.290000</ele>
        <time>2009-05-21T11:55:53Z</time>
      </trkpt>
      <trkpt lat="50.657016" lon="6.396549">
        <ele>492.330000</ele>
        <time>2009-05-21T11:56:04Z</time>
      </trkpt>
      <trkpt lat="50.656890" lon="6.396707">
        <ele>491.850000</ele>
        <time>2009-05-21T11:56:15Z</time>
      </trkpt>
      <trkpt lat="50.656789" lon="6.396843">
        <ele>491.370000</ele>
        <time>2009-05-21T11:56:27Z</time>
      </trkpt>
      <trkpt lat="50.656773" lon="6.396921">
        <ele>490.890000</ele>
        <time>2009-05-21T11:56:32Z</time>
      </trkpt>
      <trkpt lat="50.656708" lon="6.397071">
        <ele>489.930000</ele>
        <time>2009-05-21T11:56:43Z</time>
      </trkpt>
      <trkpt lat="50.656550" lon="6.397261">
        <ele>489.450000</ele>
        <time>2009-05-21T11:56:55Z</time>
      </trkpt>
      <trkpt lat="50.656470" lon="6.397370">
        <ele>488.970000</ele>
        <time>2009-05-21T11:57:03Z</time>
      </trkpt>
      <trkpt lat="50.656292" lon="6.397636">
        <ele>488.010000</ele>
        <time>2009-05-21T11:57:19Z</time>
      </trkpt>
      <trkpt lat="50.656133" lon="6.397826">
        <ele>487.050000</ele>
        <time>2009-05-21T11:57:33Z</time>
      </trkpt>
      <trkpt lat="50.656016" lon="6.397999">
        <ele>486.560000</ele>
        <time>2009-05-21T11:57:45Z</time>
      </trkpt>
      <trkpt lat="50.656025" lon="6.398283">
        <ele>486.080000</ele>
        <time>2009-05-21T11:57:56Z</time>
      </trkpt>
      <trkpt lat="50.656231" lon="6.398453">
        <ele>486.560000</ele>
        <time>2009-05-21T11:58:12Z</time>
      </trkpt>
      <trkpt lat="50.656402" lon="6.398581">
        <ele>487.050000</ele>
        <time>2009-05-21T11:58:26Z</time>
      </trkpt>
      <trkpt lat="50.656538" lon="6.398771">
        <ele>487.530000</ele>
        <time>2009-05-21T11:58:40Z</time>
      </trkpt>
      <trkpt lat="50.656686" lon="6.398904">
        <ele>487.530000</ele>
        <time>2009-05-21T11:58:52Z</time>
      </trkpt>
      <trkpt lat="50.656843" lon="6.399135">
        <ele>487.530000</ele>
        <time>2009-05-21T11:59:07Z</time>
      </trkpt>
      <trkpt lat="50.656955" lon="6.399366">
        <ele>487.530000</ele>
        <time>2009-05-21T11:59:21Z</time>
      </trkpt>
      <trkpt lat="50.657076" lon="6.399578">
        <ele>487.530000</ele>
        <time>2009-05-21T11:59:34Z</time>
      </trkpt>
      <trkpt lat="50.657230" lon="6.399829">
        <ele>488.010000</ele>
        <time>2009-05-21T11:59:51Z</time>
      </trkpt>
      <trkpt lat="50.657274" lon="6.399926">
        <ele>488.010000</ele>
        <time>2009-05-21T11:59:57Z</time>
      </trkpt>
      <trkpt lat="50.657286" lon="6.400014">
        <ele>488.010000</ele>
        <time>2009-05-21T12:00:01Z</time>
      </trkpt>
      <trkpt lat="50.657420" lon="6.400190">
        <ele>487.530000</ele>
        <time>2009-05-21T12:00:14Z</time>
      </trkpt>
      <trkpt lat="50.657501" lon="6.400338">
        <ele>487.530000</ele>
        <time>2009-05-21T12:00:23Z</time>
      </trkpt>
      <trkpt lat="50.657541" lon="6.400404">
        <ele>487.050000</ele>
        <time>2009-05-21T12:00:28Z</time>
      </trkpt>
      <trkpt lat="50.657584" lon="6.400456">
        <ele>487.530000</ele>
        <time>2009-05-21T12:00:33Z</time>
      </trkpt>
      <trkpt lat="50.657632" lon="6.400494">
        <ele>487.050000</ele>
        <time>2009-05-21T12:00:37Z</time>
      </trkpt>
      <trkpt lat="50.657757" lon="6.400720">
        <ele>487.050000</ele>
        <time>2009-05-21T12:00:50Z</time>
      </trkpt>
      <trkpt lat="50.657843" lon="6.400835">
        <ele>486.560000</ele>
        <time>2009-05-21T12:00:58Z</time>
      </trkpt>
      <trkpt lat="50.658010" lon="6.401008">
        <ele>486.080000</ele>
        <time>2009-05-21T12:01:14Z</time>
      </trkpt>
      <trkpt lat="50.658138" lon="6.401190">
        <ele>485.600000</ele>
        <time>2009-05-21T12:01:29Z</time>
      </trkpt>
      <trkpt lat="50.658331" lon="6.401401">
        <ele>485.120000</ele>
        <time>2009-05-21T12:01:43Z</time>
      </trkpt>
      <trkpt lat="50.658460" lon="6.401606">
        <ele>484.640000</ele>
        <time>2009-05-21T12:01:58Z</time>
      </trkpt>
      <trkpt lat="50.658545" lon="6.401748">
        <ele>483.680000</ele>
        <time>2009-05-21T12:02:07Z</time>
      </trkpt>
      <trkpt lat="50.658633" lon="6.401881">
        <ele>483.200000</ele>
        <time>2009-05-21T12:02:16Z</time>
      </trkpt>
      <trkpt lat="50.658699" lon="6.402032">
        <ele>482.720000</ele>
        <time>2009-05-21T12:02:24Z</time>
      </trkpt>
      <trkpt lat="50.658818" lon="6.402319">
        <ele>481.760000</ele>
        <time>2009-05-21T12:02:40Z</time>
      </trkpt>
      <trkpt lat="50.658918" lon="6.402529">
        <ele>480.800000</ele>
        <time>2009-05-21T12:02:53Z</time>
      </trkpt>
      <trkpt lat="50.659054" lon="6.402745">
        <ele>480.320000</ele>
        <time>2009-05-21T12:03:06Z</time>
      </trkpt>
      <trkpt lat="50.659172" lon="6.402992">
        <ele>479.350000</ele>
        <time>2009-05-21T12:03:21Z</time>
      </trkpt>
      <trkpt lat="50.659296" lon="6.403244">
        <ele>478.390000</ele>
        <time>2009-05-21T12:03:35Z</time>
      </trkpt>
      <trkpt lat="50.659395" lon="6.403485">
        <ele>477.910000</ele>
        <time>2009-05-21T12:03:49Z</time>
      </trkpt>
      <trkpt lat="50.659463" lon="6.403619">
        <ele>476.950000</ele>
        <time>2009-05-21T12:03:57Z</time>
      </trkpt>
      <trkpt lat="50.659534" lon="6.403808">
        <ele>475.990000</ele>
        <time>2009-05-21T12:04:07Z</time>
      </trkpt>
      <trkpt lat="50.659635" lon="6.404083">
        <ele>475.510000</ele>
        <time>2009-05-21T12:04:21Z</time>
      </trkpt>
      <trkpt lat="50.659766" lon="6.404390">
        <ele>474.070000</ele>
        <time>2009-05-21T12:04:39Z</time>
      </trkpt>
      <trkpt lat="50.659902" lon="6.404572">
        <ele>473.110000</ele>
        <time>2009-05-21T12:04:52Z</time>
      </trkpt>
      <trkpt lat="50.660082" lon="6.404674">
        <ele>472.140000</ele>
        <time>2009-05-21T12:05:04Z</time>
      </trkpt>
      <trkpt lat="50.660211" lon="6.404832">
        <ele>471.180000</ele>
        <time>2009-05-21T12:05:16Z</time>
      </trkpt>
      <trkpt lat="50.660263" lon="6.404871">
        <ele>470.700000</ele>
        <time>2009-05-21T12:05:20Z</time>
      </trkpt>
      <trkpt lat="50.660322" lon="6.404929">
        <ele>470.700000</ele>
        <time>2009-05-21T12:05:26Z</time>
      </trkpt>
      <trkpt lat="50.660535" lon="6.405177">
        <ele>468.780000</ele>
        <time>2009-05-21T12:05:43Z</time>
      </trkpt>
      <trkpt lat="50.660717" lon="6.405326">
        <ele>467.340000</ele>
        <time>2009-05-21T12:05:58Z</time>
      </trkpt>
      <trkpt lat="50.660821" lon="6.405511">
        <ele>465.900000</ele>
        <time>2009-05-21T12:06:10Z</time>
      </trkpt>
      <trkpt lat="50.660904" lon="6.405828">
        <ele>465.420000</ele>
        <time>2009-05-21T12:06:26Z</time>
      </trkpt>
      <trkpt lat="50.660917" lon="6.405876">
        <ele>464.930000</ele>
        <time>2009-05-21T12:06:29Z</time>
      </trkpt>
      <trkpt lat="50.660986" lon="6.406046">
        <ele>464.450000</ele>
        <time>2009-05-21T12:06:37Z</time>
      </trkpt>
      <trkpt lat="50.661076" lon="6.406373">
        <ele>463.970000</ele>
        <time>2009-05-21T12:06:53Z</time>
      </trkpt>
      <trkpt lat="50.661227" lon="6.406637">
        <ele>462.530000</ele>
        <time>2009-05-21T12:07:09Z</time>
      </trkpt>
      <trkpt lat="50.661263" lon="6.406695">
        <ele>462.530000</ele>
        <time>2009-05-21T12:07:13Z</time>
      </trkpt>
      <trkpt lat="50.661429" lon="6.406962">
        <ele>461.090000</ele>
        <time>2009-05-21T12:07:31Z</time>
      </trkpt>
      <trkpt lat="50.661541" lon="6.407151">
        <ele>460.610000</ele>
        <time>2009-05-21T12:07:44Z</time>
      </trkpt>
      <trkpt lat="50.661594" lon="6.407235">
        <ele>460.130000</ele>
        <time>2009-05-21T12:07:49Z</time>
      </trkpt>
      <trkpt lat="50.661816" lon="6.407499">
        <ele>458.690000</ele>
        <time>2009-05-21T12:08:06Z</time>
      </trkpt>
      <trkpt lat="50.661870" lon="6.407573">
        <ele>458.210000</ele>
        <time>2009-05-21T12:08:12Z</time>
      </trkpt>
      <trkpt lat="50.661892" lon="6.407565">
        <ele>458.690000</ele>
        <time>2009-05-21T12:08:14Z</time>
      </trkpt>
      <trkpt lat="50.661953" lon="6.407500">
        <ele>458.210000</ele>
        <time>2009-05-21T12:08:19Z</time>
      </trkpt>
      <trkpt lat="50.662103" lon="6.407163">
        <ele>456.280000</ele>
        <time>2009-05-21T12:08:35Z</time>
      </trkpt>
      <trkpt lat="50.662263" lon="6.406924">
        <ele>454.360000</ele>
        <time>2009-05-21T12:08:49Z</time>
      </trkpt>
      <trkpt lat="50.662378" lon="6.406712">
        <ele>452.920000</ele>
        <time>2009-05-21T12:09:03Z</time>
      </trkpt>
      <trkpt lat="50.662423" lon="6.406654">
        <ele>453.400000</ele>
        <time>2009-05-21T12:09:08Z</time>
      </trkpt>
      <trkpt lat="50.662447" lon="6.406598">
        <ele>452.920000</ele>
        <time>2009-05-21T12:09:12Z</time>
      </trkpt>
      <trkpt lat="50.662549" lon="6.406524">
        <ele>452.440000</ele>
        <time>2009-05-21T12:09:21Z</time>
      </trkpt>
      <trkpt lat="50.662742" lon="6.406646">
        <ele>450.030000</ele>
        <time>2009-05-21T12:09:36Z</time>
      </trkpt>
      <trkpt lat="50.662879" lon="6.406812">
        <ele>447.150000</ele>
        <time>2009-05-21T12:09:50Z</time>
      </trkpt>
      <trkpt lat="50.663011" lon="6.406942">
        <ele>445.230000</ele>
        <time>2009-05-21T12:10:02Z</time>
      </trkpt>
      <trkpt lat="50.663145" lon="6.407105">
        <ele>444.750000</ele>
        <time>2009-05-21T12:10:14Z</time>
      </trkpt>
      <trkpt lat="50.663283" lon="6.407322">
        <ele>443.790000</ele>
        <time>2009-05-21T12:10:28Z</time>
      </trkpt>
      <trkpt lat="50.663334" lon="6.407662">
        <ele>443.790000</ele>
        <time>2009-05-21T12:10:44Z</time>
      </trkpt>
      <trkpt lat="50.663406" lon="6.407823">
        <ele>443.310000</ele>
        <time>2009-05-21T12:10:52Z</time>
      </trkpt>
      <trkpt lat="50.663526" lon="6.408073">
        <ele>443.310000</ele>
        <time>2009-05-21T12:11:06Z</time>
      </trkpt>
      <trkpt lat="50.663619" lon="6.408256">
        <ele>442.820000</ele>
        <time>2009-05-21T12:11:18Z</time>
      </trkpt>
      <trkpt lat="50.663627" lon="6.408273">
        <ele>443.310000</ele>
        <time>2009-05-21T12:11:19Z</time>
      </trkpt>
      <trkpt lat="50.663810" lon="6.408545">
        <ele>442.820000</ele>
        <time>2009-05-21T12:11:36Z</time>
      </trkpt>
      <trkpt lat="50.663896" lon="6.408658">
        <ele>442.340000</ele>
        <time>2009-05-21T12:11:44Z</time>
      </trkpt>
      <trkpt lat="50.664018" lon="6.408744">
        <ele>441.860000</ele>
        <time>2009-05-21T12:11:54Z</time>
      </trkpt>
      <trkpt lat="50.663541" lon="6.405796">
        <ele>504.350000</ele>
        <time>2009-05-21T12:12:36Z</time>
      </trkpt>
      <trkpt lat="50.663537" lon="6.405796">
        <ele>504.350000</ele>
        <time>2009-05-21T12:12:38Z</time>
      </trkpt>
      <trkpt lat="50.663881" lon="6.408897">
        <ele>504.350000</ele>
        <time>2009-05-21T12:12:45Z</time>
      </trkpt>
      <trkpt lat="50.664001" lon="6.408918">
        <ele>503.870000</ele>
        <time>2009-05-21T12:12:53Z</time>
      </trkpt>
      <trkpt lat="50.663997" lon="6.408910">
        <ele>503.870000</ele>
        <time>2009-05-21T12:12:56Z</time>
      </trkpt>
      <trkpt lat="50.664061" lon="6.408944">
        <ele>503.390000</ele>
        <time>2009-05-21T12:12:58Z</time>
      </trkpt>
    </trkseg>
  </trk>

</gpx>
